<?xml version='1.0' encoding='UTF-8'?><gpx version="1.1" creator="JPX - https://github.com/jenetics/jpx" xmlns="http://www.topografix.com/GPX/1/1"><trk><trkseg><trkpt lat="43.423763" lon="11.5331094"><ele>508.00000000000006</ele><time>2026-03-28T12:57:45.335Z</time></trkpt><trkpt lat="43.4236994" lon="11.5331001"><ele>508.0</ele><time>2026-03-28T12:57:47.335Z</time></trkpt><trkpt lat="43.4236362" lon="11.5331516"><ele>508.0</ele><time>2026-03-28T12:57:49.334Z</time></trkpt><trkpt lat="43.4235776" lon="11.5332714"><ele>508.0</ele><time>2026-03-28T12:57:51.335Z</time></trkpt><trkpt lat="43.4234785" lon="11.5333347"><ele>508.00000000000006</ele><time>2026-03-28T12:57:53.334Z</time></trkpt><trkpt lat="43.4234147" lon="11.533341"><ele>508.0</ele><time>2026-03-28T12:57:54.335Z</time></trkpt><trkpt lat="43.4233488" lon="11.5333445"><ele>508.00000000000006</ele><time>2026-03-28T12:57:55.335Z</time></trkpt><trkpt lat="43.4232248" lon="11.5333529"><ele>508.0</ele><time>2026-03-28T12:57:57.334Z</time></trkpt><trkpt lat="43.4231549" lon="11.5333559"><ele>508.0</ele><time>2026-03-28T12:57:58.335Z</time></trkpt><trkpt lat="43.4230856" lon="11.5333738"><ele>508.0</ele><time>2026-03-28T12:57:59.334Z</time></trkpt><trkpt lat="43.4230151" lon="11.5333928"><ele>508.00000000000006</ele><time>2026-03-28T12:58:00.335Z</time></trkpt><trkpt lat="43.4229421" lon="11.5334211"><ele>508.0</ele><time>2026-03-28T12:58:01.335Z</time></trkpt><trkpt lat="43.4228706" lon="11.5334455"><ele>507.0</ele><time>2026-03-28T12:58:02.335Z</time></trkpt><trkpt lat="43.4227941" lon="11.5334751"><ele>506.0</ele><time>2026-03-28T12:58:03.335Z</time></trkpt><trkpt lat="43.422725" lon="11.5334965"><ele>505.0</ele><time>2026-03-28T12:58:04.334Z</time></trkpt><trkpt lat="43.4226498" lon="11.5335167"><ele>504.0</ele><time>2026-03-28T12:58:05.335Z</time></trkpt><trkpt lat="43.4225839" lon="11.5335334"><ele>503.0</ele><time>2026-03-28T12:58:06.335Z</time></trkpt><trkpt lat="43.4225132" lon="11.5335419"><ele>502.0</ele><time>2026-03-28T12:58:07.335Z</time></trkpt><trkpt lat="43.4224424" lon="11.5335396"><ele>501.0</ele><time>2026-03-28T12:58:08.335Z</time></trkpt><trkpt lat="43.4223662" lon="11.5335312"><ele>501.0</ele><time>2026-03-28T12:58:09.335Z</time></trkpt><trkpt lat="43.422292" lon="11.5335226"><ele>501.0</ele><time>2026-03-28T12:58:10.335Z</time></trkpt><trkpt lat="43.42222" lon="11.5335142"><ele>501.0</ele><time>2026-03-28T12:58:11.335Z</time></trkpt><trkpt lat="43.4221501" lon="11.5335108"><ele>501.0</ele><time>2026-03-28T12:58:12.334Z</time></trkpt><trkpt lat="43.4220787" lon="11.5335052"><ele>501.0</ele><time>2026-03-28T12:58:13.335Z</time></trkpt><trkpt lat="43.422" lon="11.5335095"><ele>501.0</ele><time>2026-03-28T12:58:14.334Z</time></trkpt><trkpt lat="43.42193" lon="11.5335127"><ele>501.0</ele><time>2026-03-28T12:58:15.334Z</time></trkpt><trkpt lat="43.4218529" lon="11.5335193"><ele>499.57142857142856</ele><time>2026-03-28T12:58:16.335Z</time></trkpt><trkpt lat="43.4217803" lon="11.5335248"><ele>498.1428571428571</ele><time>2026-03-28T12:58:17.334Z</time></trkpt><trkpt lat="43.421704" lon="11.5335381"><ele>496.71428571428567</ele><time>2026-03-28T12:58:18.335Z</time></trkpt><trkpt lat="43.421636" lon="11.5335426"><ele>495.2857142857143</ele><time>2026-03-28T12:58:19.335Z</time></trkpt><trkpt lat="43.4215659" lon="11.5335512"><ele>493.8571428571428</ele><time>2026-03-28T12:58:20.335Z</time></trkpt><trkpt lat="43.4214991" lon="11.5335703"><ele>492.4285714285714</ele><time>2026-03-28T12:58:21.334Z</time></trkpt><trkpt lat="43.4214325" lon="11.53358"><ele>491.0</ele><time>2026-03-28T12:58:22.335Z</time></trkpt><trkpt lat="43.4213617" lon="11.5336043"><ele>489.1428571428571</ele><time>2026-03-28T12:58:23.335Z</time></trkpt><trkpt lat="43.4212896" lon="11.5336067"><ele>487.2857142857142</ele><time>2026-03-28T12:58:24.335Z</time></trkpt><trkpt lat="43.4212246" lon="11.5336228"><ele>485.42857142857144</ele><time>2026-03-28T12:58:25.335Z</time></trkpt><trkpt lat="43.4211526" lon="11.5336196"><ele>483.57142857142856</ele><time>2026-03-28T12:58:26.334Z</time></trkpt><trkpt lat="43.4210799" lon="11.5336259"><ele>481.7142857142857</ele><time>2026-03-28T12:58:27.335Z</time></trkpt><trkpt lat="43.4210069" lon="11.5336217"><ele>479.8571428571429</ele><time>2026-03-28T12:58:28.335Z</time></trkpt><trkpt lat="43.4209369" lon="11.5336267"><ele>478.00000000000006</ele><time>2026-03-28T12:58:29.334Z</time></trkpt><trkpt lat="43.4208704" lon="11.5336231"><ele>478.00000000000006</ele><time>2026-03-28T12:58:30.334Z</time></trkpt><trkpt lat="43.4208053" lon="11.5336211"><ele>478.0</ele><time>2026-03-28T12:58:31.334Z</time></trkpt><trkpt lat="43.4206889" lon="11.5336088"><ele>478.0</ele><time>2026-03-28T12:58:33.335Z</time></trkpt><trkpt lat="43.4205721" lon="11.5336215"><ele>478.0</ele><time>2026-03-28T12:58:35.334Z</time></trkpt><trkpt lat="43.4205054" lon="11.5336437"><ele>478.00000000000006</ele><time>2026-03-28T12:58:36.335Z</time></trkpt><trkpt lat="43.420434" lon="11.5336754"><ele>478.0</ele><time>2026-03-28T12:58:37.335Z</time></trkpt><trkpt lat="43.4203623" lon="11.5337429"><ele>474.6666666666667</ele><time>2026-03-28T12:58:38.335Z</time></trkpt><trkpt lat="43.4202922" lon="11.5338089"><ele>471.33333333333337</ele><time>2026-03-28T12:58:39.334Z</time></trkpt><trkpt lat="43.4202193" lon="11.5338892"><ele>468.0</ele><time>2026-03-28T12:58:40.335Z</time></trkpt><trkpt lat="43.4201448" lon="11.5339601"><ele>464.66666666666663</ele><time>2026-03-28T12:58:41.334Z</time></trkpt><trkpt lat="43.4200741" lon="11.5340348"><ele>461.3333333333333</ele><time>2026-03-28T12:58:42.335Z</time></trkpt><trkpt lat="43.4200003" lon="11.5341081"><ele>458.0</ele><time>2026-03-28T12:58:43.335Z</time></trkpt><trkpt lat="43.4199268" lon="11.5341806"><ele>457.99999999999994</ele><time>2026-03-28T12:58:44.335Z</time></trkpt><trkpt lat="43.4198484" lon="11.5342041"><ele>458.0</ele><time>2026-03-28T12:58:45.334Z</time></trkpt><trkpt lat="43.4197669" lon="11.5342399"><ele>458.0</ele><time>2026-03-28T12:58:46.335Z</time></trkpt><trkpt lat="43.4196844" lon="11.5342645"><ele>458.0</ele><time>2026-03-28T12:58:47.334Z</time></trkpt><trkpt lat="43.4196023" lon="11.5342803"><ele>457.99999999999994</ele><time>2026-03-28T12:58:48.334Z</time></trkpt><trkpt lat="43.4195308" lon="11.5342861"><ele>458.0</ele><time>2026-03-28T12:58:49.334Z</time></trkpt><trkpt lat="43.4194309" lon="11.5342881"><ele>457.3333333333333</ele><time>2026-03-28T12:58:51.335Z</time></trkpt><trkpt lat="43.4193656" lon="11.5343002"><ele>456.66666666666663</ele><time>2026-03-28T12:59:06.335Z</time></trkpt><trkpt lat="43.4192636" lon="11.534309"><ele>456.0</ele><time>2026-03-28T12:59:09.335Z</time></trkpt><trkpt lat="43.4191408" lon="11.5343117"><ele>455.33333333333337</ele><time>2026-03-28T12:59:11.335Z</time></trkpt><trkpt lat="43.4190715" lon="11.5343186"><ele>454.6666666666667</ele><time>2026-03-28T12:59:12.335Z</time></trkpt><trkpt lat="43.4190005" lon="11.5343244"><ele>454.0</ele><time>2026-03-28T12:59:13.334Z</time></trkpt><trkpt lat="43.418928" lon="11.5343433"><ele>454.00000000000006</ele><time>2026-03-28T12:59:14.335Z</time></trkpt><trkpt lat="43.4188577" lon="11.5343465"><ele>454.0</ele><time>2026-03-28T12:59:15.334Z</time></trkpt><trkpt lat="43.4187855" lon="11.5343513"><ele>454.0</ele><time>2026-03-28T12:59:16.335Z</time></trkpt><trkpt lat="43.4187101" lon="11.5343627"><ele>454.0</ele><time>2026-03-28T12:59:17.334Z</time></trkpt><trkpt lat="43.4186294" lon="11.5343667"><ele>454.00000000000006</ele><time>2026-03-28T12:59:18.335Z</time></trkpt><trkpt lat="43.4185459" lon="11.5343815"><ele>454.0</ele><time>2026-03-28T12:59:19.335Z</time></trkpt><trkpt lat="43.4184714" lon="11.5344004"><ele>453.6666666666667</ele><time>2026-03-28T12:59:20.335Z</time></trkpt><trkpt lat="43.4184005" lon="11.5344068"><ele>453.33333333333337</ele><time>2026-03-28T12:59:21.335Z</time></trkpt><trkpt lat="43.4183239" lon="11.5344372"><ele>453.0</ele><time>2026-03-28T12:59:22.335Z</time></trkpt><trkpt lat="43.4182551" lon="11.534479"><ele>452.66666666666663</ele><time>2026-03-28T12:59:23.335Z</time></trkpt><trkpt lat="43.4181861" lon="11.5345382"><ele>452.3333333333333</ele><time>2026-03-28T12:59:24.335Z</time></trkpt><trkpt lat="43.4181249" lon="11.5346086"><ele>452.0</ele><time>2026-03-28T12:59:25.334Z</time></trkpt><trkpt lat="43.4180678" lon="11.5346978"><ele>447.3333333333333</ele><time>2026-03-28T12:59:26.335Z</time></trkpt><trkpt lat="43.4180143" lon="11.5347921"><ele>442.66666666666663</ele><time>2026-03-28T12:59:27.335Z</time></trkpt><trkpt lat="43.4179663" lon="11.5348888"><ele>438.0</ele><time>2026-03-28T12:59:28.334Z</time></trkpt><trkpt lat="43.4179221" lon="11.5349885"><ele>433.33333333333337</ele><time>2026-03-28T12:59:29.335Z</time></trkpt><trkpt lat="43.4178748" lon="11.5350861"><ele>428.6666666666667</ele><time>2026-03-28T12:59:30.335Z</time></trkpt><trkpt lat="43.4178381" lon="11.5351755"><ele>424.0</ele><time>2026-03-28T12:59:31.335Z</time></trkpt><trkpt lat="43.4177973" lon="11.5352557"><ele>424.0</ele><time>2026-03-28T12:59:32.335Z</time></trkpt><trkpt lat="43.4177193" lon="11.5353763"><ele>424.0</ele><time>2026-03-28T12:59:34.335Z</time></trkpt><trkpt lat="43.4176195" lon="11.5354287"><ele>424.0</ele><time>2026-03-28T12:59:36.335Z</time></trkpt><trkpt lat="43.4175071" lon="11.5353964"><ele>424.0</ele><time>2026-03-28T12:59:38.335Z</time></trkpt><trkpt lat="43.4174457" lon="11.5353612"><ele>424.0</ele><time>2026-03-28T12:59:39.335Z</time></trkpt><trkpt lat="43.4173734" lon="11.5353194"><ele>424.00000000000006</ele><time>2026-03-28T12:59:40.335Z</time></trkpt><trkpt lat="43.4173051" lon="11.5352764"><ele>424.0</ele><time>2026-03-28T12:59:41.334Z</time></trkpt><trkpt lat="43.4172366" lon="11.535231"><ele>424.0</ele><time>2026-03-28T12:59:42.335Z</time></trkpt><trkpt lat="43.4171616" lon="11.5351965"><ele>424.0</ele><time>2026-03-28T12:59:43.334Z</time></trkpt><trkpt lat="43.4170961" lon="11.5351597"><ele>424.00000000000006</ele><time>2026-03-28T12:59:44.334Z</time></trkpt><trkpt lat="43.4170292" lon="11.5351327"><ele>424.0</ele><time>2026-03-28T12:59:45.335Z</time></trkpt><trkpt lat="43.4169134" lon="11.5351306"><ele>423.79999999999995</ele><time>2026-03-28T12:59:47.335Z</time></trkpt><trkpt lat="43.4168157" lon="11.5351911"><ele>423.59999999999997</ele><time>2026-03-28T12:59:49.335Z</time></trkpt><trkpt lat="43.4167475" lon="11.5353017"><ele>423.4</ele><time>2026-03-28T12:59:51.334Z</time></trkpt><trkpt lat="43.4166709" lon="11.5354144"><ele>423.2</ele><time>2026-03-28T12:59:53.335Z</time></trkpt><trkpt lat="43.4165745" lon="11.5355231"><ele>423.0</ele><time>2026-03-28T12:59:55.334Z</time></trkpt><trkpt lat="43.4164607" lon="11.5355915"><ele>418.59999999999997</ele><time>2026-03-28T12:59:57.335Z</time></trkpt><trkpt lat="43.416399" lon="11.535621"><ele>414.2</ele><time>2026-03-28T12:59:58.335Z</time></trkpt><trkpt lat="43.4162821" lon="11.5356794"><ele>409.8</ele><time>2026-03-28T13:00:00.334Z</time></trkpt><trkpt lat="43.416195" lon="11.5357706"><ele>405.4</ele><time>2026-03-28T13:00:02.335Z</time></trkpt><trkpt lat="43.4161596" lon="11.535925"><ele>401.0</ele><time>2026-03-28T13:00:04.335Z</time></trkpt><trkpt lat="43.4161425" lon="11.53601"><ele>400.99999999999994</ele><time>2026-03-28T13:00:05.335Z</time></trkpt><trkpt lat="43.4161211" lon="11.5361022"><ele>401.0</ele><time>2026-03-28T13:00:06.335Z</time></trkpt><trkpt lat="43.416091" lon="11.5361826"><ele>401.0</ele><time>2026-03-28T13:00:07.335Z</time></trkpt><trkpt lat="43.4160029" lon="11.5362944"><ele>401.0</ele><time>2026-03-28T13:00:09.335Z</time></trkpt><trkpt lat="43.4159409" lon="11.5363302"><ele>400.99999999999994</ele><time>2026-03-28T13:00:10.335Z</time></trkpt><trkpt lat="43.4158764" lon="11.5363305"><ele>401.0</ele><time>2026-03-28T13:00:11.335Z</time></trkpt><trkpt lat="43.4158013" lon="11.5363353"><ele>397.99999999999994</ele><time>2026-03-28T13:00:12.335Z</time></trkpt><trkpt lat="43.4157285" lon="11.5363504"><ele>395.0</ele><time>2026-03-28T13:00:13.335Z</time></trkpt><trkpt lat="43.4156365" lon="11.5363523"><ele>392.0</ele><time>2026-03-28T13:00:14.335Z</time></trkpt><trkpt lat="43.4155545" lon="11.5363562"><ele>389.0</ele><time>2026-03-28T13:00:15.334Z</time></trkpt><trkpt lat="43.4154747" lon="11.5363649"><ele>386.0</ele><time>2026-03-28T13:00:16.335Z</time></trkpt><trkpt lat="43.4154033" lon="11.5363685"><ele>383.0</ele><time>2026-03-28T13:00:17.335Z</time></trkpt><trkpt lat="43.4153306" lon="11.5363746"><ele>383.0</ele><time>2026-03-28T13:00:18.335Z</time></trkpt><trkpt lat="43.4152673" lon="11.5363835"><ele>383.0</ele><time>2026-03-28T13:00:19.335Z</time></trkpt><trkpt lat="43.4151558" lon="11.5363939"><ele>383.0</ele><time>2026-03-28T13:00:21.335Z</time></trkpt><trkpt lat="43.4150649" lon="11.5363568"><ele>383.0</ele><time>2026-03-28T13:00:23.334Z</time></trkpt><trkpt lat="43.4150067" lon="11.5362545"><ele>383.0</ele><time>2026-03-28T13:00:25.335Z</time></trkpt><trkpt lat="43.4149819" lon="11.5360891"><ele>383.0</ele><time>2026-03-28T13:00:27.335Z</time></trkpt><trkpt lat="43.4149849" lon="11.5359982"><ele>383.0</ele><time>2026-03-28T13:00:28.335Z</time></trkpt><trkpt lat="43.4149897" lon="11.5358995"><ele>383.0</ele><time>2026-03-28T13:00:29.334Z</time></trkpt><trkpt lat="43.4149957" lon="11.5358016"><ele>383.0</ele><time>2026-03-28T13:00:30.334Z</time></trkpt><trkpt lat="43.4150033" lon="11.5357063"><ele>383.0</ele><time>2026-03-28T13:00:31.335Z</time></trkpt><trkpt lat="43.4150159" lon="11.5356206"><ele>383.0</ele><time>2026-03-28T13:00:32.334Z</time></trkpt><trkpt lat="43.4150211" lon="11.5354797"><ele>383.0</ele><time>2026-03-28T13:00:34.334Z</time></trkpt><trkpt lat="43.4149621" lon="11.5353882"><ele>383.0</ele><time>2026-03-28T13:00:36.335Z</time></trkpt><trkpt lat="43.4148785" lon="11.5354086"><ele>383.0</ele><time>2026-03-28T13:00:38.335Z</time></trkpt><trkpt lat="43.4147997" lon="11.5354954"><ele>383.0</ele><time>2026-03-28T13:00:40.334Z</time></trkpt><trkpt lat="43.414713" lon="11.5356292"><ele>383.0</ele><time>2026-03-28T13:00:42.335Z</time></trkpt><trkpt lat="43.4146741" lon="11.5357075"><ele>383.0</ele><time>2026-03-28T13:00:43.335Z</time></trkpt><trkpt lat="43.4146373" lon="11.5357855"><ele>381.59999999999997</ele><time>2026-03-28T13:00:44.334Z</time></trkpt><trkpt lat="43.4145738" lon="11.5359166"><ele>380.2</ele><time>2026-03-28T13:00:46.335Z</time></trkpt><trkpt lat="43.4144915" lon="11.5359953"><ele>378.8</ele><time>2026-03-28T13:00:48.335Z</time></trkpt><trkpt lat="43.414396" lon="11.535984"><ele>377.4</ele><time>2026-03-28T13:00:50.335Z</time></trkpt><trkpt lat="43.4143035" lon="11.5359544"><ele>376.0</ele><time>2026-03-28T13:00:52.335Z</time></trkpt><trkpt lat="43.4141991" lon="11.5359824"><ele>376.0</ele><time>2026-03-28T13:00:54.334Z</time></trkpt><trkpt lat="43.4141436" lon="11.5360281"><ele>376.0</ele><time>2026-03-28T13:00:55.335Z</time></trkpt><trkpt lat="43.4140954" lon="11.5360887"><ele>376.0</ele><time>2026-03-28T13:00:56.334Z</time></trkpt><trkpt lat="43.4140465" lon="11.5361451"><ele>376.0</ele><time>2026-03-28T13:00:57.335Z</time></trkpt><trkpt lat="43.4139917" lon="11.5362095"><ele>376.0</ele><time>2026-03-28T13:00:58.334Z</time></trkpt><trkpt lat="43.4139376" lon="11.5362693"><ele>376.0</ele><time>2026-03-28T13:00:59.335Z</time></trkpt><trkpt lat="43.4138761" lon="11.5363278"><ele>376.0</ele><time>2026-03-28T13:01:00.335Z</time></trkpt><trkpt lat="43.413807" lon="11.5363725"><ele>371.5</ele><time>2026-03-28T13:01:01.335Z</time></trkpt><trkpt lat="43.4137283" lon="11.5364122"><ele>367.0</ele><time>2026-03-28T13:01:02.335Z</time></trkpt><trkpt lat="43.4136611" lon="11.536415"><ele>362.5</ele><time>2026-03-28T13:01:03.335Z</time></trkpt><trkpt lat="43.4135795" lon="11.5364486"><ele>358.0</ele><time>2026-03-28T13:01:04.335Z</time></trkpt><trkpt lat="43.4135034" lon="11.5364658"><ele>353.5</ele><time>2026-03-28T13:01:05.335Z</time></trkpt><trkpt lat="43.4134306" lon="11.5364859"><ele>349.0</ele><time>2026-03-28T13:01:06.335Z</time></trkpt><trkpt lat="43.4133552" lon="11.5364954"><ele>349.0</ele><time>2026-03-28T13:01:07.334Z</time></trkpt><trkpt lat="43.4132809" lon="11.5364952"><ele>349.0</ele><time>2026-03-28T13:01:08.335Z</time></trkpt><trkpt lat="43.4132149" lon="11.5365022"><ele>349.0</ele><time>2026-03-28T13:01:09.335Z</time></trkpt><trkpt lat="43.4130794" lon="11.5364697"><ele>349.0</ele><time>2026-03-28T13:01:11.334Z</time></trkpt><trkpt lat="43.4130042" lon="11.536445"><ele>349.0</ele><time>2026-03-28T13:01:12.334Z</time></trkpt><trkpt lat="43.412927" lon="11.5364057"><ele>349.0</ele><time>2026-03-28T13:01:13.335Z</time></trkpt><trkpt lat="43.4128476" lon="11.5363544"><ele>350.0</ele><time>2026-03-28T13:01:14.334Z</time></trkpt><trkpt lat="43.4127601" lon="11.5363139"><ele>351.0</ele><time>2026-03-28T13:01:15.335Z</time></trkpt><trkpt lat="43.4126792" lon="11.536251"><ele>352.0</ele><time>2026-03-28T13:01:16.335Z</time></trkpt><trkpt lat="43.4125893" lon="11.5362008"><ele>353.0</ele><time>2026-03-28T13:01:17.335Z</time></trkpt><trkpt lat="43.412495" lon="11.5361543"><ele>354.0</ele><time>2026-03-28T13:01:18.335Z</time></trkpt><trkpt lat="43.4124027" lon="11.5361076"><ele>354.0</ele><time>2026-03-28T13:01:19.334Z</time></trkpt><trkpt lat="43.4123123" lon="11.5360705"><ele>354.0</ele><time>2026-03-28T13:01:20.334Z</time></trkpt><trkpt lat="43.4122257" lon="11.5360294"><ele>354.0</ele><time>2026-03-28T13:01:21.335Z</time></trkpt><trkpt lat="43.4121419" lon="11.5359905"><ele>354.0</ele><time>2026-03-28T13:01:22.335Z</time></trkpt><trkpt lat="43.4120575" lon="11.535951"><ele>354.0</ele><time>2026-03-28T13:01:23.335Z</time></trkpt><trkpt lat="43.4119888" lon="11.5358893"><ele>354.0</ele><time>2026-03-28T13:01:24.335Z</time></trkpt><trkpt lat="43.411919" lon="11.5358197"><ele>351.79999999999995</ele><time>2026-03-28T13:01:25.335Z</time></trkpt><trkpt lat="43.411857" lon="11.5357223"><ele>349.59999999999997</ele><time>2026-03-28T13:01:26.335Z</time></trkpt><trkpt lat="43.4117926" lon="11.5356043"><ele>347.4</ele><time>2026-03-28T13:01:27.335Z</time></trkpt><trkpt lat="43.4117313" lon="11.5354885"><ele>345.2</ele><time>2026-03-28T13:01:28.335Z</time></trkpt><trkpt lat="43.41167" lon="11.5353866"><ele>343.0</ele><time>2026-03-28T13:01:29.334Z</time></trkpt><trkpt lat="43.411614" lon="11.5352764"><ele>343.0</ele><time>2026-03-28T13:01:30.335Z</time></trkpt><trkpt lat="43.4115666" lon="11.5351795"><ele>343.0</ele><time>2026-03-28T13:01:31.335Z</time></trkpt><trkpt lat="43.4115142" lon="11.5350782"><ele>343.0</ele><time>2026-03-28T13:01:32.335Z</time></trkpt><trkpt lat="43.4114768" lon="11.5349703"><ele>343.0</ele><time>2026-03-28T13:01:33.334Z</time></trkpt><trkpt lat="43.411435" lon="11.5348642"><ele>343.0</ele><time>2026-03-28T13:01:34.335Z</time></trkpt><trkpt lat="43.4114009" lon="11.5347649"><ele>343.0</ele><time>2026-03-28T13:01:35.335Z</time></trkpt><trkpt lat="43.4113692" lon="11.5346609"><ele>342.0</ele><time>2026-03-28T13:01:36.335Z</time></trkpt><trkpt lat="43.4113395" lon="11.5345474"><ele>341.0</ele><time>2026-03-28T13:01:37.335Z</time></trkpt><trkpt lat="43.4113103" lon="11.5344337"><ele>340.0</ele><time>2026-03-28T13:01:38.335Z</time></trkpt><trkpt lat="43.4112805" lon="11.5343195"><ele>339.0</ele><time>2026-03-28T13:01:39.335Z</time></trkpt><trkpt lat="43.4112402" lon="11.5342085"><ele>338.0</ele><time>2026-03-28T13:01:40.335Z</time></trkpt><trkpt lat="43.4111896" lon="11.5341039"><ele>337.0</ele><time>2026-03-28T13:01:41.335Z</time></trkpt><trkpt lat="43.4111265" lon="11.534005"><ele>337.0</ele><time>2026-03-28T13:01:42.335Z</time></trkpt><trkpt lat="43.411064" lon="11.5339111"><ele>337.0</ele><time>2026-03-28T13:01:43.334Z</time></trkpt><trkpt lat="43.4110065" lon="11.5338277"><ele>337.0</ele><time>2026-03-28T13:01:44.334Z</time></trkpt><trkpt lat="43.410954" lon="11.5337488"><ele>337.0</ele><time>2026-03-28T13:01:45.335Z</time></trkpt><trkpt lat="43.4109043" lon="11.5336719"><ele>337.0</ele><time>2026-03-28T13:01:46.334Z</time></trkpt><trkpt lat="43.4108547" lon="11.5335936"><ele>337.0</ele><time>2026-03-28T13:01:47.335Z</time></trkpt><trkpt lat="43.4107811" lon="11.5335371"><ele>338.20000000000005</ele><time>2026-03-28T13:01:48.335Z</time></trkpt><trkpt lat="43.4107032" lon="11.5334885"><ele>339.4</ele><time>2026-03-28T13:01:49.334Z</time></trkpt><trkpt lat="43.4106224" lon="11.5334373"><ele>340.6</ele><time>2026-03-28T13:01:50.335Z</time></trkpt><trkpt lat="43.4105298" lon="11.5334108"><ele>341.79999999999995</ele><time>2026-03-28T13:01:51.334Z</time></trkpt><trkpt lat="43.4104375" lon="11.5334265"><ele>343.0</ele><time>2026-03-28T13:01:52.334Z</time></trkpt><trkpt lat="43.4103446" lon="11.5334134"><ele>343.0</ele><time>2026-03-28T13:01:53.335Z</time></trkpt><trkpt lat="43.4102593" lon="11.5334101"><ele>343.0</ele><time>2026-03-28T13:01:54.335Z</time></trkpt><trkpt lat="43.4101737" lon="11.5334129"><ele>343.0</ele><time>2026-03-28T13:01:55.335Z</time></trkpt><trkpt lat="43.4100901" lon="11.5334237"><ele>343.0</ele><time>2026-03-28T13:01:56.335Z</time></trkpt><trkpt lat="43.4100206" lon="11.5334531"><ele>343.0</ele><time>2026-03-28T13:01:57.335Z</time></trkpt><trkpt lat="43.4099374" lon="11.5335113"><ele>343.0</ele><time>2026-03-28T13:01:58.334Z</time></trkpt><trkpt lat="43.4098711" lon="11.5335763"><ele>343.0</ele><time>2026-03-28T13:01:59.335Z</time></trkpt><trkpt lat="43.4098055" lon="11.5336271"><ele>343.0</ele><time>2026-03-28T13:02:00.334Z</time></trkpt><trkpt lat="43.4097355" lon="11.5336849"><ele>343.0</ele><time>2026-03-28T13:02:01.335Z</time></trkpt><trkpt lat="43.4096665" lon="11.5337355"><ele>343.0</ele><time>2026-03-28T13:02:02.335Z</time></trkpt><trkpt lat="43.4095995" lon="11.5337477"><ele>343.0</ele><time>2026-03-28T13:02:03.335Z</time></trkpt><trkpt lat="43.4095326" lon="11.5337528"><ele>343.0</ele><time>2026-03-28T13:02:04.335Z</time></trkpt><trkpt lat="43.409463" lon="11.5337453"><ele>343.0</ele><time>2026-03-28T13:02:05.335Z</time></trkpt><trkpt lat="43.4093412" lon="11.5336717"><ele>341.0</ele><time>2026-03-28T13:02:07.335Z</time></trkpt><trkpt lat="43.4092204" lon="11.5335742"><ele>339.0</ele><time>2026-03-28T13:02:09.335Z</time></trkpt><trkpt lat="43.4091584" lon="11.5335391"><ele>337.0</ele><time>2026-03-28T13:02:10.335Z</time></trkpt><trkpt lat="43.4090466" lon="11.5334676"><ele>335.0</ele><time>2026-03-28T13:02:12.334Z</time></trkpt><trkpt lat="43.4089594" lon="11.5334117"><ele>333.0</ele><time>2026-03-28T13:02:14.335Z</time></trkpt><trkpt lat="43.4088651" lon="11.5333845"><ele>332.1666666666667</ele><time>2026-03-28T13:02:16.334Z</time></trkpt><trkpt lat="43.4087489" lon="11.5334149"><ele>331.3333333333333</ele><time>2026-03-28T13:02:18.335Z</time></trkpt><trkpt lat="43.4086911" lon="11.5334674"><ele>330.5</ele><time>2026-03-28T13:02:19.334Z</time></trkpt><trkpt lat="43.4086382" lon="11.5335217"><ele>329.66666666666663</ele><time>2026-03-28T13:02:20.335Z</time></trkpt><trkpt lat="43.4085874" lon="11.533591"><ele>328.8333333333333</ele><time>2026-03-28T13:02:21.335Z</time></trkpt><trkpt lat="43.408544" lon="11.5336616"><ele>328.0</ele><time>2026-03-28T13:02:22.335Z</time></trkpt><trkpt lat="43.4085014" lon="11.5337355"><ele>328.0</ele><time>2026-03-28T13:02:23.335Z</time></trkpt><trkpt lat="43.4084639" lon="11.5338189"><ele>328.0</ele><time>2026-03-28T13:02:24.335Z</time></trkpt><trkpt lat="43.408425" lon="11.5339063"><ele>328.0</ele><time>2026-03-28T13:02:25.334Z</time></trkpt><trkpt lat="43.4083818" lon="11.534002"><ele>328.0</ele><time>2026-03-28T13:02:26.335Z</time></trkpt><trkpt lat="43.4083451" lon="11.5341079"><ele>328.0</ele><time>2026-03-28T13:02:27.334Z</time></trkpt><trkpt lat="43.408311" lon="11.5342142"><ele>328.0</ele><time>2026-03-28T13:02:28.334Z</time></trkpt><trkpt lat="43.4082729" lon="11.5343171"><ele>328.0</ele><time>2026-03-28T13:02:29.334Z</time></trkpt><trkpt lat="43.4082305" lon="11.5344037"><ele>328.0</ele><time>2026-03-28T13:02:30.335Z</time></trkpt><trkpt lat="43.4081684" lon="11.5344823"><ele>328.0</ele><time>2026-03-28T13:02:31.335Z</time></trkpt><trkpt lat="43.4080913" lon="11.5345222"><ele>328.0</ele><time>2026-03-28T13:02:32.335Z</time></trkpt><trkpt lat="43.4080075" lon="11.5345686"><ele>328.0</ele><time>2026-03-28T13:02:33.335Z</time></trkpt><trkpt lat="43.4079242" lon="11.5345837"><ele>328.0</ele><time>2026-03-28T13:02:34.335Z</time></trkpt><trkpt lat="43.4078336" lon="11.5346135"><ele>330.0</ele><time>2026-03-28T13:02:35.335Z</time></trkpt><trkpt lat="43.4077322" lon="11.5346491"><ele>332.0</ele><time>2026-03-28T13:02:36.334Z</time></trkpt><trkpt lat="43.4076349" lon="11.5346776"><ele>334.0</ele><time>2026-03-28T13:02:37.335Z</time></trkpt><trkpt lat="43.4075328" lon="11.5347112"><ele>336.0</ele><time>2026-03-28T13:02:38.335Z</time></trkpt><trkpt lat="43.4074338" lon="11.5346963"><ele>338.0</ele><time>2026-03-28T13:02:39.335Z</time></trkpt><trkpt lat="43.4073341" lon="11.5347087"><ele>338.0</ele><time>2026-03-28T13:02:40.335Z</time></trkpt><trkpt lat="43.4072293" lon="11.5347199"><ele>338.0</ele><time>2026-03-28T13:02:41.334Z</time></trkpt><trkpt lat="43.4071208" lon="11.5347356"><ele>338.0</ele><time>2026-03-28T13:02:42.335Z</time></trkpt><trkpt lat="43.4070096" lon="11.534758"><ele>338.0</ele><time>2026-03-28T13:02:43.335Z</time></trkpt><trkpt lat="43.4069145" lon="11.5347728"><ele>338.0</ele><time>2026-03-28T13:02:44.334Z</time></trkpt><trkpt lat="43.4068077" lon="11.5348075"><ele>337.25</ele><time>2026-03-28T13:02:45.335Z</time></trkpt><trkpt lat="43.4066952" lon="11.5348419"><ele>336.5</ele><time>2026-03-28T13:02:46.335Z</time></trkpt><trkpt lat="43.4065802" lon="11.5348564"><ele>335.75</ele><time>2026-03-28T13:02:47.335Z</time></trkpt><trkpt lat="43.4064616" lon="11.5348597"><ele>335.0</ele><time>2026-03-28T13:02:48.335Z</time></trkpt><trkpt lat="43.4063553" lon="11.53489"><ele>335.6</ele><time>2026-03-28T13:02:49.335Z</time></trkpt><trkpt lat="43.4062364" lon="11.5349079"><ele>336.2</ele><time>2026-03-28T13:02:50.335Z</time></trkpt><trkpt lat="43.4061356" lon="11.5349123"><ele>336.79999999999995</ele><time>2026-03-28T13:02:51.334Z</time></trkpt><trkpt lat="43.4060279" lon="11.5349358"><ele>337.4</ele><time>2026-03-28T13:02:52.334Z</time></trkpt><trkpt lat="43.4059298" lon="11.5349327"><ele>338.0</ele><time>2026-03-28T13:02:53.335Z</time></trkpt><trkpt lat="43.4058261" lon="11.5349178"><ele>338.0</ele><time>2026-03-28T13:02:54.335Z</time></trkpt><trkpt lat="43.4057341" lon="11.5348959"><ele>338.0</ele><time>2026-03-28T13:02:55.334Z</time></trkpt><trkpt lat="43.405635" lon="11.5349019"><ele>338.0</ele><time>2026-03-28T13:02:56.335Z</time></trkpt><trkpt lat="43.4055477" lon="11.5348986"><ele>338.0</ele><time>2026-03-28T13:02:57.334Z</time></trkpt><trkpt lat="43.4054547" lon="11.5348989"><ele>338.0</ele><time>2026-03-28T13:02:58.335Z</time></trkpt><trkpt lat="43.4053652" lon="11.5348594"><ele>340.5</ele><time>2026-03-28T13:02:59.335Z</time></trkpt><trkpt lat="43.4052741" lon="11.5348494"><ele>343.0</ele><time>2026-03-28T13:03:00.335Z</time></trkpt><trkpt lat="43.4051833" lon="11.5348148"><ele>345.5</ele><time>2026-03-28T13:03:01.334Z</time></trkpt><trkpt lat="43.4051014" lon="11.5347942"><ele>348.0</ele><time>2026-03-28T13:03:02.334Z</time></trkpt><trkpt lat="43.4050218" lon="11.5347768"><ele>350.5</ele><time>2026-03-28T13:03:03.334Z</time></trkpt><trkpt lat="43.4049541" lon="11.5347679"><ele>353.0</ele><time>2026-03-28T13:03:04.334Z</time></trkpt><trkpt lat="43.404887" lon="11.5347881"><ele>353.0</ele><time>2026-03-28T13:03:05.335Z</time></trkpt><trkpt lat="43.4047891" lon="11.5348725"><ele>353.0</ele><time>2026-03-28T13:03:07.335Z</time></trkpt><trkpt lat="43.4047258" lon="11.5349543"><ele>353.0</ele><time>2026-03-28T13:03:08.335Z</time></trkpt><trkpt lat="43.4046709" lon="11.5350265"><ele>353.0</ele><time>2026-03-28T13:03:09.335Z</time></trkpt><trkpt lat="43.4046107" lon="11.535098"><ele>353.0</ele><time>2026-03-28T13:03:10.335Z</time></trkpt><trkpt lat="43.4045635" lon="11.5351718"><ele>353.0</ele><time>2026-03-28T13:03:11.335Z</time></trkpt><trkpt lat="43.4045318" lon="11.535258"><ele>353.1666666666667</ele><time>2026-03-28T13:03:12.335Z</time></trkpt><trkpt lat="43.4045013" lon="11.5353596"><ele>353.33333333333337</ele><time>2026-03-28T13:03:13.335Z</time></trkpt><trkpt lat="43.4044878" lon="11.5354513"><ele>353.5</ele><time>2026-03-28T13:03:14.334Z</time></trkpt><trkpt lat="43.4044851" lon="11.5355433"><ele>353.6666666666667</ele><time>2026-03-28T13:03:15.335Z</time></trkpt><trkpt lat="43.4044781" lon="11.5356765"><ele>353.8333333333333</ele><time>2026-03-28T13:03:16.335Z</time></trkpt><trkpt lat="43.4044613" lon="11.5357814"><ele>354.0</ele><time>2026-03-28T13:03:17.335Z</time></trkpt><trkpt lat="43.4044494" lon="11.5358982"><ele>355.5</ele><time>2026-03-28T13:03:18.334Z</time></trkpt><trkpt lat="43.4044383" lon="11.5360196"><ele>357.0</ele><time>2026-03-28T13:03:19.334Z</time></trkpt><trkpt lat="43.4044376" lon="11.5361367"><ele>358.5</ele><time>2026-03-28T13:03:20.335Z</time></trkpt><trkpt lat="43.4044478" lon="11.5362496"><ele>360.0</ele><time>2026-03-28T13:03:21.335Z</time></trkpt><trkpt lat="43.4044494" lon="11.5363711"><ele>361.5</ele><time>2026-03-28T13:03:22.335Z</time></trkpt><trkpt lat="43.4044533" lon="11.5364998"><ele>363.0</ele><time>2026-03-28T13:03:23.334Z</time></trkpt><trkpt lat="43.4044544" lon="11.5366142"><ele>364.1666666666667</ele><time>2026-03-28T13:03:24.335Z</time></trkpt><trkpt lat="43.4044501" lon="11.5367144"><ele>365.3333333333333</ele><time>2026-03-28T13:03:25.334Z</time></trkpt><trkpt lat="43.404403" lon="11.5368049"><ele>366.5</ele><time>2026-03-28T13:03:26.335Z</time></trkpt><trkpt lat="43.404324" lon="11.5369468"><ele>367.66666666666663</ele><time>2026-03-28T13:03:28.335Z</time></trkpt><trkpt lat="43.4042693" lon="11.5369996"><ele>368.8333333333333</ele><time>2026-03-28T13:03:29.334Z</time></trkpt><trkpt lat="43.4042082" lon="11.537055"><ele>370.0</ele><time>2026-03-28T13:03:30.335Z</time></trkpt><trkpt lat="43.4041455" lon="11.537114"><ele>371.8333333333333</ele><time>2026-03-28T13:03:31.335Z</time></trkpt><trkpt lat="43.404076" lon="11.5371793"><ele>373.66666666666663</ele><time>2026-03-28T13:03:32.335Z</time></trkpt><trkpt lat="43.4040106" lon="11.5372325"><ele>375.5</ele><time>2026-03-28T13:03:33.334Z</time></trkpt><trkpt lat="43.4039426" lon="11.5372926"><ele>377.3333333333333</ele><time>2026-03-28T13:03:34.334Z</time></trkpt><trkpt lat="43.4038799" lon="11.5373232"><ele>379.1666666666667</ele><time>2026-03-28T13:03:35.335Z</time></trkpt><trkpt lat="43.4038134" lon="11.5373304"><ele>381.0</ele><time>2026-03-28T13:03:36.335Z</time></trkpt><trkpt lat="43.4037023" lon="11.5372804"><ele>382.5</ele><time>2026-03-28T13:03:38.335Z</time></trkpt><trkpt lat="43.4036274" lon="11.5371642"><ele>384.0</ele><time>2026-03-28T13:03:40.335Z</time></trkpt><trkpt lat="43.4036031" lon="11.5370788"><ele>385.5</ele><time>2026-03-28T13:03:41.335Z</time></trkpt><trkpt lat="43.4035785" lon="11.5369859"><ele>387.0</ele><time>2026-03-28T13:03:42.335Z</time></trkpt><trkpt lat="43.403547" lon="11.5368847"><ele>388.5</ele><time>2026-03-28T13:03:43.335Z</time></trkpt><trkpt lat="43.4035221" lon="11.5367892"><ele>390.0</ele><time>2026-03-28T13:03:44.335Z</time></trkpt><trkpt lat="43.4034938" lon="11.5366904"><ele>390.0</ele><time>2026-03-28T13:03:45.335Z</time></trkpt><trkpt lat="43.4034612" lon="11.5365818"><ele>390.0</ele><time>2026-03-28T13:03:46.334Z</time></trkpt><trkpt lat="43.403421" lon="11.5364805"><ele>390.0</ele><time>2026-03-28T13:03:47.335Z</time></trkpt><trkpt lat="43.4033695" lon="11.536392"><ele>390.0</ele><time>2026-03-28T13:03:48.335Z</time></trkpt><trkpt lat="43.4033057" lon="11.5363036"><ele>390.0</ele><time>2026-03-28T13:03:49.335Z</time></trkpt><trkpt lat="43.4032451" lon="11.536212"><ele>390.0</ele><time>2026-03-28T13:03:50.335Z</time></trkpt><trkpt lat="43.4031787" lon="11.5361203"><ele>391.8333333333333</ele><time>2026-03-28T13:03:51.334Z</time></trkpt><trkpt lat="43.403118" lon="11.5360401"><ele>393.66666666666663</ele><time>2026-03-28T13:03:52.334Z</time></trkpt><trkpt lat="43.4030824" lon="11.5359343"><ele>395.5</ele><time>2026-03-28T13:03:53.335Z</time></trkpt><trkpt lat="43.4030415" lon="11.5358076"><ele>397.3333333333333</ele><time>2026-03-28T13:03:54.334Z</time></trkpt><trkpt lat="43.4030097" lon="11.5356988"><ele>399.16666666666663</ele><time>2026-03-28T13:03:55.334Z</time></trkpt><trkpt lat="43.4029809" lon="11.5355931"><ele>401.0</ele><time>2026-03-28T13:03:56.335Z</time></trkpt><trkpt lat="43.4029466" lon="11.5354892"><ele>400.99999999999994</ele><time>2026-03-28T13:03:57.335Z</time></trkpt><trkpt lat="43.4029108" lon="11.53539"><ele>401.0</ele><time>2026-03-28T13:03:58.334Z</time></trkpt><trkpt lat="43.4028485" lon="11.5353026"><ele>401.0</ele><time>2026-03-28T13:03:59.335Z</time></trkpt><trkpt lat="43.4028081" lon="11.5352256"><ele>401.0</ele><time>2026-03-28T13:04:00.335Z</time></trkpt><trkpt lat="43.4026897" lon="11.5351635"><ele>400.99999999999994</ele><time>2026-03-28T13:04:02.335Z</time></trkpt><trkpt lat="43.4026182" lon="11.535165"><ele>401.0</ele><time>2026-03-28T13:04:03.335Z</time></trkpt><trkpt lat="43.4025544" lon="11.5351846"><ele>400.99999999999994</ele><time>2026-03-28T13:04:04.335Z</time></trkpt><trkpt lat="43.4024967" lon="11.5352254"><ele>401.0</ele><time>2026-03-28T13:04:05.334Z</time></trkpt><trkpt lat="43.4024364" lon="11.5352908"><ele>401.0</ele><time>2026-03-28T13:04:06.335Z</time></trkpt><trkpt lat="43.40237" lon="11.5353545"><ele>401.0</ele><time>2026-03-28T13:04:07.335Z</time></trkpt><trkpt lat="43.4023063" lon="11.5354183"><ele>400.99999999999994</ele><time>2026-03-28T13:04:08.335Z</time></trkpt><trkpt lat="43.4022353" lon="11.53549"><ele>401.0</ele><time>2026-03-28T13:04:09.335Z</time></trkpt><trkpt lat="43.4021756" lon="11.5355684"><ele>400.2857142857143</ele><time>2026-03-28T13:04:10.335Z</time></trkpt><trkpt lat="43.4021424" lon="11.5356498"><ele>399.57142857142856</ele><time>2026-03-28T13:04:11.335Z</time></trkpt><trkpt lat="43.4021048" lon="11.5357328"><ele>398.8571428571429</ele><time>2026-03-28T13:04:12.335Z</time></trkpt><trkpt lat="43.4020724" lon="11.5358352"><ele>398.1428571428571</ele><time>2026-03-28T13:04:13.335Z</time></trkpt><trkpt lat="43.402033" lon="11.5359231"><ele>397.4285714285714</ele><time>2026-03-28T13:04:14.335Z</time></trkpt><trkpt lat="43.4019908" lon="11.5360084"><ele>396.7142857142857</ele><time>2026-03-28T13:04:15.334Z</time></trkpt><trkpt lat="43.4019384" lon="11.5360845"><ele>396.0</ele><time>2026-03-28T13:04:16.335Z</time></trkpt><trkpt lat="43.4018732" lon="11.5361541"><ele>396.0</ele><time>2026-03-28T13:04:17.335Z</time></trkpt><trkpt lat="43.4018189" lon="11.5362129"><ele>396.0</ele><time>2026-03-28T13:04:18.335Z</time></trkpt><trkpt lat="43.4017506" lon="11.5362501"><ele>396.0</ele><time>2026-03-28T13:04:19.335Z</time></trkpt><trkpt lat="43.4016838" lon="11.5363016"><ele>396.0</ele><time>2026-03-28T13:04:20.335Z</time></trkpt><trkpt lat="43.4016157" lon="11.5363531"><ele>396.0</ele><time>2026-03-28T13:04:21.335Z</time></trkpt><trkpt lat="43.4015402" lon="11.5363814"><ele>396.0</ele><time>2026-03-28T13:04:22.335Z</time></trkpt><trkpt lat="43.4014641" lon="11.5363945"><ele>398.1666666666667</ele><time>2026-03-28T13:04:23.334Z</time></trkpt><trkpt lat="43.4013917" lon="11.5363881"><ele>400.33333333333337</ele><time>2026-03-28T13:04:24.334Z</time></trkpt><trkpt lat="43.4012994" lon="11.5363682"><ele>402.5</ele><time>2026-03-28T13:04:25.334Z</time></trkpt><trkpt lat="43.4012158" lon="11.5363398"><ele>404.6666666666667</ele><time>2026-03-28T13:04:26.335Z</time></trkpt><trkpt lat="43.4011491" lon="11.5362965"><ele>406.83333333333337</ele><time>2026-03-28T13:04:27.335Z</time></trkpt><trkpt lat="43.4010722" lon="11.5362459"><ele>409.0</ele><time>2026-03-28T13:04:28.335Z</time></trkpt><trkpt lat="43.4009955" lon="11.5361961"><ele>409.0</ele><time>2026-03-28T13:04:29.334Z</time></trkpt><trkpt lat="43.4009184" lon="11.5361458"><ele>409.0</ele><time>2026-03-28T13:04:30.334Z</time></trkpt><trkpt lat="43.4008475" lon="11.5360886"><ele>409.0</ele><time>2026-03-28T13:04:31.334Z</time></trkpt><trkpt lat="43.4007836" lon="11.5360421"><ele>409.0</ele><time>2026-03-28T13:04:32.334Z</time></trkpt><trkpt lat="43.4006705" lon="11.5360022"><ele>409.0</ele><time>2026-03-28T13:04:34.334Z</time></trkpt><trkpt lat="43.4005695" lon="11.5360502"><ele>409.0</ele><time>2026-03-28T13:04:36.334Z</time></trkpt><trkpt lat="43.4005303" lon="11.5361718"><ele>409.0</ele><time>2026-03-28T13:04:38.334Z</time></trkpt><trkpt lat="43.4005534" lon="11.5363173"><ele>409.0</ele><time>2026-03-28T13:04:40.335Z</time></trkpt><trkpt lat="43.4006028" lon="11.5364707"><ele>409.0</ele><time>2026-03-28T13:04:42.335Z</time></trkpt><trkpt lat="43.4006463" lon="11.5366465"><ele>410.83333333333337</ele><time>2026-03-28T13:04:44.335Z</time></trkpt><trkpt lat="43.4006579" lon="11.5368315"><ele>412.6666666666667</ele><time>2026-03-28T13:04:46.334Z</time></trkpt><trkpt lat="43.4006642" lon="11.5369205"><ele>414.5</ele><time>2026-03-28T13:04:47.335Z</time></trkpt><trkpt lat="43.4006817" lon="11.5370277"><ele>416.33333333333337</ele><time>2026-03-28T13:04:48.335Z</time></trkpt><trkpt lat="43.4007176" lon="11.537122"><ele>418.1666666666667</ele><time>2026-03-28T13:04:49.335Z</time></trkpt><trkpt lat="43.4007685" lon="11.5371845"><ele>420.0</ele><time>2026-03-28T13:04:50.335Z</time></trkpt><trkpt lat="43.4008302" lon="11.5372331"><ele>420.6666666666667</ele><time>2026-03-28T13:04:51.335Z</time></trkpt><trkpt lat="43.4009031" lon="11.5372657"><ele>421.33333333333337</ele><time>2026-03-28T13:04:52.334Z</time></trkpt><trkpt lat="43.4009801" lon="11.53729"><ele>422.0</ele><time>2026-03-28T13:04:53.335Z</time></trkpt><trkpt lat="43.4011109" lon="11.5373144"><ele>422.6666666666667</ele><time>2026-03-28T13:04:55.334Z</time></trkpt><trkpt lat="43.4011733" lon="11.5373563"><ele>423.33333333333337</ele><time>2026-03-28T13:04:56.335Z</time></trkpt><trkpt lat="43.4012227" lon="11.5374146"><ele>424.0</ele><time>2026-03-28T13:04:57.335Z</time></trkpt><trkpt lat="43.4012617" lon="11.5374843"><ele>424.00000000000006</ele><time>2026-03-28T13:04:58.335Z</time></trkpt><trkpt lat="43.401324" lon="11.5376397"><ele>424.0</ele><time>2026-03-28T13:05:00.335Z</time></trkpt><trkpt lat="43.4013556" lon="11.537721"><ele>424.0</ele><time>2026-03-28T13:05:01.335Z</time></trkpt><trkpt lat="43.4013872" lon="11.5378036"><ele>424.0</ele><time>2026-03-28T13:05:02.335Z</time></trkpt><trkpt lat="43.4014195" lon="11.5378864"><ele>424.00000000000006</ele><time>2026-03-28T13:05:03.335Z</time></trkpt><trkpt lat="43.4014528" lon="11.5379614"><ele>424.0</ele><time>2026-03-28T13:05:04.335Z</time></trkpt><trkpt lat="43.4014848" lon="11.5380393"><ele>426.00000000000006</ele><time>2026-03-28T13:05:05.335Z</time></trkpt><trkpt lat="43.4015181" lon="11.538113"><ele>428.0</ele><time>2026-03-28T13:05:06.335Z</time></trkpt><trkpt lat="43.4015621" lon="11.5381888"><ele>430.0</ele><time>2026-03-28T13:05:07.334Z</time></trkpt><trkpt lat="43.4016156" lon="11.5382601"><ele>432.0</ele><time>2026-03-28T13:05:08.334Z</time></trkpt><trkpt lat="43.4016676" lon="11.5383324"><ele>434.00000000000006</ele><time>2026-03-28T13:05:09.335Z</time></trkpt><trkpt lat="43.4017335" lon="11.5384108"><ele>436.0</ele><time>2026-03-28T13:05:10.335Z</time></trkpt><trkpt lat="43.4017869" lon="11.5384983"><ele>436.00000000000006</ele><time>2026-03-28T13:05:11.335Z</time></trkpt><trkpt lat="43.4018331" lon="11.5385762"><ele>436.0</ele><time>2026-03-28T13:05:12.335Z</time></trkpt><trkpt lat="43.4018662" lon="11.5386605"><ele>436.0</ele><time>2026-03-28T13:05:13.335Z</time></trkpt><trkpt lat="43.4018921" lon="11.5387607"><ele>436.0</ele><time>2026-03-28T13:05:14.334Z</time></trkpt><trkpt lat="43.4019135" lon="11.5388631"><ele>436.00000000000006</ele><time>2026-03-28T13:05:15.335Z</time></trkpt><trkpt lat="43.4019383" lon="11.5389742"><ele>436.0</ele><time>2026-03-28T13:05:16.335Z</time></trkpt><trkpt lat="43.4019668" lon="11.5390806"><ele>436.33333333333337</ele><time>2026-03-28T13:05:17.335Z</time></trkpt><trkpt lat="43.4019937" lon="11.5391904"><ele>436.6666666666667</ele><time>2026-03-28T13:05:18.335Z</time></trkpt><trkpt lat="43.4020319" lon="11.5392992"><ele>437.0</ele><time>2026-03-28T13:05:19.335Z</time></trkpt><trkpt lat="43.4020773" lon="11.5394071"><ele>437.33333333333337</ele><time>2026-03-28T13:05:20.335Z</time></trkpt><trkpt lat="43.4021066" lon="11.5395021"><ele>437.6666666666667</ele><time>2026-03-28T13:05:21.334Z</time></trkpt><trkpt lat="43.4021362" lon="11.5396067"><ele>438.0</ele><time>2026-03-28T13:05:22.335Z</time></trkpt><trkpt lat="43.4021077" lon="11.5396982"><ele>439.6666666666667</ele><time>2026-03-28T13:05:23.334Z</time></trkpt><trkpt lat="43.402102" lon="11.5397854"><ele>441.33333333333337</ele><time>2026-03-28T13:05:24.334Z</time></trkpt><trkpt lat="43.4020644" lon="11.5398636"><ele>443.0</ele><time>2026-03-28T13:05:25.335Z</time></trkpt><trkpt lat="43.4019992" lon="11.5400173"><ele>444.6666666666667</ele><time>2026-03-28T13:05:27.335Z</time></trkpt><trkpt lat="43.4019616" lon="11.5401003"><ele>446.33333333333337</ele><time>2026-03-28T13:05:28.334Z</time></trkpt><trkpt lat="43.4019202" lon="11.5401755"><ele>448.0</ele><time>2026-03-28T13:05:29.335Z</time></trkpt><trkpt lat="43.401829" lon="11.5402978"><ele>448.0</ele><time>2026-03-28T13:05:31.334Z</time></trkpt><trkpt lat="43.4017825" lon="11.5403646"><ele>447.99999999999994</ele><time>2026-03-28T13:05:32.335Z</time></trkpt><trkpt lat="43.4017219" lon="11.5404762"><ele>447.99999999999994</ele><time>2026-03-28T13:05:33.334Z</time></trkpt><trkpt lat="43.4016865" lon="11.5405574"><ele>448.0</ele><time>2026-03-28T13:05:34.335Z</time></trkpt><trkpt lat="43.4016189" lon="11.5406987"><ele>448.0</ele><time>2026-03-28T13:05:36.335Z</time></trkpt><trkpt lat="43.4015764" lon="11.5408437"><ele>449.50000000000006</ele><time>2026-03-28T13:05:38.335Z</time></trkpt><trkpt lat="43.4016467" lon="11.5409473"><ele>451.0</ele><time>2026-03-28T13:05:40.335Z</time></trkpt><trkpt lat="43.4017391" lon="11.5410385"><ele>452.5</ele><time>2026-03-28T13:05:42.335Z</time></trkpt><trkpt lat="43.4017985" lon="11.5411011"><ele>454.0</ele><time>2026-03-28T13:05:43.334Z</time></trkpt><trkpt lat="43.4018597" lon="11.541164"><ele>455.50000000000006</ele><time>2026-03-28T13:05:44.335Z</time></trkpt><trkpt lat="43.4019143" lon="11.5412343"><ele>457.0</ele><time>2026-03-28T13:05:45.335Z</time></trkpt><trkpt lat="43.4019737" lon="11.5413154"><ele>457.00000000000006</ele><time>2026-03-28T13:05:46.335Z</time></trkpt><trkpt lat="43.4020376" lon="11.5413945"><ele>457.0</ele><time>2026-03-28T13:05:47.335Z</time></trkpt><trkpt lat="43.4021043" lon="11.5414701"><ele>457.0</ele><time>2026-03-28T13:05:48.335Z</time></trkpt><trkpt lat="43.4021657" lon="11.5415498"><ele>457.0</ele><time>2026-03-28T13:05:49.335Z</time></trkpt><trkpt lat="43.4022422" lon="11.541625"><ele>457.00000000000006</ele><time>2026-03-28T13:05:50.335Z</time></trkpt><trkpt lat="43.4023179" lon="11.5417043"><ele>457.0</ele><time>2026-03-28T13:05:51.334Z</time></trkpt><trkpt lat="43.4023861" lon="11.5417827"><ele>457.50000000000006</ele><time>2026-03-28T13:05:52.334Z</time></trkpt><trkpt lat="43.4024441" lon="11.5418541"><ele>458.0</ele><time>2026-03-28T13:05:53.334Z</time></trkpt><trkpt lat="43.4024913" lon="11.5419231"><ele>458.5</ele><time>2026-03-28T13:05:54.335Z</time></trkpt><trkpt lat="43.4025394" lon="11.5419848"><ele>459.0</ele><time>2026-03-28T13:05:55.334Z</time></trkpt><trkpt lat="43.4026455" lon="11.5421054"><ele>459.50000000000006</ele><time>2026-03-28T13:05:57.335Z</time></trkpt><trkpt lat="43.4027038" lon="11.5421767"><ele>460.0</ele><time>2026-03-28T13:05:58.334Z</time></trkpt><trkpt lat="43.4027635" lon="11.5422453"><ele>460.00000000000006</ele><time>2026-03-28T13:05:59.335Z</time></trkpt><trkpt lat="43.4028236" lon="11.5423182"><ele>460.0</ele><time>2026-03-28T13:06:00.335Z</time></trkpt><trkpt lat="43.4028789" lon="11.5423917"><ele>460.0</ele><time>2026-03-28T13:06:01.335Z</time></trkpt><trkpt lat="43.4029379" lon="11.5424609"><ele>460.0</ele><time>2026-03-28T13:06:02.334Z</time></trkpt><trkpt lat="43.4030044" lon="11.5425375"><ele>460.00000000000006</ele><time>2026-03-28T13:06:03.335Z</time></trkpt><trkpt lat="43.4030682" lon="11.5426159"><ele>460.0</ele><time>2026-03-28T13:06:04.335Z</time></trkpt><trkpt lat="43.4031337" lon="11.5426973"><ele>461.00000000000006</ele><time>2026-03-28T13:06:05.335Z</time></trkpt><trkpt lat="43.4031996" lon="11.5427736"><ele>462.0</ele><time>2026-03-28T13:06:06.335Z</time></trkpt><trkpt lat="43.4032653" lon="11.5428617"><ele>463.0</ele><time>2026-03-28T13:06:07.335Z</time></trkpt><trkpt lat="43.4033336" lon="11.5429584"><ele>464.0</ele><time>2026-03-28T13:06:08.334Z</time></trkpt><trkpt lat="43.4033894" lon="11.5430366"><ele>465.00000000000006</ele><time>2026-03-28T13:06:09.335Z</time></trkpt><trkpt lat="43.4034512" lon="11.5431212"><ele>466.0</ele><time>2026-03-28T13:06:10.335Z</time></trkpt><trkpt lat="43.4035097" lon="11.5432022"><ele>466.00000000000006</ele><time>2026-03-28T13:06:11.335Z</time></trkpt><trkpt lat="43.4035677" lon="11.5432835"><ele>466.0</ele><time>2026-03-28T13:06:12.335Z</time></trkpt><trkpt lat="43.4036345" lon="11.5433486"><ele>466.0</ele><time>2026-03-28T13:06:13.335Z</time></trkpt><trkpt lat="43.4037013" lon="11.5434078"><ele>466.0</ele><time>2026-03-28T13:06:14.334Z</time></trkpt><trkpt lat="43.403775" lon="11.5434599"><ele>466.00000000000006</ele><time>2026-03-28T13:06:15.335Z</time></trkpt><trkpt lat="43.4038453" lon="11.5435108"><ele>466.0</ele><time>2026-03-28T13:06:16.334Z</time></trkpt><trkpt lat="43.4039161" lon="11.5435632"><ele>468.33333333333337</ele><time>2026-03-28T13:06:17.335Z</time></trkpt><trkpt lat="43.4039773" lon="11.5436129"><ele>470.6666666666667</ele><time>2026-03-28T13:06:18.334Z</time></trkpt><trkpt lat="43.4040445" lon="11.5436664"><ele>473.0</ele><time>2026-03-28T13:06:19.335Z</time></trkpt><trkpt lat="43.4041067" lon="11.5437136"><ele>475.33333333333337</ele><time>2026-03-28T13:06:20.334Z</time></trkpt><trkpt lat="43.4041636" lon="11.5437514"><ele>477.6666666666667</ele><time>2026-03-28T13:06:21.335Z</time></trkpt><trkpt lat="43.4042595" lon="11.5438318"><ele>480.0</ele><time>2026-03-28T13:06:23.335Z</time></trkpt><trkpt lat="43.4043216" lon="11.5438839"><ele>481.0</ele><time>2026-03-28T13:06:25.335Z</time></trkpt><trkpt lat="43.4043862" lon="11.5439241"><ele>482.0</ele><time>2026-03-28T13:06:39.334Z</time></trkpt><trkpt lat="43.40444" lon="11.5438519"><ele>483.0</ele><time>2026-03-28T13:06:41.335Z</time></trkpt><trkpt lat="43.4044947" lon="11.5438059"><ele>484.0</ele><time>2026-03-28T13:06:42.334Z</time></trkpt><trkpt lat="43.40461" lon="11.5437776"><ele>485.0</ele><time>2026-03-28T13:06:44.334Z</time></trkpt><trkpt lat="43.4046631" lon="11.5438346"><ele>486.0</ele><time>2026-03-28T13:06:45.335Z</time></trkpt><trkpt lat="43.4046945" lon="11.5439101"><ele>490.0</ele><time>2026-03-28T13:06:46.334Z</time></trkpt><trkpt lat="43.4047036" lon="11.5440102"><ele>494.0</ele><time>2026-03-28T13:06:47.335Z</time></trkpt><trkpt lat="43.4047026" lon="11.5441563"><ele>498.0</ele><time>2026-03-28T13:06:49.335Z</time></trkpt><trkpt lat="43.4046976" lon="11.5442802"><ele>502.0</ele><time>2026-03-28T13:06:51.334Z</time></trkpt><trkpt lat="43.4047529" lon="11.5444133"><ele>506.0</ele><time>2026-03-28T13:06:53.335Z</time></trkpt><trkpt lat="43.4048025" lon="11.544481"><ele>505.99999999999994</ele><time>2026-03-28T13:06:54.334Z</time></trkpt><trkpt lat="43.4048637" lon="11.5445347"><ele>506.0</ele><time>2026-03-28T13:06:55.334Z</time></trkpt><trkpt lat="43.4049331" lon="11.544569"><ele>506.0</ele><time>2026-03-28T13:06:56.335Z</time></trkpt><trkpt lat="43.4050095" lon="11.5446057"><ele>506.0</ele><time>2026-03-28T13:06:57.335Z</time></trkpt><trkpt lat="43.4050859" lon="11.5446443"><ele>505.99999999999994</ele><time>2026-03-28T13:06:58.335Z</time></trkpt><trkpt lat="43.4051466" lon="11.5446693"><ele>506.0</ele><time>2026-03-28T13:06:59.334Z</time></trkpt><trkpt lat="43.4052547" lon="11.5447329"><ele>505.16666666666663</ele><time>2026-03-28T13:07:01.334Z</time></trkpt><trkpt lat="43.4053162" lon="11.5447681"><ele>504.3333333333333</ele><time>2026-03-28T13:07:02.335Z</time></trkpt><trkpt lat="43.4054192" lon="11.5448084"><ele>503.5</ele><time>2026-03-28T13:07:04.335Z</time></trkpt><trkpt lat="43.4055083" lon="11.5448418"><ele>502.66666666666663</ele><time>2026-03-28T13:07:06.335Z</time></trkpt><trkpt lat="43.405584" lon="11.5448426"><ele>501.8333333333333</ele><time>2026-03-28T13:07:08.334Z</time></trkpt><trkpt lat="43.4056724" lon="11.5448556"><ele>501.0</ele><time>2026-03-28T13:07:11.334Z</time></trkpt><trkpt lat="43.4057978" lon="11.5449419"><ele>501.0</ele><time>2026-03-28T13:07:14.335Z</time></trkpt><trkpt lat="43.4058837" lon="11.5450356"><ele>501.0</ele><time>2026-03-28T13:07:16.335Z</time></trkpt><trkpt lat="43.4060242" lon="11.5450707"><ele>501.0</ele><time>2026-03-28T13:07:18.334Z</time></trkpt><trkpt lat="43.4061024" lon="11.5450987"><ele>501.0</ele><time>2026-03-28T13:07:19.335Z</time></trkpt><trkpt lat="43.4061904" lon="11.545117"><ele>501.0</ele><time>2026-03-28T13:07:20.335Z</time></trkpt><trkpt lat="43.406288" lon="11.5451454"><ele>500.0</ele><time>2026-03-28T13:07:21.335Z</time></trkpt><trkpt lat="43.4063866" lon="11.5451797"><ele>499.0</ele><time>2026-03-28T13:07:22.335Z</time></trkpt><trkpt lat="43.4064844" lon="11.54521"><ele>498.0</ele><time>2026-03-28T13:07:23.335Z</time></trkpt><trkpt lat="43.4065716" lon="11.5452563"><ele>497.0</ele><time>2026-03-28T13:07:24.334Z</time></trkpt><trkpt lat="43.406648" lon="11.5453182"><ele>496.0</ele><time>2026-03-28T13:07:25.335Z</time></trkpt><trkpt lat="43.4067248" lon="11.5453804"><ele>494.33333333333337</ele><time>2026-03-28T13:07:26.335Z</time></trkpt><trkpt lat="43.4068046" lon="11.5454498"><ele>492.6666666666667</ele><time>2026-03-28T13:07:27.334Z</time></trkpt><trkpt lat="43.4068741" lon="11.5455091"><ele>491.0</ele><time>2026-03-28T13:07:28.335Z</time></trkpt><trkpt lat="43.4069428" lon="11.5455657"><ele>489.33333333333337</ele><time>2026-03-28T13:07:29.335Z</time></trkpt><trkpt lat="43.4070144" lon="11.5456051"><ele>487.6666666666667</ele><time>2026-03-28T13:07:30.335Z</time></trkpt><trkpt lat="43.4070845" lon="11.5456335"><ele>486.0</ele><time>2026-03-28T13:07:31.335Z</time></trkpt><trkpt lat="43.4071512" lon="11.5456588"><ele>486.5</ele><time>2026-03-28T13:07:32.335Z</time></trkpt><trkpt lat="43.4072139" lon="11.5456984"><ele>487.0</ele><time>2026-03-28T13:07:33.334Z</time></trkpt><trkpt lat="43.4072684" lon="11.5457558"><ele>487.5</ele><time>2026-03-28T13:07:34.335Z</time></trkpt><trkpt lat="43.407297" lon="11.5458383"><ele>488.0</ele><time>2026-03-28T13:07:35.334Z</time></trkpt><trkpt lat="43.4073182" lon="11.5459329"><ele>488.5</ele><time>2026-03-28T13:07:36.334Z</time></trkpt><trkpt lat="43.4073264" lon="11.5460476"><ele>489.0</ele><time>2026-03-28T13:07:37.335Z</time></trkpt><trkpt lat="43.4073307" lon="11.5461712"><ele>489.2</ele><time>2026-03-28T13:07:38.334Z</time></trkpt><trkpt lat="43.4073341" lon="11.5462951"><ele>489.4</ele><time>2026-03-28T13:07:39.335Z</time></trkpt><trkpt lat="43.4073416" lon="11.5464448"><ele>489.6</ele><time>2026-03-28T13:07:40.334Z</time></trkpt><trkpt lat="43.4073535" lon="11.5465881"><ele>489.8</ele><time>2026-03-28T13:07:41.334Z</time></trkpt><trkpt lat="43.4073481" lon="11.5467265"><ele>490.0</ele><time>2026-03-28T13:07:42.334Z</time></trkpt><trkpt lat="43.4073505" lon="11.5468684"><ele>490.00000000000006</ele><time>2026-03-28T13:07:43.335Z</time></trkpt><trkpt lat="43.4073587" lon="11.5469945"><ele>490.0</ele><time>2026-03-28T13:07:44.335Z</time></trkpt><trkpt lat="43.4073597" lon="11.5471142"><ele>490.0</ele><time>2026-03-28T13:07:45.335Z</time></trkpt><trkpt lat="43.4073633" lon="11.5472248"><ele>490.0</ele><time>2026-03-28T13:07:46.335Z</time></trkpt><trkpt lat="43.4073707" lon="11.5473269"><ele>490.00000000000006</ele><time>2026-03-28T13:07:47.334Z</time></trkpt><trkpt lat="43.4073828" lon="11.5474269"><ele>490.0</ele><time>2026-03-28T13:07:48.335Z</time></trkpt><trkpt lat="43.4074294" lon="11.5475251"><ele>490.83333333333337</ele><time>2026-03-28T13:07:49.335Z</time></trkpt><trkpt lat="43.4074599" lon="11.5476301"><ele>491.6666666666667</ele><time>2026-03-28T13:07:50.334Z</time></trkpt><trkpt lat="43.4075146" lon="11.5477408"><ele>492.5</ele><time>2026-03-28T13:07:51.335Z</time></trkpt><trkpt lat="43.4075658" lon="11.5478425"><ele>493.33333333333337</ele><time>2026-03-28T13:07:52.334Z</time></trkpt><trkpt lat="43.4076195" lon="11.5479414"><ele>494.1666666666667</ele><time>2026-03-28T13:07:53.335Z</time></trkpt><trkpt lat="43.4076564" lon="11.5480468"><ele>495.0</ele><time>2026-03-28T13:07:54.335Z</time></trkpt><trkpt lat="43.4077047" lon="11.5481415"><ele>495.6666666666667</ele><time>2026-03-28T13:07:55.335Z</time></trkpt><trkpt lat="43.407746" lon="11.5482265"><ele>496.33333333333337</ele><time>2026-03-28T13:07:56.335Z</time></trkpt><trkpt lat="43.4077984" lon="11.548313"><ele>497.0</ele><time>2026-03-28T13:07:57.335Z</time></trkpt><trkpt lat="43.4078515" lon="11.5483949"><ele>497.6666666666667</ele><time>2026-03-28T13:07:58.334Z</time></trkpt><trkpt lat="43.4079101" lon="11.5484719"><ele>498.33333333333337</ele><time>2026-03-28T13:07:59.335Z</time></trkpt><trkpt lat="43.4079899" lon="11.5485427"><ele>499.0</ele><time>2026-03-28T13:08:00.334Z</time></trkpt><trkpt lat="43.4080702" lon="11.5486204"><ele>500.6</ele><time>2026-03-28T13:08:01.334Z</time></trkpt><trkpt lat="43.4081614" lon="11.5487085"><ele>502.2</ele><time>2026-03-28T13:08:02.335Z</time></trkpt><trkpt lat="43.4082454" lon="11.5487916"><ele>503.80000000000007</ele><time>2026-03-28T13:08:03.335Z</time></trkpt><trkpt lat="43.408331" lon="11.5488746"><ele>505.40000000000003</ele><time>2026-03-28T13:08:04.334Z</time></trkpt><trkpt lat="43.4083996" lon="11.548957"><ele>507.0</ele><time>2026-03-28T13:08:05.334Z</time></trkpt><trkpt lat="43.4084486" lon="11.549048"><ele>508.0</ele><time>2026-03-28T13:08:06.335Z</time></trkpt><trkpt lat="43.4084906" lon="11.5491501"><ele>509.0</ele><time>2026-03-28T13:08:07.334Z</time></trkpt><trkpt lat="43.4085355" lon="11.5492474"><ele>510.0</ele><time>2026-03-28T13:08:08.335Z</time></trkpt><trkpt lat="43.4085881" lon="11.5493362"><ele>511.0</ele><time>2026-03-28T13:08:09.335Z</time></trkpt><trkpt lat="43.4086407" lon="11.5494393"><ele>512.0</ele><time>2026-03-28T13:08:10.334Z</time></trkpt><trkpt lat="43.4086962" lon="11.5495442"><ele>513.0</ele><time>2026-03-28T13:08:11.334Z</time></trkpt><trkpt lat="43.4087488" lon="11.5496517"><ele>513.0</ele><time>2026-03-28T13:08:12.335Z</time></trkpt><trkpt lat="43.4087995" lon="11.5497513"><ele>513.0</ele><time>2026-03-28T13:08:13.335Z</time></trkpt><trkpt lat="43.4088483" lon="11.5498475"><ele>513.0</ele><time>2026-03-28T13:08:14.335Z</time></trkpt><trkpt lat="43.4089221" lon="11.549935"><ele>513.0</ele><time>2026-03-28T13:08:15.335Z</time></trkpt><trkpt lat="43.4089767" lon="11.5500246"><ele>513.0</ele><time>2026-03-28T13:08:16.334Z</time></trkpt><trkpt lat="43.4090339" lon="11.550111"><ele>513.0</ele><time>2026-03-28T13:08:17.334Z</time></trkpt><trkpt lat="43.4090865" lon="11.5502028"><ele>515.8333333333334</ele><time>2026-03-28T13:08:18.334Z</time></trkpt><trkpt lat="43.4091416" lon="11.5502987"><ele>518.6666666666666</ele><time>2026-03-28T13:08:19.334Z</time></trkpt><trkpt lat="43.4091999" lon="11.5503842"><ele>521.5</ele><time>2026-03-28T13:08:20.335Z</time></trkpt><trkpt lat="43.4092551" lon="11.55047"><ele>524.3333333333333</ele><time>2026-03-28T13:08:21.335Z</time></trkpt><trkpt lat="43.4093156" lon="11.5505547"><ele>527.1666666666666</ele><time>2026-03-28T13:08:22.334Z</time></trkpt><trkpt lat="43.4093741" lon="11.5506235"><ele>530.0</ele><time>2026-03-28T13:08:23.334Z</time></trkpt><trkpt lat="43.4094367" lon="11.550666"><ele>530.0</ele><time>2026-03-28T13:08:24.335Z</time></trkpt><trkpt lat="43.4095019" lon="11.5507286"><ele>530.0</ele><time>2026-03-28T13:08:25.335Z</time></trkpt><trkpt lat="43.4095662" lon="11.550794"><ele>530.0</ele><time>2026-03-28T13:08:26.335Z</time></trkpt><trkpt lat="43.4096312" lon="11.5508599"><ele>530.0</ele><time>2026-03-28T13:08:27.335Z</time></trkpt><trkpt lat="43.4096947" lon="11.5509121"><ele>530.0</ele><time>2026-03-28T13:08:28.334Z</time></trkpt><trkpt lat="43.4097622" lon="11.5509573"><ele>530.0</ele><time>2026-03-28T13:08:29.335Z</time></trkpt><trkpt lat="43.4098349" lon="11.551008"><ele>532.0</ele><time>2026-03-28T13:08:30.335Z</time></trkpt><trkpt lat="43.4099014" lon="11.5510586"><ele>534.0</ele><time>2026-03-28T13:08:31.335Z</time></trkpt><trkpt lat="43.4099701" lon="11.5511112"><ele>536.0</ele><time>2026-03-28T13:08:32.335Z</time></trkpt><trkpt lat="43.4100708" lon="11.5512462"><ele>538.0</ele><time>2026-03-28T13:08:34.334Z</time></trkpt><trkpt lat="43.4100988" lon="11.5514232"><ele>540.0</ele><time>2026-03-28T13:08:36.335Z</time></trkpt><trkpt lat="43.41012" lon="11.5515094"><ele>540.0</ele><time>2026-03-28T13:08:37.335Z</time></trkpt><trkpt lat="43.4101552" lon="11.55166"><ele>540.0</ele><time>2026-03-28T13:08:39.335Z</time></trkpt><trkpt lat="43.4101841" lon="11.5518182"><ele>540.0</ele><time>2026-03-28T13:08:41.334Z</time></trkpt><trkpt lat="43.4102344" lon="11.5519907"><ele>540.0</ele><time>2026-03-28T13:08:43.334Z</time></trkpt><trkpt lat="43.410269" lon="11.5521"><ele>540.8333333333334</ele><time>2026-03-28T13:08:44.335Z</time></trkpt><trkpt lat="43.4102902" lon="11.5522135"><ele>541.6666666666666</ele><time>2026-03-28T13:08:45.335Z</time></trkpt><trkpt lat="43.4103112" lon="11.5523141"><ele>542.5</ele><time>2026-03-28T13:08:46.335Z</time></trkpt><trkpt lat="43.4103297" lon="11.552412"><ele>543.3333333333333</ele><time>2026-03-28T13:08:47.335Z</time></trkpt><trkpt lat="43.4103621" lon="11.5525147"><ele>544.1666666666666</ele><time>2026-03-28T13:08:48.334Z</time></trkpt><trkpt lat="43.4104041" lon="11.5525939"><ele>545.0</ele><time>2026-03-28T13:08:49.335Z</time></trkpt><trkpt lat="43.4104268" lon="11.5526902"><ele>545.0</ele><time>2026-03-28T13:08:50.335Z</time></trkpt><trkpt lat="43.4104385" lon="11.5527901"><ele>545.0</ele><time>2026-03-28T13:08:51.335Z</time></trkpt><trkpt lat="43.4104433" lon="11.5528777"><ele>545.0</ele><time>2026-03-28T13:08:52.335Z</time></trkpt><trkpt lat="43.4104709" lon="11.553038"><ele>545.0</ele><time>2026-03-28T13:08:54.335Z</time></trkpt><trkpt lat="43.4104959" lon="11.5531853"><ele>545.0</ele><time>2026-03-28T13:08:56.334Z</time></trkpt><trkpt lat="43.4104923" lon="11.5533555"><ele>545.1666666666666</ele><time>2026-03-28T13:08:58.335Z</time></trkpt><trkpt lat="43.4104985" lon="11.5534508"><ele>545.3333333333333</ele><time>2026-03-28T13:08:59.335Z</time></trkpt><trkpt lat="43.4105113" lon="11.5535498"><ele>545.5</ele><time>2026-03-28T13:09:00.335Z</time></trkpt><trkpt lat="43.4105348" lon="11.5536313"><ele>545.6666666666666</ele><time>2026-03-28T13:09:01.335Z</time></trkpt><trkpt lat="43.4105875" lon="11.5537624"><ele>545.8333333333334</ele><time>2026-03-28T13:09:03.334Z</time></trkpt><trkpt lat="43.4106336" lon="11.5538726"><ele>546.0</ele><time>2026-03-28T13:09:05.335Z</time></trkpt><trkpt lat="43.4106467" lon="11.5539733"><ele>546.8333333333334</ele><time>2026-03-28T13:09:07.335Z</time></trkpt><trkpt lat="43.4106443" lon="11.5540599"><ele>547.6666666666666</ele><time>2026-03-28T13:09:09.335Z</time></trkpt><trkpt lat="43.4106781" lon="11.5541431"><ele>548.5</ele><time>2026-03-28T13:09:11.335Z</time></trkpt><trkpt lat="43.4107547" lon="11.5542183"><ele>549.3333333333333</ele><time>2026-03-28T13:09:13.335Z</time></trkpt><trkpt lat="43.4108432" lon="11.5543005"><ele>550.1666666666666</ele><time>2026-03-28T13:09:15.334Z</time></trkpt><trkpt lat="43.4109042" lon="11.554402"><ele>551.0</ele><time>2026-03-28T13:09:17.334Z</time></trkpt><trkpt lat="43.4109582" lon="11.5544923"><ele>550.0</ele><time>2026-03-28T13:09:19.335Z</time></trkpt><trkpt lat="43.4110656" lon="11.5545751"><ele>549.0</ele><time>2026-03-28T13:09:21.335Z</time></trkpt><trkpt lat="43.4111852" lon="11.5545801"><ele>548.0</ele><time>2026-03-28T13:09:23.335Z</time></trkpt><trkpt lat="43.4112918" lon="11.5545718"><ele>547.0</ele><time>2026-03-28T13:09:25.334Z</time></trkpt><trkpt lat="43.4113959" lon="11.5545875"><ele>550.3333333333334</ele><time>2026-03-28T13:09:27.334Z</time></trkpt><trkpt lat="43.411472" lon="11.5546499"><ele>553.6666666666667</ele><time>2026-03-28T13:09:29.334Z</time></trkpt><trkpt lat="43.411512" lon="11.5547299"><ele>557.0</ele><time>2026-03-28T13:09:31.334Z</time></trkpt><trkpt lat="43.4115007" lon="11.5548293"><ele>560.3333333333334</ele><time>2026-03-28T13:09:33.335Z</time></trkpt><trkpt lat="43.4114807" lon="11.5549361"><ele>563.6666666666666</ele><time>2026-03-28T13:09:35.335Z</time></trkpt><trkpt lat="43.4115022" lon="11.555061"><ele>567.0</ele><time>2026-03-28T13:09:37.335Z</time></trkpt><trkpt lat="43.4115457" lon="11.5551806"><ele>567.0</ele><time>2026-03-28T13:09:39.335Z</time></trkpt><trkpt lat="43.4116032" lon="11.5552821"><ele>567.0</ele><time>2026-03-28T13:09:41.334Z</time></trkpt><trkpt lat="43.4116702" lon="11.5553901"><ele>567.0</ele><time>2026-03-28T13:09:43.334Z</time></trkpt><trkpt lat="43.4117201" lon="11.5555245"><ele>567.0</ele><time>2026-03-28T13:09:45.335Z</time></trkpt><trkpt lat="43.4117461" lon="11.5556664"><ele>567.0</ele><time>2026-03-28T13:09:47.335Z</time></trkpt><trkpt lat="43.4117594" lon="11.5558071"><ele>567.5</ele><time>2026-03-28T13:09:49.334Z</time></trkpt><trkpt lat="43.4117828" lon="11.5559308"><ele>568.0</ele><time>2026-03-28T13:09:51.334Z</time></trkpt><trkpt lat="43.4118125" lon="11.5560434"><ele>568.5</ele><time>2026-03-28T13:09:53.334Z</time></trkpt><trkpt lat="43.4118219" lon="11.5561729"><ele>569.0</ele><time>2026-03-28T13:09:55.335Z</time></trkpt><trkpt lat="43.4118222" lon="11.5562884"><ele>569.5</ele><time>2026-03-28T13:09:57.335Z</time></trkpt><trkpt lat="43.4118173" lon="11.5564008"><ele>570.0</ele><time>2026-03-28T13:09:59.334Z</time></trkpt><trkpt lat="43.4118152" lon="11.55653"><ele>570.0</ele><time>2026-03-28T13:10:01.335Z</time></trkpt><trkpt lat="43.4118186" lon="11.5566853"><ele>570.0</ele><time>2026-03-28T13:10:03.335Z</time></trkpt><trkpt lat="43.4118175" lon="11.5567765"><ele>570.0</ele><time>2026-03-28T13:10:04.334Z</time></trkpt><trkpt lat="43.4118049" lon="11.5568807"><ele>570.0</ele><time>2026-03-28T13:10:05.335Z</time></trkpt><trkpt lat="43.4117895" lon="11.5569797"><ele>570.0</ele><time>2026-03-28T13:10:06.334Z</time></trkpt><trkpt lat="43.4117588" lon="11.5570554"><ele>570.0</ele><time>2026-03-28T13:10:07.334Z</time></trkpt><trkpt lat="43.411724" lon="11.5571472"><ele>570.3333333333334</ele><time>2026-03-28T13:10:08.334Z</time></trkpt><trkpt lat="43.411699" lon="11.5572441"><ele>570.6666666666666</ele><time>2026-03-28T13:10:09.335Z</time></trkpt><trkpt lat="43.4116833" lon="11.557344"><ele>571.0</ele><time>2026-03-28T13:10:10.335Z</time></trkpt><trkpt lat="43.4116698" lon="11.5574374"><ele>571.3333333333333</ele><time>2026-03-28T13:10:11.334Z</time></trkpt><trkpt lat="43.4116578" lon="11.5575256"><ele>571.6666666666666</ele><time>2026-03-28T13:10:12.335Z</time></trkpt><trkpt lat="43.4116905" lon="11.5576738"><ele>572.0</ele><time>2026-03-28T13:10:14.335Z</time></trkpt><trkpt lat="43.4117286" lon="11.5578095"><ele>571.8333333333333</ele><time>2026-03-28T13:10:16.335Z</time></trkpt><trkpt lat="43.4117787" lon="11.5579161"><ele>571.6666666666666</ele><time>2026-03-28T13:10:18.335Z</time></trkpt><trkpt lat="43.4118567" lon="11.558002"><ele>571.5</ele><time>2026-03-28T13:10:20.335Z</time></trkpt><trkpt lat="43.4118894" lon="11.5581394"><ele>571.3333333333334</ele><time>2026-03-28T13:10:22.335Z</time></trkpt><trkpt lat="43.4118951" lon="11.5582269"><ele>571.1666666666667</ele><time>2026-03-28T13:10:23.335Z</time></trkpt><trkpt lat="43.4118789" lon="11.5583287"><ele>571.0</ele><time>2026-03-28T13:10:24.335Z</time></trkpt><trkpt lat="43.4118747" lon="11.5584304"><ele>571.0</ele><time>2026-03-28T13:10:25.335Z</time></trkpt><trkpt lat="43.4118725" lon="11.558532"><ele>571.0</ele><time>2026-03-28T13:10:26.335Z</time></trkpt><trkpt lat="43.4118525" lon="11.5586192"><ele>571.0</ele><time>2026-03-28T13:10:27.334Z</time></trkpt><trkpt lat="43.4118535" lon="11.5587258"><ele>571.0</ele><time>2026-03-28T13:10:28.335Z</time></trkpt><trkpt lat="43.4118712" lon="11.5588252"><ele>571.0</ele><time>2026-03-28T13:10:29.334Z</time></trkpt><trkpt lat="43.4119182" lon="11.5589861"><ele>571.0</ele><time>2026-03-28T13:10:31.335Z</time></trkpt><trkpt lat="43.4119663" lon="11.559133"><ele>570.2857142857143</ele><time>2026-03-28T13:10:33.335Z</time></trkpt><trkpt lat="43.4120033" lon="11.5592136"><ele>569.5714285714286</ele><time>2026-03-28T13:10:34.334Z</time></trkpt><trkpt lat="43.4120328" lon="11.5592945"><ele>568.8571428571429</ele><time>2026-03-28T13:10:35.335Z</time></trkpt><trkpt lat="43.4120661" lon="11.5593689"><ele>568.1428571428571</ele><time>2026-03-28T13:10:36.335Z</time></trkpt><trkpt lat="43.4121025" lon="11.559441"><ele>567.4285714285714</ele><time>2026-03-28T13:10:37.335Z</time></trkpt><trkpt lat="43.4121306" lon="11.5595189"><ele>566.7142857142858</ele><time>2026-03-28T13:10:38.334Z</time></trkpt><trkpt lat="43.4121544" lon="11.5596126"><ele>566.0</ele><time>2026-03-28T13:10:39.335Z</time></trkpt><trkpt lat="43.412182" lon="11.5597095"><ele>564.6666666666666</ele><time>2026-03-28T13:10:40.334Z</time></trkpt><trkpt lat="43.4121945" lon="11.5598128"><ele>563.3333333333333</ele><time>2026-03-28T13:10:41.335Z</time></trkpt><trkpt lat="43.412208" lon="11.5599117"><ele>562.0</ele><time>2026-03-28T13:10:42.335Z</time></trkpt><trkpt lat="43.4122281" lon="11.5600284"><ele>560.6666666666666</ele><time>2026-03-28T13:10:43.334Z</time></trkpt><trkpt lat="43.4122491" lon="11.560129"><ele>559.3333333333334</ele><time>2026-03-28T13:10:44.335Z</time></trkpt><trkpt lat="43.4122777" lon="11.5602236"><ele>558.0</ele><time>2026-03-28T13:10:45.334Z</time></trkpt><trkpt lat="43.4123164" lon="11.5603011"><ele>558.1666666666666</ele><time>2026-03-28T13:10:46.335Z</time></trkpt><trkpt lat="43.4124268" lon="11.5603838"><ele>558.3333333333334</ele><time>2026-03-28T13:10:48.335Z</time></trkpt><trkpt lat="43.4124831" lon="11.5604334"><ele>558.5</ele><time>2026-03-28T13:10:49.334Z</time></trkpt><trkpt lat="43.4125322" lon="11.5604989"><ele>558.6666666666667</ele><time>2026-03-28T13:10:50.334Z</time></trkpt><trkpt lat="43.4125895" lon="11.5605577"><ele>558.8333333333334</ele><time>2026-03-28T13:10:51.334Z</time></trkpt><trkpt lat="43.4126519" lon="11.560621"><ele>559.0</ele><time>2026-03-28T13:10:52.335Z</time></trkpt><trkpt lat="43.4127293" lon="11.5606786"><ele>559.0</ele><time>2026-03-28T13:10:53.334Z</time></trkpt><trkpt lat="43.4127991" lon="11.560734"><ele>559.0</ele><time>2026-03-28T13:10:54.335Z</time></trkpt><trkpt lat="43.4128674" lon="11.560779"><ele>559.0</ele><time>2026-03-28T13:10:55.335Z</time></trkpt><trkpt lat="43.4129347" lon="11.5608135"><ele>559.0</ele><time>2026-03-28T13:10:56.335Z</time></trkpt><trkpt lat="43.4130151" lon="11.560828"><ele>559.0</ele><time>2026-03-28T13:10:57.335Z</time></trkpt><trkpt lat="43.4131026" lon="11.5608394"><ele>559.0</ele><time>2026-03-28T13:10:58.335Z</time></trkpt><trkpt lat="43.4131846" lon="11.5608518"><ele>559.1666666666667</ele><time>2026-03-28T13:10:59.334Z</time></trkpt><trkpt lat="43.4132726" lon="11.560855"><ele>559.3333333333334</ele><time>2026-03-28T13:11:00.335Z</time></trkpt><trkpt lat="43.4133567" lon="11.560868"><ele>559.5</ele><time>2026-03-28T13:11:01.335Z</time></trkpt><trkpt lat="43.4134362" lon="11.5608823"><ele>559.6666666666666</ele><time>2026-03-28T13:11:02.335Z</time></trkpt><trkpt lat="43.4135046" lon="11.5609009"><ele>559.8333333333333</ele><time>2026-03-28T13:11:03.335Z</time></trkpt><trkpt lat="43.4136199" lon="11.5609735"><ele>560.0</ele><time>2026-03-28T13:11:05.334Z</time></trkpt><trkpt lat="43.4136771" lon="11.5610274"><ele>560.0</ele><time>2026-03-28T13:11:06.335Z</time></trkpt><trkpt lat="43.4137318" lon="11.5610726"><ele>560.0</ele><time>2026-03-28T13:11:07.335Z</time></trkpt><trkpt lat="43.4137931" lon="11.5611205"><ele>560.0</ele><time>2026-03-28T13:11:08.335Z</time></trkpt><trkpt lat="43.4138575" lon="11.5611782"><ele>560.0</ele><time>2026-03-28T13:11:09.335Z</time></trkpt><trkpt lat="43.4139047" lon="11.5612561"><ele>560.0</ele><time>2026-03-28T13:11:10.335Z</time></trkpt><trkpt lat="43.4139638" lon="11.5613191"><ele>560.0</ele><time>2026-03-28T13:11:11.335Z</time></trkpt><trkpt lat="43.4139917" lon="11.5614062"><ele>560.0</ele><time>2026-03-28T13:11:12.335Z</time></trkpt><trkpt lat="43.4140265" lon="11.5615025"><ele>562.75</ele><time>2026-03-28T13:11:13.335Z</time></trkpt><trkpt lat="43.4140865" lon="11.5616614"><ele>565.5</ele><time>2026-03-28T13:11:15.335Z</time></trkpt><trkpt lat="43.4141367" lon="11.5618158"><ele>568.25</ele><time>2026-03-28T13:11:17.335Z</time></trkpt><trkpt lat="43.4141911" lon="11.5619601"><ele>571.0</ele><time>2026-03-28T13:11:19.334Z</time></trkpt><trkpt lat="43.4142417" lon="11.5620866"><ele>572.3333333333334</ele><time>2026-03-28T13:11:21.334Z</time></trkpt><trkpt lat="43.4142766" lon="11.5621716"><ele>573.6666666666667</ele><time>2026-03-28T13:11:22.335Z</time></trkpt><trkpt lat="43.414309" lon="11.5623443"><ele>575.0</ele><time>2026-03-28T13:11:24.334Z</time></trkpt><trkpt lat="43.4143251" lon="11.5624286"><ele>576.3333333333334</ele><time>2026-03-28T13:11:25.334Z</time></trkpt><trkpt lat="43.4143421" lon="11.5625147"><ele>577.6666666666666</ele><time>2026-03-28T13:11:26.335Z</time></trkpt><trkpt lat="43.4144204" lon="11.5626044"><ele>579.0</ele><time>2026-03-28T13:11:28.334Z</time></trkpt><trkpt lat="43.4144803" lon="11.5626476"><ele>579.0</ele><time>2026-03-28T13:11:29.335Z</time></trkpt><trkpt lat="43.4145244" lon="11.5627222"><ele>579.0</ele><time>2026-03-28T13:11:30.335Z</time></trkpt><trkpt lat="43.4146365" lon="11.5628455"><ele>579.0</ele><time>2026-03-28T13:11:32.334Z</time></trkpt><trkpt lat="43.4147057" lon="11.5628938"><ele>579.0</ele><time>2026-03-28T13:11:33.334Z</time></trkpt><trkpt lat="43.4147802" lon="11.5629272"><ele>579.0</ele><time>2026-03-28T13:11:34.335Z</time></trkpt><trkpt lat="43.4148459" lon="11.5629516"><ele>579.0</ele><time>2026-03-28T13:11:35.335Z</time></trkpt><trkpt lat="43.4149128" lon="11.5629586"><ele>579.6</ele><time>2026-03-28T13:11:36.334Z</time></trkpt><trkpt lat="43.4150314" lon="11.5629586"><ele>580.2</ele><time>2026-03-28T13:11:38.335Z</time></trkpt><trkpt lat="43.4151596" lon="11.5630156"><ele>580.8000000000001</ele><time>2026-03-28T13:11:40.334Z</time></trkpt><trkpt lat="43.4152257" lon="11.5630691"><ele>581.4</ele><time>2026-03-28T13:11:41.334Z</time></trkpt><trkpt lat="43.4153009" lon="11.5631183"><ele>582.0</ele><time>2026-03-28T13:11:42.335Z</time></trkpt><trkpt lat="43.4153727" lon="11.563172"><ele>582.0</ele><time>2026-03-28T13:11:43.335Z</time></trkpt><trkpt lat="43.415448" lon="11.5632138"><ele>582.0</ele><time>2026-03-28T13:11:44.335Z</time></trkpt><trkpt lat="43.4155213" lon="11.5632424"><ele>582.0</ele><time>2026-03-28T13:11:45.335Z</time></trkpt><trkpt lat="43.4155844" lon="11.5632655"><ele>582.0</ele><time>2026-03-28T13:11:46.334Z</time></trkpt><trkpt lat="43.4156614" lon="11.5632825"><ele>582.0</ele><time>2026-03-28T13:11:47.335Z</time></trkpt><trkpt lat="43.415795" lon="11.5632829"><ele>582.0</ele><time>2026-03-28T13:11:49.335Z</time></trkpt><trkpt lat="43.4158641" lon="11.5632977"><ele>581.0</ele><time>2026-03-28T13:11:50.335Z</time></trkpt><trkpt lat="43.4159449" lon="11.5633265"><ele>580.0</ele><time>2026-03-28T13:11:51.335Z</time></trkpt><trkpt lat="43.4160165" lon="11.5633688"><ele>579.0</ele><time>2026-03-28T13:11:52.335Z</time></trkpt><trkpt lat="43.4160878" lon="11.5634006"><ele>578.0</ele><time>2026-03-28T13:11:53.335Z</time></trkpt><trkpt lat="43.4161586" lon="11.5634238"><ele>577.0</ele><time>2026-03-28T13:11:54.335Z</time></trkpt><trkpt lat="43.416232" lon="11.5634427"><ele>576.0</ele><time>2026-03-28T13:11:55.334Z</time></trkpt><trkpt lat="43.4163086" lon="11.5634668"><ele>575.4</ele><time>2026-03-28T13:11:56.334Z</time></trkpt><trkpt lat="43.4163909" lon="11.5634855"><ele>574.8</ele><time>2026-03-28T13:11:57.334Z</time></trkpt><trkpt lat="43.4164917" lon="11.5635066"><ele>574.1999999999999</ele><time>2026-03-28T13:11:58.335Z</time></trkpt><trkpt lat="43.4165832" lon="11.5635354"><ele>573.6</ele><time>2026-03-28T13:11:59.335Z</time></trkpt><trkpt lat="43.416676" lon="11.5635742"><ele>573.0</ele><time>2026-03-28T13:12:00.334Z</time></trkpt><trkpt lat="43.4167646" lon="11.5636227"><ele>573.0</ele><time>2026-03-28T13:12:01.334Z</time></trkpt><trkpt lat="43.4168543" lon="11.5636791"><ele>573.0</ele><time>2026-03-28T13:12:02.334Z</time></trkpt><trkpt lat="43.4169297" lon="11.5637312"><ele>573.0</ele><time>2026-03-28T13:12:03.334Z</time></trkpt><trkpt lat="43.4170165" lon="11.5637775"><ele>573.0</ele><time>2026-03-28T13:12:04.335Z</time></trkpt><trkpt lat="43.4170891" lon="11.5638201"><ele>573.0</ele><time>2026-03-28T13:12:05.335Z</time></trkpt><trkpt lat="43.4171579" lon="11.5638622"><ele>573.0</ele><time>2026-03-28T13:12:06.334Z</time></trkpt><trkpt lat="43.4172281" lon="11.5639014"><ele>573.0</ele><time>2026-03-28T13:12:07.335Z</time></trkpt><trkpt lat="43.4172894" lon="11.5639412"><ele>573.0</ele><time>2026-03-28T13:12:08.335Z</time></trkpt><trkpt lat="43.417403" lon="11.5639901"><ele>573.0</ele><time>2026-03-28T13:12:10.335Z</time></trkpt><trkpt lat="43.4174978" lon="11.5640309"><ele>573.0</ele><time>2026-03-28T13:12:12.335Z</time></trkpt><trkpt lat="43.4175657" lon="11.5640499"><ele>573.0</ele><time>2026-03-28T13:12:14.334Z</time></trkpt><trkpt lat="43.4176345" lon="11.5640651"><ele>573.0</ele><time>2026-03-28T13:12:17.335Z</time></trkpt><trkpt lat="43.4177083" lon="11.5640868"><ele>573.0</ele><time>2026-03-28T13:12:44.334Z</time></trkpt><trkpt lat="43.4178041" lon="11.5641145"><ele>573.0</ele><time>2026-03-28T13:12:47.334Z</time></trkpt><trkpt lat="43.4178968" lon="11.5641763"><ele>573.0</ele><time>2026-03-28T13:12:49.334Z</time></trkpt><trkpt lat="43.4179514" lon="11.5643046"><ele>573.0</ele><time>2026-03-28T13:12:51.334Z</time></trkpt><trkpt lat="43.4179565" lon="11.5644752"><ele>573.0</ele><time>2026-03-28T13:12:53.335Z</time></trkpt><trkpt lat="43.4180081" lon="11.5646119"><ele>570.6</ele><time>2026-03-28T13:12:55.335Z</time></trkpt><trkpt lat="43.4181061" lon="11.5646451"><ele>568.1999999999999</ele><time>2026-03-28T13:12:57.334Z</time></trkpt><trkpt lat="43.4182278" lon="11.5646306"><ele>565.8</ele><time>2026-03-28T13:12:59.335Z</time></trkpt><trkpt lat="43.4183073" lon="11.5646148"><ele>563.4</ele><time>2026-03-28T13:13:00.335Z</time></trkpt><trkpt lat="43.4183986" lon="11.564599"><ele>561.0</ele><time>2026-03-28T13:13:01.335Z</time></trkpt><trkpt lat="43.4184957" lon="11.5646008"><ele>561.0</ele><time>2026-03-28T13:13:02.335Z</time></trkpt><trkpt lat="43.418592" lon="11.564616"><ele>561.0</ele><time>2026-03-28T13:13:03.334Z</time></trkpt><trkpt lat="43.4186811" lon="11.5646497"><ele>561.0</ele><time>2026-03-28T13:13:04.334Z</time></trkpt><trkpt lat="43.4187676" lon="11.5646874"><ele>561.0</ele><time>2026-03-28T13:13:05.335Z</time></trkpt><trkpt lat="43.4188561" lon="11.5647383"><ele>561.0</ele><time>2026-03-28T13:13:06.335Z</time></trkpt><trkpt lat="43.4189435" lon="11.5647839"><ele>559.4</ele><time>2026-03-28T13:13:07.335Z</time></trkpt><trkpt lat="43.4190274" lon="11.5648574"><ele>557.8</ele><time>2026-03-28T13:13:08.334Z</time></trkpt><trkpt lat="43.4191172" lon="11.5649314"><ele>556.1999999999999</ele><time>2026-03-28T13:13:09.334Z</time></trkpt><trkpt lat="43.4192041" lon="11.5649987"><ele>554.6</ele><time>2026-03-28T13:13:10.335Z</time></trkpt><trkpt lat="43.4193003" lon="11.565048"><ele>553.0</ele><time>2026-03-28T13:13:11.334Z</time></trkpt><trkpt lat="43.4194026" lon="11.5651002"><ele>553.0</ele><time>2026-03-28T13:13:12.334Z</time></trkpt><trkpt lat="43.4195125" lon="11.565143"><ele>553.0</ele><time>2026-03-28T13:13:13.335Z</time></trkpt><trkpt lat="43.4196275" lon="11.5651801"><ele>553.0</ele><time>2026-03-28T13:13:14.335Z</time></trkpt><trkpt lat="43.4197592" lon="11.5652061"><ele>553.0</ele><time>2026-03-28T13:13:15.335Z</time></trkpt><trkpt lat="43.4198684" lon="11.5652351"><ele>554.5</ele><time>2026-03-28T13:13:16.335Z</time></trkpt><trkpt lat="43.4199784" lon="11.5652577"><ele>556.0</ele><time>2026-03-28T13:13:17.335Z</time></trkpt><trkpt lat="43.420107" lon="11.5652639"><ele>557.5</ele><time>2026-03-28T13:13:18.335Z</time></trkpt><trkpt lat="43.420226" lon="11.5652505"><ele>559.0</ele><time>2026-03-28T13:13:19.335Z</time></trkpt><trkpt lat="43.4203468" lon="11.5652305"><ele>559.0</ele><time>2026-03-28T13:13:20.334Z</time></trkpt><trkpt lat="43.4204559" lon="11.5652016"><ele>559.0</ele><time>2026-03-28T13:13:21.335Z</time></trkpt><trkpt lat="43.4205229" lon="11.5651788"><ele>559.0</ele><time>2026-03-28T13:13:22.334Z</time></trkpt><trkpt lat="43.4206072" lon="11.5651463"><ele>559.0</ele><time>2026-03-28T13:13:23.335Z</time></trkpt><trkpt lat="43.4206746" lon="11.565115"><ele>559.0</ele><time>2026-03-28T13:13:24.335Z</time></trkpt><trkpt lat="43.4207384" lon="11.5650772"><ele>559.0</ele><time>2026-03-28T13:13:25.335Z</time></trkpt><trkpt lat="43.4208267" lon="11.5649571"><ele>560.6666666666667</ele><time>2026-03-28T13:13:27.335Z</time></trkpt><trkpt lat="43.4208692" lon="11.5648873"><ele>562.3333333333334</ele><time>2026-03-28T13:13:28.335Z</time></trkpt><trkpt lat="43.420911" lon="11.5648157"><ele>564.0</ele><time>2026-03-28T13:13:29.335Z</time></trkpt><trkpt lat="43.4209502" lon="11.5647415"><ele>565.6666666666666</ele><time>2026-03-28T13:13:30.335Z</time></trkpt><trkpt lat="43.4209954" lon="11.5646013"><ele>567.3333333333333</ele><time>2026-03-28T13:13:32.335Z</time></trkpt><trkpt lat="43.4210874" lon="11.5644971"><ele>569.0</ele><time>2026-03-28T13:13:34.335Z</time></trkpt><trkpt lat="43.4212122" lon="11.5644195"><ele>569.8333333333333</ele><time>2026-03-28T13:13:36.335Z</time></trkpt><trkpt lat="43.4212839" lon="11.5643707"><ele>570.6666666666666</ele><time>2026-03-28T13:13:37.334Z</time></trkpt><trkpt lat="43.4213528" lon="11.56433"><ele>571.5</ele><time>2026-03-28T13:13:38.335Z</time></trkpt><trkpt lat="43.4214227" lon="11.5643184"><ele>572.3333333333334</ele><time>2026-03-28T13:13:39.335Z</time></trkpt><trkpt lat="43.4215048" lon="11.5643205"><ele>573.1666666666667</ele><time>2026-03-28T13:13:40.335Z</time></trkpt><trkpt lat="43.4215881" lon="11.5643449"><ele>574.0</ele><time>2026-03-28T13:13:41.335Z</time></trkpt><trkpt lat="43.42166" lon="11.5643556"><ele>576.0</ele><time>2026-03-28T13:13:42.334Z</time></trkpt><trkpt lat="43.4217412" lon="11.5643845"><ele>578.0</ele><time>2026-03-28T13:13:43.334Z</time></trkpt><trkpt lat="43.4218181" lon="11.5643987"><ele>580.0</ele><time>2026-03-28T13:13:44.335Z</time></trkpt><trkpt lat="43.421913" lon="11.564415"><ele>582.0</ele><time>2026-03-28T13:13:45.335Z</time></trkpt><trkpt lat="43.4219833" lon="11.5644223"><ele>584.0</ele><time>2026-03-28T13:13:46.335Z</time></trkpt><trkpt lat="43.4220622" lon="11.5644183"><ele>586.0</ele><time>2026-03-28T13:13:47.334Z</time></trkpt><trkpt lat="43.4221732" lon="11.5644083"><ele>588.2</ele><time>2026-03-28T13:13:49.334Z</time></trkpt><trkpt lat="43.4222657" lon="11.5644007"><ele>590.4000000000001</ele><time>2026-03-28T13:13:50.335Z</time></trkpt><trkpt lat="43.4223668" lon="11.5643753"><ele>592.6</ele><time>2026-03-28T13:13:51.335Z</time></trkpt><trkpt lat="43.4224355" lon="11.5643572"><ele>594.8000000000001</ele><time>2026-03-28T13:13:52.335Z</time></trkpt><trkpt lat="43.4225566" lon="11.5643413"><ele>597.0</ele><time>2026-03-28T13:13:53.335Z</time></trkpt><trkpt lat="43.4226424" lon="11.5643364"><ele>597.0</ele><time>2026-03-28T13:13:54.335Z</time></trkpt><trkpt lat="43.4227279" lon="11.5643312"><ele>597.0</ele><time>2026-03-28T13:13:55.335Z</time></trkpt><trkpt lat="43.4228044" lon="11.5643503"><ele>597.0</ele><time>2026-03-28T13:13:56.334Z</time></trkpt><trkpt lat="43.4228877" lon="11.5643791"><ele>597.0</ele><time>2026-03-28T13:13:57.334Z</time></trkpt><trkpt lat="43.422985" lon="11.5643952"><ele>597.0</ele><time>2026-03-28T13:13:58.335Z</time></trkpt><trkpt lat="43.4230703" lon="11.5644234"><ele>597.0</ele><time>2026-03-28T13:13:59.334Z</time></trkpt><trkpt lat="43.4231692" lon="11.5644516"><ele>597.6</ele><time>2026-03-28T13:14:00.335Z</time></trkpt><trkpt lat="43.4232914" lon="11.5644501"><ele>598.2</ele><time>2026-03-28T13:14:01.335Z</time></trkpt><trkpt lat="43.4233949" lon="11.5644683"><ele>598.8</ele><time>2026-03-28T13:14:02.335Z</time></trkpt><trkpt lat="43.4234882" lon="11.5644771"><ele>599.4</ele><time>2026-03-28T13:14:03.334Z</time></trkpt><trkpt lat="43.4235869" lon="11.5644927"><ele>600.0</ele><time>2026-03-28T13:14:04.335Z</time></trkpt><trkpt lat="43.423696" lon="11.5645"><ele>600.0</ele><time>2026-03-28T13:14:05.335Z</time></trkpt><trkpt lat="43.4238055" lon="11.564505"><ele>600.0</ele><time>2026-03-28T13:14:06.335Z</time></trkpt><trkpt lat="43.4238877" lon="11.5645032"><ele>600.0</ele><time>2026-03-28T13:14:07.335Z</time></trkpt><trkpt lat="43.4239726" lon="11.5644743"><ele>600.0</ele><time>2026-03-28T13:14:08.335Z</time></trkpt><trkpt lat="43.4240556" lon="11.5644399"><ele>600.0</ele><time>2026-03-28T13:14:09.335Z</time></trkpt><trkpt lat="43.4241256" lon="11.5644087"><ele>600.0</ele><time>2026-03-28T13:14:10.334Z</time></trkpt><trkpt lat="43.4241975" lon="11.5643991"><ele>600.0</ele><time>2026-03-28T13:14:11.335Z</time></trkpt><trkpt lat="43.4243267" lon="11.5644065"><ele>600.0</ele><time>2026-03-28T13:14:13.334Z</time></trkpt><trkpt lat="43.424387" lon="11.5644354"><ele>600.0</ele><time>2026-03-28T13:14:14.335Z</time></trkpt><trkpt lat="43.4244529" lon="11.5644846"><ele>600.0</ele><time>2026-03-28T13:14:15.335Z</time></trkpt><trkpt lat="43.4245142" lon="11.5645462"><ele>600.0</ele><time>2026-03-28T13:14:16.334Z</time></trkpt><trkpt lat="43.424572" lon="11.5646042"><ele>600.0</ele><time>2026-03-28T13:14:17.334Z</time></trkpt><trkpt lat="43.4246329" lon="11.5646612"><ele>599.6666666666666</ele><time>2026-03-28T13:14:18.334Z</time></trkpt><trkpt lat="43.4247033" lon="11.5647038"><ele>599.3333333333334</ele><time>2026-03-28T13:14:19.335Z</time></trkpt><trkpt lat="43.4247714" lon="11.5647372"><ele>599.0</ele><time>2026-03-28T13:14:20.335Z</time></trkpt><trkpt lat="43.4248568" lon="11.5647668"><ele>598.6666666666667</ele><time>2026-03-28T13:14:21.335Z</time></trkpt><trkpt lat="43.4249351" lon="11.5647932"><ele>598.3333333333334</ele><time>2026-03-28T13:14:22.334Z</time></trkpt><trkpt lat="43.4250053" lon="11.5648473"><ele>598.0</ele><time>2026-03-28T13:14:23.335Z</time></trkpt><trkpt lat="43.4250721" lon="11.5648894"><ele>598.0</ele><time>2026-03-28T13:14:24.334Z</time></trkpt><trkpt lat="43.4251493" lon="11.5649378"><ele>598.0</ele><time>2026-03-28T13:14:25.335Z</time></trkpt><trkpt lat="43.425228" lon="11.5649794"><ele>598.0</ele><time>2026-03-28T13:14:26.334Z</time></trkpt><trkpt lat="43.4253099" lon="11.5650018"><ele>598.0</ele><time>2026-03-28T13:14:27.335Z</time></trkpt><trkpt lat="43.4254055" lon="11.5650317"><ele>598.0</ele><time>2026-03-28T13:14:28.335Z</time></trkpt><trkpt lat="43.4254921" lon="11.5650437"><ele>598.0</ele><time>2026-03-28T13:14:29.334Z</time></trkpt><trkpt lat="43.425576" lon="11.5650445"><ele>597.8</ele><time>2026-03-28T13:14:30.334Z</time></trkpt><trkpt lat="43.4256609" lon="11.5650523"><ele>597.5999999999999</ele><time>2026-03-28T13:14:31.335Z</time></trkpt><trkpt lat="43.4257368" lon="11.5650555"><ele>597.4000000000001</ele><time>2026-03-28T13:14:32.335Z</time></trkpt><trkpt lat="43.4258854" lon="11.5650025"><ele>597.2</ele><time>2026-03-28T13:14:34.335Z</time></trkpt><trkpt lat="43.4259591" lon="11.5649674"><ele>597.0</ele><time>2026-03-28T13:14:35.335Z</time></trkpt><trkpt lat="43.4260518" lon="11.5649312"><ele>597.0</ele><time>2026-03-28T13:14:36.335Z</time></trkpt><trkpt lat="43.4261179" lon="11.5648999"><ele>597.0</ele><time>2026-03-28T13:14:37.335Z</time></trkpt><trkpt lat="43.4262015" lon="11.5648749"><ele>597.0</ele><time>2026-03-28T13:14:38.335Z</time></trkpt><trkpt lat="43.4262822" lon="11.5648492"><ele>597.0</ele><time>2026-03-28T13:14:39.335Z</time></trkpt><trkpt lat="43.4263536" lon="11.5648399"><ele>597.0</ele><time>2026-03-28T13:14:40.335Z</time></trkpt><trkpt lat="43.4264313" lon="11.5648358"><ele>597.0</ele><time>2026-03-28T13:14:41.334Z</time></trkpt><trkpt lat="43.4265077" lon="11.5648325"><ele>596.8571428571429</ele><time>2026-03-28T13:14:42.335Z</time></trkpt><trkpt lat="43.4265731" lon="11.564819"><ele>596.7142857142858</ele><time>2026-03-28T13:14:43.335Z</time></trkpt><trkpt lat="43.426646" lon="11.5648185"><ele>596.5714285714286</ele><time>2026-03-28T13:14:44.335Z</time></trkpt><trkpt lat="43.426719" lon="11.564808"><ele>596.4285714285714</ele><time>2026-03-28T13:14:45.334Z</time></trkpt><trkpt lat="43.4267965" lon="11.5647821"><ele>596.2857142857142</ele><time>2026-03-28T13:14:46.335Z</time></trkpt><trkpt lat="43.4268628" lon="11.5647724"><ele>596.1428571428571</ele><time>2026-03-28T13:14:47.334Z</time></trkpt><trkpt lat="43.4269408" lon="11.5647696"><ele>596.0</ele><time>2026-03-28T13:14:48.334Z</time></trkpt><trkpt lat="43.4270041" lon="11.5647707"><ele>596.0</ele><time>2026-03-28T13:14:49.335Z</time></trkpt><trkpt lat="43.4270624" lon="11.5648057"><ele>596.0</ele><time>2026-03-28T13:14:50.335Z</time></trkpt><trkpt lat="43.4271272" lon="11.5648395"><ele>596.0</ele><time>2026-03-28T13:14:51.335Z</time></trkpt><trkpt lat="43.4272552" lon="11.5648535"><ele>596.0</ele><time>2026-03-28T13:14:53.335Z</time></trkpt><trkpt lat="43.4273226" lon="11.5648398"><ele>596.0</ele><time>2026-03-28T13:14:54.335Z</time></trkpt><trkpt lat="43.4273998" lon="11.5646995"><ele>596.1666666666666</ele><time>2026-03-28T13:14:56.334Z</time></trkpt><trkpt lat="43.4274478" lon="11.5646323"><ele>596.3333333333333</ele><time>2026-03-28T13:14:57.335Z</time></trkpt><trkpt lat="43.42751" lon="11.56457"><ele>596.5</ele><time>2026-03-28T13:14:58.334Z</time></trkpt><trkpt lat="43.4275966" lon="11.5645637"><ele>596.6666666666666</ele><time>2026-03-28T13:14:59.334Z</time></trkpt><trkpt lat="43.4276686" lon="11.5645501"><ele>596.8333333333334</ele><time>2026-03-28T13:15:00.335Z</time></trkpt><trkpt lat="43.4277674" lon="11.5645754"><ele>597.0</ele><time>2026-03-28T13:15:01.334Z</time></trkpt><trkpt lat="43.4278481" lon="11.5646124"><ele>597.0</ele><time>2026-03-28T13:15:02.334Z</time></trkpt><trkpt lat="43.4279361" lon="11.5646303"><ele>597.0</ele><time>2026-03-28T13:15:03.335Z</time></trkpt><trkpt lat="43.4280288" lon="11.5646696"><ele>597.0</ele><time>2026-03-28T13:15:04.334Z</time></trkpt><trkpt lat="43.4280998" lon="11.5647147"><ele>597.0</ele><time>2026-03-28T13:15:05.335Z</time></trkpt><trkpt lat="43.4281743" lon="11.5647525"><ele>597.0</ele><time>2026-03-28T13:15:06.334Z</time></trkpt><trkpt lat="43.4282501" lon="11.5648113"><ele>597.0</ele><time>2026-03-28T13:15:07.335Z</time></trkpt><trkpt lat="43.4283272" lon="11.5648838"><ele>598.5</ele><time>2026-03-28T13:15:08.335Z</time></trkpt><trkpt lat="43.4283622" lon="11.5649718"><ele>600.0</ele><time>2026-03-28T13:15:09.335Z</time></trkpt><trkpt lat="43.4284072" lon="11.5650548"><ele>601.5</ele><time>2026-03-28T13:15:10.335Z</time></trkpt><trkpt lat="43.4284676" lon="11.5651236"><ele>603.0</ele><time>2026-03-28T13:15:11.334Z</time></trkpt><trkpt lat="43.4285237" lon="11.5652037"><ele>604.5</ele><time>2026-03-28T13:15:12.335Z</time></trkpt><trkpt lat="43.4285788" lon="11.5652721"><ele>606.0</ele><time>2026-03-28T13:15:13.334Z</time></trkpt><trkpt lat="43.428646" lon="11.5653441"><ele>606.0</ele><time>2026-03-28T13:15:15.335Z</time></trkpt><trkpt lat="43.4285796" lon="11.5652444"><ele>606.0</ele><time>2026-03-28T13:15:26.334Z</time></trkpt><trkpt lat="43.4285152" lon="11.5651805"><ele>606.0</ele><time>2026-03-28T13:15:28.335Z</time></trkpt><trkpt lat="43.4284572" lon="11.5650964"><ele>606.0</ele><time>2026-03-28T13:15:31.335Z</time></trkpt><trkpt lat="43.4284555" lon="11.5650085"><ele>606.0</ele><time>2026-03-28T13:15:33.335Z</time></trkpt><trkpt lat="43.428477" lon="11.564923"><ele>606.0</ele><time>2026-03-28T13:15:35.335Z</time></trkpt><trkpt lat="43.4285274" lon="11.5648331"><ele>606.0</ele><time>2026-03-28T13:15:37.335Z</time></trkpt><trkpt lat="43.4286063" lon="11.5647437"><ele>606.0</ele><time>2026-03-28T13:15:40.335Z</time></trkpt><trkpt lat="43.4286737" lon="11.5646958"><ele>606.0</ele><time>2026-03-28T13:15:42.335Z</time></trkpt><trkpt lat="43.4287759" lon="11.5646801"><ele>606.0</ele><time>2026-03-28T13:15:44.335Z</time></trkpt><trkpt lat="43.428865" lon="11.5647268"><ele>606.0</ele><time>2026-03-28T13:15:46.335Z</time></trkpt><trkpt lat="43.4289376" lon="11.5648043"><ele>609.25</ele><time>2026-03-28T13:15:48.335Z</time></trkpt><trkpt lat="43.4289893" lon="11.5649422"><ele>612.5</ele><time>2026-03-28T13:15:50.335Z</time></trkpt><trkpt lat="43.4290357" lon="11.5650547"><ele>615.75</ele><time>2026-03-28T13:15:52.334Z</time></trkpt><trkpt lat="43.4290754" lon="11.5652069"><ele>619.0</ele><time>2026-03-28T13:15:54.334Z</time></trkpt><trkpt lat="43.4291667" lon="11.565333"><ele>619.0</ele><time>2026-03-28T13:15:56.335Z</time></trkpt><trkpt lat="43.4292261" lon="11.5654022"><ele>619.0</ele><time>2026-03-28T13:15:57.335Z</time></trkpt><trkpt lat="43.4292612" lon="11.5654845"><ele>619.0</ele><time>2026-03-28T13:15:58.335Z</time></trkpt><trkpt lat="43.4293088" lon="11.5655507"><ele>619.0</ele><time>2026-03-28T13:15:59.334Z</time></trkpt><trkpt lat="43.4293532" lon="11.5656229"><ele>619.0</ele><time>2026-03-28T13:16:00.334Z</time></trkpt><trkpt lat="43.4294239" lon="11.5657491"><ele>619.0</ele><time>2026-03-28T13:16:02.335Z</time></trkpt><trkpt lat="43.4294736" lon="11.5658604"><ele>619.0</ele><time>2026-03-28T13:16:04.334Z</time></trkpt><trkpt lat="43.429512" lon="11.5659545"><ele>619.0</ele><time>2026-03-28T13:16:05.335Z</time></trkpt><trkpt lat="43.4295418" lon="11.5660323"><ele>619.0</ele><time>2026-03-28T13:16:06.335Z</time></trkpt><trkpt lat="43.4295795" lon="11.5661195"><ele>619.0</ele><time>2026-03-28T13:16:07.334Z</time></trkpt><trkpt lat="43.429613" lon="11.5661954"><ele>619.0</ele><time>2026-03-28T13:16:08.335Z</time></trkpt><trkpt lat="43.4296541" lon="11.5663497"><ele>619.0</ele><time>2026-03-28T13:16:10.335Z</time></trkpt><trkpt lat="43.4296662" lon="11.5665123"><ele>622.4</ele><time>2026-03-28T13:16:12.335Z</time></trkpt><trkpt lat="43.4296514" lon="11.5666648"><ele>625.8</ele><time>2026-03-28T13:16:14.334Z</time></trkpt><trkpt lat="43.4296447" lon="11.5668258"><ele>629.2</ele><time>2026-03-28T13:16:16.334Z</time></trkpt><trkpt lat="43.4296476" lon="11.5669164"><ele>632.6</ele><time>2026-03-28T13:16:17.335Z</time></trkpt><trkpt lat="43.4296796" lon="11.5670187"><ele>636.0</ele><time>2026-03-28T13:16:19.335Z</time></trkpt><trkpt lat="43.4297139" lon="11.567116"><ele>636.0</ele><time>2026-03-28T13:16:21.335Z</time></trkpt><trkpt lat="43.4297854" lon="11.5672349"><ele>636.0</ele><time>2026-03-28T13:16:23.334Z</time></trkpt><trkpt lat="43.4298401" lon="11.5673576"><ele>636.0</ele><time>2026-03-28T13:16:25.335Z</time></trkpt><trkpt lat="43.4298889" lon="11.5674177"><ele>636.0</ele><time>2026-03-28T13:16:26.334Z</time></trkpt><trkpt lat="43.4299407" lon="11.5675515"><ele>636.0</ele><time>2026-03-28T13:16:28.335Z</time></trkpt><trkpt lat="43.4299759" lon="11.5676303"><ele>636.0</ele><time>2026-03-28T13:16:29.334Z</time></trkpt><trkpt lat="43.430019" lon="11.5677004"><ele>636.0</ele><time>2026-03-28T13:16:30.335Z</time></trkpt><trkpt lat="43.4300765" lon="11.5678359"><ele>636.0</ele><time>2026-03-28T13:16:32.335Z</time></trkpt><trkpt lat="43.4301516" lon="11.5679654"><ele>636.0</ele><time>2026-03-28T13:16:34.335Z</time></trkpt><trkpt lat="43.4302105" lon="11.5680834"><ele>636.0</ele><time>2026-03-28T13:16:36.335Z</time></trkpt><trkpt lat="43.4302752" lon="11.568198"><ele>634.0</ele><time>2026-03-28T13:16:38.334Z</time></trkpt><trkpt lat="43.4303349" lon="11.5683299"><ele>632.0</ele><time>2026-03-28T13:16:40.335Z</time></trkpt><trkpt lat="43.4303769" lon="11.5684541"><ele>630.0</ele><time>2026-03-28T13:16:42.334Z</time></trkpt><trkpt lat="43.4303992" lon="11.5685433"><ele>628.0</ele><time>2026-03-28T13:16:44.335Z</time></trkpt><trkpt lat="43.4304479" lon="11.5686455"><ele>626.0</ele><time>2026-03-28T13:16:46.335Z</time></trkpt><trkpt lat="43.4305351" lon="11.5687112"><ele>623.5</ele><time>2026-03-28T13:16:48.334Z</time></trkpt><trkpt lat="43.430627" lon="11.5687667"><ele>621.0</ele><time>2026-03-28T13:16:50.334Z</time></trkpt><trkpt lat="43.4307148" lon="11.5688234"><ele>618.5</ele><time>2026-03-28T13:16:52.334Z</time></trkpt><trkpt lat="43.4307982" lon="11.5688723"><ele>616.0</ele><time>2026-03-28T13:16:54.334Z</time></trkpt><trkpt lat="43.4308671" lon="11.568872"><ele>613.5</ele><time>2026-03-28T13:16:55.335Z</time></trkpt><trkpt lat="43.4309335" lon="11.5688749"><ele>611.0</ele><time>2026-03-28T13:16:56.335Z</time></trkpt><trkpt lat="43.4310023" lon="11.5688687"><ele>611.0</ele><time>2026-03-28T13:16:57.335Z</time></trkpt><trkpt lat="43.4310733" lon="11.5688619"><ele>611.0</ele><time>2026-03-28T13:16:58.334Z</time></trkpt><trkpt lat="43.4311426" lon="11.5688478"><ele>611.0</ele><time>2026-03-28T13:16:59.334Z</time></trkpt><trkpt lat="43.431262" lon="11.5688667"><ele>611.0</ele><time>2026-03-28T13:17:01.335Z</time></trkpt><trkpt lat="43.4313645" lon="11.5689316"><ele>611.0</ele><time>2026-03-28T13:17:03.335Z</time></trkpt><trkpt lat="43.4314219" lon="11.5689863"><ele>611.0</ele><time>2026-03-28T13:17:04.335Z</time></trkpt><trkpt lat="43.4314835" lon="11.5690351"><ele>611.8</ele><time>2026-03-28T13:17:05.335Z</time></trkpt><trkpt lat="43.4315388" lon="11.5690915"><ele>612.6</ele><time>2026-03-28T13:17:06.335Z</time></trkpt><trkpt lat="43.4316113" lon="11.5691307"><ele>613.4</ele><time>2026-03-28T13:17:07.335Z</time></trkpt><trkpt lat="43.4316987" lon="11.5691721"><ele>614.2</ele><time>2026-03-28T13:17:08.334Z</time></trkpt><trkpt lat="43.4317863" lon="11.569286"><ele>615.0</ele><time>2026-03-28T13:17:10.335Z</time></trkpt><trkpt lat="43.4318871" lon="11.5693581"><ele>615.0</ele><time>2026-03-28T13:17:12.335Z</time></trkpt><trkpt lat="43.4319475" lon="11.5693914"><ele>615.0</ele><time>2026-03-28T13:17:14.335Z</time></trkpt><trkpt lat="43.4320337" lon="11.5693875"><ele>615.0</ele><time>2026-03-28T13:17:17.335Z</time></trkpt><trkpt lat="43.4321014" lon="11.5693192"><ele>615.0</ele><time>2026-03-28T13:17:19.335Z</time></trkpt><trkpt lat="43.4321948" lon="11.5692851"><ele>615.0</ele><time>2026-03-28T13:17:21.334Z</time></trkpt><trkpt lat="43.4323067" lon="11.5693138"><ele>615.0</ele><time>2026-03-28T13:17:23.335Z</time></trkpt><trkpt lat="43.4323655" lon="11.5693534"><ele>612.6</ele><time>2026-03-28T13:17:24.334Z</time></trkpt><trkpt lat="43.4324226" lon="11.5693953"><ele>610.2</ele><time>2026-03-28T13:17:25.334Z</time></trkpt><trkpt lat="43.4325293" lon="11.5694771"><ele>607.8</ele><time>2026-03-28T13:17:27.335Z</time></trkpt><trkpt lat="43.4326216" lon="11.5695111"><ele>605.4</ele><time>2026-03-28T13:17:29.334Z</time></trkpt><trkpt lat="43.4327334" lon="11.569498"><ele>603.0</ele><time>2026-03-28T13:17:31.334Z</time></trkpt><trkpt lat="43.4328473" lon="11.5695058"><ele>602.0</ele><time>2026-03-28T13:17:33.334Z</time></trkpt><trkpt lat="43.4329547" lon="11.5695867"><ele>601.0</ele><time>2026-03-28T13:17:35.334Z</time></trkpt><trkpt lat="43.4330303" lon="11.5696377"><ele>600.0</ele><time>2026-03-28T13:17:36.334Z</time></trkpt><trkpt lat="43.433118" lon="11.5697292"><ele>599.0</ele><time>2026-03-28T13:17:38.335Z</time></trkpt><trkpt lat="43.4332087" lon="11.5697892"><ele>598.0</ele><time>2026-03-28T13:17:40.335Z</time></trkpt><trkpt lat="43.4333135" lon="11.5697857"><ele>596.8571428571429</ele><time>2026-03-28T13:17:42.335Z</time></trkpt><trkpt lat="43.4333773" lon="11.5697627"><ele>595.7142857142858</ele><time>2026-03-28T13:17:43.335Z</time></trkpt><trkpt lat="43.4334483" lon="11.5697428"><ele>594.5714285714287</ele><time>2026-03-28T13:17:44.334Z</time></trkpt><trkpt lat="43.4335206" lon="11.5697172"><ele>593.4285714285714</ele><time>2026-03-28T13:17:45.335Z</time></trkpt><trkpt lat="43.4335957" lon="11.5696998"><ele>592.2857142857143</ele><time>2026-03-28T13:17:46.335Z</time></trkpt><trkpt lat="43.4336719" lon="11.5697033"><ele>591.1428571428572</ele><time>2026-03-28T13:17:47.334Z</time></trkpt><trkpt lat="43.4337538" lon="11.5697078"><ele>590.0</ele><time>2026-03-28T13:17:48.334Z</time></trkpt><trkpt lat="43.4338333" lon="11.5697196"><ele>590.0</ele><time>2026-03-28T13:17:49.335Z</time></trkpt><trkpt lat="43.433911" lon="11.5697306"><ele>590.0</ele><time>2026-03-28T13:17:50.335Z</time></trkpt><trkpt lat="43.4339883" lon="11.5697488"><ele>590.0</ele><time>2026-03-28T13:17:51.335Z</time></trkpt><trkpt lat="43.4340665" lon="11.5697603"><ele>590.0</ele><time>2026-03-28T13:17:52.335Z</time></trkpt><trkpt lat="43.4341614" lon="11.5697641"><ele>590.0</ele><time>2026-03-28T13:17:53.335Z</time></trkpt><trkpt lat="43.4342505" lon="11.5697732"><ele>590.0</ele><time>2026-03-28T13:17:54.334Z</time></trkpt><trkpt lat="43.4343348" lon="11.5697732"><ele>590.0</ele><time>2026-03-28T13:17:55.335Z</time></trkpt><trkpt lat="43.4344226" lon="11.5697744"><ele>590.0</ele><time>2026-03-28T13:17:56.334Z</time></trkpt><trkpt lat="43.4345038" lon="11.5697626"><ele>590.0</ele><time>2026-03-28T13:17:57.335Z</time></trkpt><trkpt lat="43.4345863" lon="11.5697561"><ele>590.0</ele><time>2026-03-28T13:17:58.335Z</time></trkpt><trkpt lat="43.4346582" lon="11.5697756"><ele>590.0</ele><time>2026-03-28T13:17:59.334Z</time></trkpt><trkpt lat="43.434727" lon="11.5698202"><ele>590.0</ele><time>2026-03-28T13:18:00.335Z</time></trkpt><trkpt lat="43.4347994" lon="11.5698546"><ele>590.3333333333333</ele><time>2026-03-28T13:18:01.334Z</time></trkpt><trkpt lat="43.4348773" lon="11.5699092"><ele>590.6666666666666</ele><time>2026-03-28T13:18:02.335Z</time></trkpt><trkpt lat="43.4349513" lon="11.5699632"><ele>591.0</ele><time>2026-03-28T13:18:03.335Z</time></trkpt><trkpt lat="43.4350337" lon="11.5700401"><ele>591.3333333333334</ele><time>2026-03-28T13:18:04.334Z</time></trkpt><trkpt lat="43.4351047" lon="11.5701085"><ele>591.6666666666667</ele><time>2026-03-28T13:18:05.335Z</time></trkpt><trkpt lat="43.4351712" lon="11.5701829"><ele>592.0</ele><time>2026-03-28T13:18:06.334Z</time></trkpt><trkpt lat="43.4352296" lon="11.5702554"><ele>592.0</ele><time>2026-03-28T13:18:07.335Z</time></trkpt><trkpt lat="43.4352764" lon="11.5703175"><ele>592.0</ele><time>2026-03-28T13:18:08.334Z</time></trkpt><trkpt lat="43.4353486" lon="11.5704011"><ele>592.0</ele><time>2026-03-28T13:18:10.335Z</time></trkpt><trkpt lat="43.4354246" lon="11.5704801"><ele>592.0</ele><time>2026-03-28T13:18:12.335Z</time></trkpt><trkpt lat="43.4354873" lon="11.5705583"><ele>592.0</ele><time>2026-03-28T13:18:14.334Z</time></trkpt><trkpt lat="43.4355538" lon="11.5706284"><ele>592.0</ele><time>2026-03-28T13:18:16.335Z</time></trkpt><trkpt lat="43.4356224" lon="11.5706938"><ele>590.4</ele><time>2026-03-28T13:18:18.335Z</time></trkpt><trkpt lat="43.4357288" lon="11.5707643"><ele>588.8000000000001</ele><time>2026-03-28T13:18:20.335Z</time></trkpt><trkpt lat="43.4358354" lon="11.5708304"><ele>587.2</ele><time>2026-03-28T13:18:22.334Z</time></trkpt><trkpt lat="43.4359522" lon="11.5708502"><ele>585.6</ele><time>2026-03-28T13:18:24.335Z</time></trkpt><trkpt lat="43.4360184" lon="11.5708604"><ele>584.0</ele><time>2026-03-28T13:18:25.335Z</time></trkpt><trkpt lat="43.4360803" lon="11.5708772"><ele>584.0</ele><time>2026-03-28T13:18:26.335Z</time></trkpt><trkpt lat="43.4361493" lon="11.5709"><ele>584.0</ele><time>2026-03-28T13:18:27.335Z</time></trkpt><trkpt lat="43.4362427" lon="11.5709884"><ele>584.0</ele><time>2026-03-28T13:18:29.335Z</time></trkpt><trkpt lat="43.4363114" lon="11.5710886"><ele>584.0</ele><time>2026-03-28T13:18:31.334Z</time></trkpt><trkpt lat="43.4363738" lon="11.5712458"><ele>584.0</ele><time>2026-03-28T13:18:33.334Z</time></trkpt><trkpt lat="43.4363992" lon="11.5713289"><ele>583.8333333333333</ele><time>2026-03-28T13:18:34.335Z</time></trkpt><trkpt lat="43.4364244" lon="11.571418"><ele>583.6666666666666</ele><time>2026-03-28T13:18:35.335Z</time></trkpt><trkpt lat="43.4364468" lon="11.5715007"><ele>583.5</ele><time>2026-03-28T13:18:36.335Z</time></trkpt><trkpt lat="43.4364683" lon="11.5716135"><ele>583.3333333333334</ele><time>2026-03-28T13:18:37.335Z</time></trkpt><trkpt lat="43.4364863" lon="11.5717699"><ele>583.1666666666667</ele><time>2026-03-28T13:18:39.334Z</time></trkpt><trkpt lat="43.4365352" lon="11.5719096"><ele>583.0</ele><time>2026-03-28T13:18:41.335Z</time></trkpt><trkpt lat="43.4365728" lon="11.5719979"><ele>579.4</ele><time>2026-03-28T13:18:42.335Z</time></trkpt><trkpt lat="43.4366428" lon="11.5721148"><ele>575.8</ele><time>2026-03-28T13:18:44.334Z</time></trkpt><trkpt lat="43.4367179" lon="11.5722318"><ele>572.2</ele><time>2026-03-28T13:18:46.335Z</time></trkpt><trkpt lat="43.4367489" lon="11.5723239"><ele>568.6</ele><time>2026-03-28T13:18:47.335Z</time></trkpt><trkpt lat="43.4367758" lon="11.5724587"><ele>565.0</ele><time>2026-03-28T13:18:48.334Z</time></trkpt><trkpt lat="43.4368159" lon="11.57256"><ele>565.0</ele><time>2026-03-28T13:18:49.335Z</time></trkpt><trkpt lat="43.4368603" lon="11.5726655"><ele>565.0</ele><time>2026-03-28T13:18:50.335Z</time></trkpt><trkpt lat="43.4369086" lon="11.5727732"><ele>565.0</ele><time>2026-03-28T13:18:51.334Z</time></trkpt><trkpt lat="43.4369471" lon="11.5728737"><ele>565.0</ele><time>2026-03-28T13:18:52.335Z</time></trkpt><trkpt lat="43.4369733" lon="11.572964"><ele>565.0</ele><time>2026-03-28T13:18:53.334Z</time></trkpt><trkpt lat="43.4369931" lon="11.573061"><ele>565.0</ele><time>2026-03-28T13:18:54.335Z</time></trkpt><trkpt lat="43.4370078" lon="11.5731582"><ele>562.0</ele><time>2026-03-28T13:18:55.335Z</time></trkpt><trkpt lat="43.4370382" lon="11.5733098"><ele>559.0</ele><time>2026-03-28T13:18:57.335Z</time></trkpt><trkpt lat="43.4370908" lon="11.5734307"><ele>556.0</ele><time>2026-03-28T13:18:59.335Z</time></trkpt><trkpt lat="43.4371452" lon="11.5734881"><ele>553.0</ele><time>2026-03-28T13:19:00.334Z</time></trkpt><trkpt lat="43.4372016" lon="11.573548"><ele>550.0</ele><time>2026-03-28T13:19:01.335Z</time></trkpt><trkpt lat="43.4372794" lon="11.5736213"><ele>551.3333333333334</ele><time>2026-03-28T13:19:02.334Z</time></trkpt><trkpt lat="43.4373552" lon="11.573681"><ele>552.6666666666667</ele><time>2026-03-28T13:19:03.335Z</time></trkpt><trkpt lat="43.4374307" lon="11.5737439"><ele>554.0</ele><time>2026-03-28T13:19:04.335Z</time></trkpt><trkpt lat="43.4374941" lon="11.5738165"><ele>555.3333333333334</ele><time>2026-03-28T13:19:05.334Z</time></trkpt><trkpt lat="43.4375582" lon="11.5738801"><ele>556.6666666666666</ele><time>2026-03-28T13:19:06.334Z</time></trkpt><trkpt lat="43.4376003" lon="11.5739526"><ele>558.0</ele><time>2026-03-28T13:19:07.334Z</time></trkpt><trkpt lat="43.4376455" lon="11.5740141"><ele>558.0</ele><time>2026-03-28T13:19:08.334Z</time></trkpt><trkpt lat="43.4376617" lon="11.5741648"><ele>558.0</ele><time>2026-03-28T13:19:10.334Z</time></trkpt><trkpt lat="43.4376834" lon="11.5743375"><ele>558.0</ele><time>2026-03-28T13:19:12.335Z</time></trkpt><trkpt lat="43.4376967" lon="11.574424"><ele>558.0</ele><time>2026-03-28T13:19:13.335Z</time></trkpt><trkpt lat="43.4377043" lon="11.5745767"><ele>558.0</ele><time>2026-03-28T13:19:15.334Z</time></trkpt><trkpt lat="43.4377367" lon="11.5747166"><ele>559.4</ele><time>2026-03-28T13:19:17.334Z</time></trkpt><trkpt lat="43.4377702" lon="11.5747916"><ele>560.8</ele><time>2026-03-28T13:19:18.334Z</time></trkpt><trkpt lat="43.4378559" lon="11.5748793"><ele>562.2</ele><time>2026-03-28T13:19:20.334Z</time></trkpt><trkpt lat="43.4379852" lon="11.5749109"><ele>563.6</ele><time>2026-03-28T13:19:22.335Z</time></trkpt><trkpt lat="43.4380646" lon="11.5749494"><ele>565.0</ele><time>2026-03-28T13:19:23.335Z</time></trkpt><trkpt lat="43.4381375" lon="11.5749972"><ele>565.0</ele><time>2026-03-28T13:19:24.335Z</time></trkpt><trkpt lat="43.4382153" lon="11.5750744"><ele>565.0</ele><time>2026-03-28T13:19:25.334Z</time></trkpt><trkpt lat="43.4382841" lon="11.575165"><ele>565.0</ele><time>2026-03-28T13:19:26.334Z</time></trkpt><trkpt lat="43.4383168" lon="11.575264"><ele>565.0</ele><time>2026-03-28T13:19:27.335Z</time></trkpt><trkpt lat="43.4383685" lon="11.5753607"><ele>565.0</ele><time>2026-03-28T13:19:28.335Z</time></trkpt><trkpt lat="43.4384262" lon="11.5754527"><ele>565.0</ele><time>2026-03-28T13:19:29.335Z</time></trkpt><trkpt lat="43.43847" lon="11.5755591"><ele>561.2</ele><time>2026-03-28T13:19:30.335Z</time></trkpt><trkpt lat="43.4385086" lon="11.5756598"><ele>557.4</ele><time>2026-03-28T13:19:31.335Z</time></trkpt><trkpt lat="43.4385381" lon="11.5757536"><ele>553.6</ele><time>2026-03-28T13:19:32.335Z</time></trkpt><trkpt lat="43.4385633" lon="11.5759254"><ele>549.8</ele><time>2026-03-28T13:19:34.335Z</time></trkpt><trkpt lat="43.4385172" lon="11.576066"><ele>546.0</ele><time>2026-03-28T13:19:36.335Z</time></trkpt><trkpt lat="43.4385297" lon="11.5761932"><ele>545.3333333333334</ele><time>2026-03-28T13:19:38.335Z</time></trkpt><trkpt lat="43.4385616" lon="11.5763478"><ele>544.6666666666666</ele><time>2026-03-28T13:19:40.335Z</time></trkpt><trkpt lat="43.4386093" lon="11.5764208"><ele>544.0</ele><time>2026-03-28T13:19:41.335Z</time></trkpt><trkpt lat="43.4386573" lon="11.5764944"><ele>543.3333333333333</ele><time>2026-03-28T13:19:42.334Z</time></trkpt><trkpt lat="43.4387112" lon="11.5765828"><ele>542.6666666666666</ele><time>2026-03-28T13:19:43.335Z</time></trkpt><trkpt lat="43.4387547" lon="11.5766701"><ele>542.0</ele><time>2026-03-28T13:19:44.335Z</time></trkpt><trkpt lat="43.43881" lon="11.57676"><ele>542.0</ele><time>2026-03-28T13:19:45.335Z</time></trkpt><trkpt lat="43.4388742" lon="11.5768583"><ele>542.0</ele><time>2026-03-28T13:19:46.335Z</time></trkpt><trkpt lat="43.4389259" lon="11.5769576"><ele>542.0</ele><time>2026-03-28T13:19:47.335Z</time></trkpt><trkpt lat="43.4389792" lon="11.5770482"><ele>542.0</ele><time>2026-03-28T13:19:48.334Z</time></trkpt><trkpt lat="43.4390383" lon="11.5771438"><ele>542.0</ele><time>2026-03-28T13:19:49.335Z</time></trkpt><trkpt lat="43.4390902" lon="11.5772335"><ele>542.0</ele><time>2026-03-28T13:19:50.334Z</time></trkpt><trkpt lat="43.4391329" lon="11.5773096"><ele>539.5</ele><time>2026-03-28T13:19:51.335Z</time></trkpt><trkpt lat="43.4391671" lon="11.5773864"><ele>537.0</ele><time>2026-03-28T13:19:52.335Z</time></trkpt><trkpt lat="43.439173" lon="11.5775119"><ele>534.5</ele><time>2026-03-28T13:19:54.335Z</time></trkpt><trkpt lat="43.4391528" lon="11.5776318"><ele>532.0</ele><time>2026-03-28T13:19:56.335Z</time></trkpt><trkpt lat="43.4391474" lon="11.577741"><ele>529.5</ele><time>2026-03-28T13:19:58.334Z</time></trkpt><trkpt lat="43.4391464" lon="11.5778775"><ele>527.0</ele><time>2026-03-28T13:20:00.335Z</time></trkpt><trkpt lat="43.4391522" lon="11.5779704"><ele>526.4</ele><time>2026-03-28T13:20:01.335Z</time></trkpt><trkpt lat="43.43916" lon="11.5780568"><ele>525.8000000000001</ele><time>2026-03-28T13:20:02.335Z</time></trkpt><trkpt lat="43.4391596" lon="11.5782216"><ele>525.2</ele><time>2026-03-28T13:20:04.335Z</time></trkpt><trkpt lat="43.4391393" lon="11.5783676"><ele>524.6</ele><time>2026-03-28T13:20:06.335Z</time></trkpt><trkpt lat="43.4391262" lon="11.5785107"><ele>524.0</ele><time>2026-03-28T13:20:08.335Z</time></trkpt><trkpt lat="43.4391626" lon="11.5786488"><ele>524.3333333333333</ele><time>2026-03-28T13:20:10.335Z</time></trkpt><trkpt lat="43.4392198" lon="11.5787484"><ele>524.6666666666666</ele><time>2026-03-28T13:20:12.334Z</time></trkpt><trkpt lat="43.4392567" lon="11.5788599"><ele>525.0</ele><time>2026-03-28T13:20:14.335Z</time></trkpt><trkpt lat="43.4392712" lon="11.579012"><ele>525.3333333333334</ele><time>2026-03-28T13:20:16.334Z</time></trkpt><trkpt lat="43.439265" lon="11.5791134"><ele>525.6666666666667</ele><time>2026-03-28T13:20:17.335Z</time></trkpt><trkpt lat="43.4392631" lon="11.5792195"><ele>526.0</ele><time>2026-03-28T13:20:18.335Z</time></trkpt><trkpt lat="43.4392808" lon="11.5793371"><ele>526.0</ele><time>2026-03-28T13:20:19.335Z</time></trkpt><trkpt lat="43.4392986" lon="11.5794382"><ele>526.0</ele><time>2026-03-28T13:20:20.335Z</time></trkpt><trkpt lat="43.4393504" lon="11.5795249"><ele>526.0</ele><time>2026-03-28T13:20:21.335Z</time></trkpt><trkpt lat="43.4393988" lon="11.5796111"><ele>526.0</ele><time>2026-03-28T13:20:22.335Z</time></trkpt><trkpt lat="43.4394511" lon="11.5796962"><ele>526.0</ele><time>2026-03-28T13:20:23.335Z</time></trkpt><trkpt lat="43.4395047" lon="11.5797662"><ele>526.0</ele><time>2026-03-28T13:20:24.335Z</time></trkpt><trkpt lat="43.439558" lon="11.5798348"><ele>525.3333333333334</ele><time>2026-03-28T13:20:25.334Z</time></trkpt><trkpt lat="43.4396174" lon="11.5798903"><ele>524.6666666666667</ele><time>2026-03-28T13:20:26.335Z</time></trkpt><trkpt lat="43.4396825" lon="11.5799371"><ele>524.0</ele><time>2026-03-28T13:20:27.335Z</time></trkpt><trkpt lat="43.4397471" lon="11.579984"><ele>523.3333333333334</ele><time>2026-03-28T13:20:28.335Z</time></trkpt><trkpt lat="43.439816" lon="11.5800257"><ele>522.6666666666666</ele><time>2026-03-28T13:20:29.335Z</time></trkpt><trkpt lat="43.4398876" lon="11.5800618"><ele>522.0</ele><time>2026-03-28T13:20:30.335Z</time></trkpt><trkpt lat="43.4399611" lon="11.580111"><ele>521.1666666666666</ele><time>2026-03-28T13:20:31.335Z</time></trkpt><trkpt lat="43.4400372" lon="11.5801543"><ele>520.3333333333334</ele><time>2026-03-28T13:20:32.335Z</time></trkpt><trkpt lat="43.4401107" lon="11.5802057"><ele>519.5</ele><time>2026-03-28T13:20:33.334Z</time></trkpt><trkpt lat="43.4401726" lon="11.5802641"><ele>518.6666666666667</ele><time>2026-03-28T13:20:34.335Z</time></trkpt><trkpt lat="43.4402428" lon="11.5803215"><ele>517.8333333333334</ele><time>2026-03-28T13:20:35.334Z</time></trkpt><trkpt lat="43.4403108" lon="11.580369"><ele>517.0</ele><time>2026-03-28T13:20:36.334Z</time></trkpt><trkpt lat="43.4403779" lon="11.5804151"><ele>516.5</ele><time>2026-03-28T13:20:37.335Z</time></trkpt><trkpt lat="43.4404353" lon="11.5804727"><ele>516.0</ele><time>2026-03-28T13:20:38.335Z</time></trkpt><trkpt lat="43.4404948" lon="11.5805509"><ele>515.5</ele><time>2026-03-28T13:20:39.335Z</time></trkpt><trkpt lat="43.4405475" lon="11.5806387"><ele>515.0</ele><time>2026-03-28T13:20:40.334Z</time></trkpt><trkpt lat="43.4406066" lon="11.5807259"><ele>514.5</ele><time>2026-03-28T13:20:41.334Z</time></trkpt><trkpt lat="43.4406722" lon="11.5808176"><ele>514.0</ele><time>2026-03-28T13:20:42.334Z</time></trkpt><trkpt lat="43.4407291" lon="11.5808933"><ele>511.6666666666667</ele><time>2026-03-28T13:20:43.335Z</time></trkpt><trkpt lat="43.4407969" lon="11.5809608"><ele>509.33333333333337</ele><time>2026-03-28T13:20:44.335Z</time></trkpt><trkpt lat="43.4408484" lon="11.5810164"><ele>507.0</ele><time>2026-03-28T13:20:45.335Z</time></trkpt><trkpt lat="43.4409085" lon="11.58107"><ele>504.66666666666663</ele><time>2026-03-28T13:20:46.334Z</time></trkpt><trkpt lat="43.4409665" lon="11.5811103"><ele>502.3333333333333</ele><time>2026-03-28T13:20:47.335Z</time></trkpt><trkpt lat="43.4410384" lon="11.5812336"><ele>500.0</ele><time>2026-03-28T13:20:49.334Z</time></trkpt><trkpt lat="43.4410241" lon="11.58132"><ele>499.71428571428567</ele><time>2026-03-28T13:20:50.335Z</time></trkpt><trkpt lat="43.4410219" lon="11.5814143"><ele>499.42857142857144</ele><time>2026-03-28T13:20:51.334Z</time></trkpt><trkpt lat="43.441031" lon="11.581508"><ele>499.1428571428571</ele><time>2026-03-28T13:20:52.335Z</time></trkpt><trkpt lat="43.4410383" lon="11.5816058"><ele>498.85714285714283</ele><time>2026-03-28T13:20:53.335Z</time></trkpt><trkpt lat="43.4410495" lon="11.5817072"><ele>498.57142857142856</ele><time>2026-03-28T13:20:54.334Z</time></trkpt><trkpt lat="43.4410652" lon="11.5818113"><ele>498.2857142857143</ele><time>2026-03-28T13:20:55.334Z</time></trkpt><trkpt lat="43.4410769" lon="11.5819117"><ele>498.0</ele><time>2026-03-28T13:20:56.335Z</time></trkpt><trkpt lat="43.4410957" lon="11.5820011"><ele>496.6666666666667</ele><time>2026-03-28T13:20:57.335Z</time></trkpt><trkpt lat="43.4410995" lon="11.5820903"><ele>495.33333333333337</ele><time>2026-03-28T13:20:58.334Z</time></trkpt><trkpt lat="43.4410655" lon="11.5822436"><ele>494.0</ele><time>2026-03-28T13:21:00.335Z</time></trkpt><trkpt lat="43.441058" lon="11.5823435"><ele>492.6666666666667</ele><time>2026-03-28T13:21:01.334Z</time></trkpt><trkpt lat="43.4410606" lon="11.582446"><ele>491.33333333333337</ele><time>2026-03-28T13:21:02.335Z</time></trkpt><trkpt lat="43.4410739" lon="11.5825553"><ele>490.0</ele><time>2026-03-28T13:21:03.335Z</time></trkpt><trkpt lat="43.4410977" lon="11.5826603"><ele>490.00000000000006</ele><time>2026-03-28T13:21:04.335Z</time></trkpt><trkpt lat="43.4411169" lon="11.5827622"><ele>490.0</ele><time>2026-03-28T13:21:05.334Z</time></trkpt><trkpt lat="43.4411337" lon="11.582874"><ele>490.0</ele><time>2026-03-28T13:21:06.334Z</time></trkpt><trkpt lat="43.4411532" lon="11.5829611"><ele>490.0</ele><time>2026-03-28T13:21:07.334Z</time></trkpt><trkpt lat="43.4412183" lon="11.5830931"><ele>490.00000000000006</ele><time>2026-03-28T13:21:09.335Z</time></trkpt><trkpt lat="43.4412754" lon="11.5831918"><ele>490.0</ele><time>2026-03-28T13:21:11.335Z</time></trkpt><trkpt lat="43.4412615" lon="11.583286"><ele>487.6666666666667</ele><time>2026-03-28T13:21:13.335Z</time></trkpt><trkpt lat="43.4411583" lon="11.5832851"><ele>485.33333333333337</ele><time>2026-03-28T13:21:16.335Z</time></trkpt><trkpt lat="43.4410639" lon="11.5832071"><ele>483.0</ele><time>2026-03-28T13:21:18.335Z</time></trkpt><trkpt lat="43.4409939" lon="11.5831088"><ele>480.66666666666663</ele><time>2026-03-28T13:21:20.335Z</time></trkpt><trkpt lat="43.4409358" lon="11.5830652"><ele>478.3333333333333</ele><time>2026-03-28T13:21:22.335Z</time></trkpt><trkpt lat="43.4409208" lon="11.5831504"><ele>476.0</ele><time>2026-03-28T13:21:26.335Z</time></trkpt><trkpt lat="43.4409756" lon="11.583241"><ele>476.0</ele><time>2026-03-28T13:21:28.335Z</time></trkpt><trkpt lat="43.4410728" lon="11.583348"><ele>476.0</ele><time>2026-03-28T13:21:30.334Z</time></trkpt><trkpt lat="43.441185" lon="11.5834297"><ele>476.0</ele><time>2026-03-28T13:21:32.335Z</time></trkpt><trkpt lat="43.4412543" lon="11.5834613"><ele>476.0</ele><time>2026-03-28T13:21:33.335Z</time></trkpt><trkpt lat="43.4413226" lon="11.5834813"><ele>476.0</ele><time>2026-03-28T13:21:34.334Z</time></trkpt><trkpt lat="43.4413934" lon="11.5835117"><ele>477.8</ele><time>2026-03-28T13:21:35.335Z</time></trkpt><trkpt lat="43.4415002" lon="11.5835204"><ele>479.6</ele><time>2026-03-28T13:21:37.335Z</time></trkpt><trkpt lat="43.4416011" lon="11.5834742"><ele>481.4</ele><time>2026-03-28T13:21:39.334Z</time></trkpt><trkpt lat="43.4417131" lon="11.5834084"><ele>483.2</ele><time>2026-03-28T13:21:41.335Z</time></trkpt><trkpt lat="43.4417818" lon="11.5833781"><ele>485.0</ele><time>2026-03-28T13:21:42.334Z</time></trkpt><trkpt lat="43.4418477" lon="11.5833478"><ele>485.00000000000006</ele><time>2026-03-28T13:21:43.334Z</time></trkpt><trkpt lat="43.4419125" lon="11.5833413"><ele>485.0</ele><time>2026-03-28T13:21:44.334Z</time></trkpt><trkpt lat="43.4419866" lon="11.583352"><ele>485.00000000000006</ele><time>2026-03-28T13:21:45.334Z</time></trkpt><trkpt lat="43.4420533" lon="11.5833891"><ele>485.00000000000006</ele><time>2026-03-28T13:21:46.335Z</time></trkpt><trkpt lat="43.4421248" lon="11.5834363"><ele>485.0</ele><time>2026-03-28T13:21:47.335Z</time></trkpt><trkpt lat="43.4421799" lon="11.58349"><ele>485.00000000000006</ele><time>2026-03-28T13:21:48.335Z</time></trkpt><trkpt lat="43.4422456" lon="11.5835639"><ele>485.00000000000006</ele><time>2026-03-28T13:21:50.335Z</time></trkpt><trkpt lat="43.4423057" lon="11.5836142"><ele>486.16666666666663</ele><time>2026-03-28T13:21:52.335Z</time></trkpt><trkpt lat="43.4424087" lon="11.583646"><ele>487.3333333333333</ele><time>2026-03-28T13:21:54.335Z</time></trkpt><trkpt lat="43.442504" lon="11.5836263"><ele>488.5</ele><time>2026-03-28T13:21:56.334Z</time></trkpt><trkpt lat="43.4425654" lon="11.5835976"><ele>489.66666666666663</ele><time>2026-03-28T13:21:57.335Z</time></trkpt><trkpt lat="43.4426277" lon="11.583572"><ele>490.8333333333333</ele><time>2026-03-28T13:21:58.335Z</time></trkpt><trkpt lat="43.4426959" lon="11.583557"><ele>492.0</ele><time>2026-03-28T13:21:59.335Z</time></trkpt><trkpt lat="43.4427661" lon="11.5835607"><ele>492.0</ele><time>2026-03-28T13:22:00.335Z</time></trkpt><trkpt lat="43.4428335" lon="11.583573"><ele>492.00000000000006</ele><time>2026-03-28T13:22:01.335Z</time></trkpt><trkpt lat="43.4429441" lon="11.583617"><ele>492.00000000000006</ele><time>2026-03-28T13:22:03.334Z</time></trkpt><trkpt lat="43.4430431" lon="11.5836285"><ele>492.0</ele><time>2026-03-28T13:22:05.335Z</time></trkpt><trkpt lat="43.4431692" lon="11.5836389"><ele>492.0</ele><time>2026-03-28T13:22:07.335Z</time></trkpt><trkpt lat="43.4432388" lon="11.583638"><ele>493.0</ele><time>2026-03-28T13:22:08.335Z</time></trkpt><trkpt lat="43.443307" lon="11.5836332"><ele>494.0</ele><time>2026-03-28T13:22:09.334Z</time></trkpt><trkpt lat="43.4433879" lon="11.5836196"><ele>495.0</ele><time>2026-03-28T13:22:10.335Z</time></trkpt><trkpt lat="43.4434577" lon="11.5835988"><ele>496.0</ele><time>2026-03-28T13:22:11.335Z</time></trkpt><trkpt lat="43.443589" lon="11.58357"><ele>497.0</ele><time>2026-03-28T13:22:13.335Z</time></trkpt><trkpt lat="43.4436656" lon="11.583575"><ele>498.0</ele><time>2026-03-28T13:22:14.335Z</time></trkpt><trkpt lat="43.4437322" lon="11.5835868"><ele>498.0</ele><time>2026-03-28T13:22:15.335Z</time></trkpt><trkpt lat="43.4437937" lon="11.583607"><ele>498.0</ele><time>2026-03-28T13:22:16.334Z</time></trkpt><trkpt lat="43.4438578" lon="11.5836284"><ele>498.0</ele><time>2026-03-28T13:22:17.334Z</time></trkpt><trkpt lat="43.4439742" lon="11.5836062"><ele>498.0</ele><time>2026-03-28T13:22:19.335Z</time></trkpt><trkpt lat="43.4440508" lon="11.5835883"><ele>498.0</ele><time>2026-03-28T13:22:20.335Z</time></trkpt><trkpt lat="43.4441244" lon="11.5835744"><ele>498.0</ele><time>2026-03-28T13:22:21.335Z</time></trkpt><trkpt lat="43.4442091" lon="11.5835751"><ele>497.3333333333333</ele><time>2026-03-28T13:22:22.334Z</time></trkpt><trkpt lat="43.4442906" lon="11.5835931"><ele>496.66666666666663</ele><time>2026-03-28T13:22:23.334Z</time></trkpt><trkpt lat="43.4443585" lon="11.5836115"><ele>496.0</ele><time>2026-03-28T13:22:24.335Z</time></trkpt><trkpt lat="43.4444284" lon="11.5836203"><ele>495.3333333333333</ele><time>2026-03-28T13:22:25.334Z</time></trkpt><trkpt lat="43.4444975" lon="11.5836274"><ele>494.66666666666663</ele><time>2026-03-28T13:22:26.335Z</time></trkpt><trkpt lat="43.4446189" lon="11.5836188"><ele>494.0</ele><time>2026-03-28T13:22:28.334Z</time></trkpt><trkpt lat="43.4447299" lon="11.5835413"><ele>491.75</ele><time>2026-03-28T13:22:30.335Z</time></trkpt><trkpt lat="43.444853" lon="11.5834536"><ele>489.5</ele><time>2026-03-28T13:22:32.335Z</time></trkpt><trkpt lat="43.4449648" lon="11.5833746"><ele>487.25</ele><time>2026-03-28T13:22:34.335Z</time></trkpt><trkpt lat="43.4450557" lon="11.5832921"><ele>485.0</ele><time>2026-03-28T13:22:36.335Z</time></trkpt><trkpt lat="43.4451444" lon="11.5832012"><ele>485.0</ele><time>2026-03-28T13:22:38.335Z</time></trkpt><trkpt lat="43.4452316" lon="11.5831478"><ele>485.0</ele><time>2026-03-28T13:22:40.335Z</time></trkpt><trkpt lat="43.4453135" lon="11.5831438"><ele>485.0</ele><time>2026-03-28T13:22:42.335Z</time></trkpt><trkpt lat="43.4453971" lon="11.5832205"><ele>485.0</ele><time>2026-03-28T13:22:44.335Z</time></trkpt><trkpt lat="43.445448" lon="11.5832814"><ele>485.0</ele><time>2026-03-28T13:22:45.334Z</time></trkpt><trkpt lat="43.4455557" lon="11.583384"><ele>485.49999999999994</ele><time>2026-03-28T13:22:47.334Z</time></trkpt><trkpt lat="43.4456156" lon="11.583444"><ele>486.0</ele><time>2026-03-28T13:22:48.334Z</time></trkpt><trkpt lat="43.4457269" lon="11.583517"><ele>486.5</ele><time>2026-03-28T13:22:50.335Z</time></trkpt><trkpt lat="43.445789" lon="11.5835478"><ele>487.0</ele><time>2026-03-28T13:22:51.334Z</time></trkpt><trkpt lat="43.4458444" lon="11.5835908"><ele>487.49999999999994</ele><time>2026-03-28T13:22:52.335Z</time></trkpt><trkpt lat="43.4459551" lon="11.583648"><ele>488.0</ele><time>2026-03-28T13:22:54.334Z</time></trkpt><trkpt lat="43.44603" lon="11.5836796"><ele>486.0</ele><time>2026-03-28T13:22:55.335Z</time></trkpt><trkpt lat="43.4460909" lon="11.5837078"><ele>483.99999999999994</ele><time>2026-03-28T13:22:56.334Z</time></trkpt><trkpt lat="43.4461544" lon="11.5837325"><ele>481.99999999999994</ele><time>2026-03-28T13:22:57.334Z</time></trkpt><trkpt lat="43.4462574" lon="11.5838004"><ele>480.0</ele><time>2026-03-28T13:22:59.335Z</time></trkpt><trkpt lat="43.4463656" lon="11.5838626"><ele>478.0</ele><time>2026-03-28T13:23:01.335Z</time></trkpt><trkpt lat="43.4464769" lon="11.5839174"><ele>478.0</ele><time>2026-03-28T13:23:03.334Z</time></trkpt><trkpt lat="43.4466058" lon="11.5839234"><ele>477.99999999999994</ele><time>2026-03-28T13:23:05.334Z</time></trkpt><trkpt lat="43.4467118" lon="11.5838758"><ele>477.99999999999994</ele><time>2026-03-28T13:23:07.335Z</time></trkpt><trkpt lat="43.4468054" lon="11.5838376"><ele>478.0</ele><time>2026-03-28T13:23:09.335Z</time></trkpt><trkpt lat="43.4468978" lon="11.5838455"><ele>478.0</ele><time>2026-03-28T13:23:11.335Z</time></trkpt><trkpt lat="43.4469909" lon="11.5838459"><ele>478.00000000000006</ele><time>2026-03-28T13:23:13.335Z</time></trkpt><trkpt lat="43.4470803" lon="11.5838217"><ele>478.0</ele><time>2026-03-28T13:23:15.334Z</time></trkpt><trkpt lat="43.4471513" lon="11.5837682"><ele>478.0</ele><time>2026-03-28T13:23:17.334Z</time></trkpt><trkpt lat="43.447217" lon="11.58373"><ele>478.0</ele><time>2026-03-28T13:23:19.335Z</time></trkpt><trkpt lat="43.4472978" lon="11.5836771"><ele>478.00000000000006</ele><time>2026-03-28T13:23:21.335Z</time></trkpt><trkpt lat="43.4473901" lon="11.5836158"><ele>478.0</ele><time>2026-03-28T13:23:23.334Z</time></trkpt><trkpt lat="43.4474563" lon="11.5835908"><ele>480.33333333333337</ele><time>2026-03-28T13:23:24.334Z</time></trkpt><trkpt lat="43.4475248" lon="11.5835691"><ele>482.6666666666667</ele><time>2026-03-28T13:23:25.335Z</time></trkpt><trkpt lat="43.4475902" lon="11.5835562"><ele>485.0</ele><time>2026-03-28T13:23:26.335Z</time></trkpt><trkpt lat="43.4476582" lon="11.5835603"><ele>487.33333333333337</ele><time>2026-03-28T13:23:27.335Z</time></trkpt><trkpt lat="43.4477711" lon="11.5835486"><ele>489.6666666666667</ele><time>2026-03-28T13:23:29.335Z</time></trkpt><trkpt lat="43.4478405" lon="11.5834862"><ele>492.0</ele><time>2026-03-28T13:23:31.335Z</time></trkpt><trkpt lat="43.4479266" lon="11.583426"><ele>489.6</ele><time>2026-03-28T13:23:33.335Z</time></trkpt><trkpt lat="43.4480158" lon="11.5833758"><ele>487.20000000000005</ele><time>2026-03-28T13:23:35.334Z</time></trkpt><trkpt lat="43.4481063" lon="11.5833169"><ele>484.8</ele><time>2026-03-28T13:23:37.335Z</time></trkpt><trkpt lat="43.4481849" lon="11.5832634"><ele>482.4</ele><time>2026-03-28T13:23:39.335Z</time></trkpt><trkpt lat="43.4482657" lon="11.5832344"><ele>480.0</ele><time>2026-03-28T13:23:41.335Z</time></trkpt><trkpt lat="43.4483527" lon="11.5832243"><ele>480.0</ele><time>2026-03-28T13:23:43.335Z</time></trkpt><trkpt lat="43.44844" lon="11.5832196"><ele>480.0</ele><time>2026-03-28T13:23:45.335Z</time></trkpt><trkpt lat="43.4485095" lon="11.5832123"><ele>480.0</ele><time>2026-03-28T13:23:47.335Z</time></trkpt><trkpt lat="43.4485772" lon="11.5831871"><ele>480.0</ele><time>2026-03-28T13:23:49.334Z</time></trkpt><trkpt lat="43.448649" lon="11.5831303"><ele>480.0</ele><time>2026-03-28T13:23:51.334Z</time></trkpt><trkpt lat="43.4487106" lon="11.5830946"><ele>480.0</ele><time>2026-03-28T13:23:53.335Z</time></trkpt><trkpt lat="43.4488016" lon="11.5831038"><ele>477.2</ele><time>2026-03-28T13:23:56.335Z</time></trkpt><trkpt lat="43.4489137" lon="11.5830657"><ele>474.4</ele><time>2026-03-28T13:23:58.334Z</time></trkpt><trkpt lat="43.4490028" lon="11.5829931"><ele>471.6</ele><time>2026-03-28T13:24:00.335Z</time></trkpt><trkpt lat="43.4490872" lon="11.5829706"><ele>468.8</ele><time>2026-03-28T13:24:02.335Z</time></trkpt><trkpt lat="43.4491733" lon="11.5829574"><ele>466.0</ele><time>2026-03-28T13:24:04.335Z</time></trkpt><trkpt lat="43.4492217" lon="11.5828607"><ele>466.14285714285717</ele><time>2026-03-28T13:24:06.335Z</time></trkpt><trkpt lat="43.4492265" lon="11.5827621"><ele>466.2857142857142</ele><time>2026-03-28T13:24:07.335Z</time></trkpt><trkpt lat="43.4492543" lon="11.5826537"><ele>466.4285714285714</ele><time>2026-03-28T13:24:08.335Z</time></trkpt><trkpt lat="43.4492837" lon="11.5825638"><ele>466.57142857142856</ele><time>2026-03-28T13:24:09.335Z</time></trkpt><trkpt lat="43.4493193" lon="11.5824702"><ele>466.71428571428567</ele><time>2026-03-28T13:24:10.335Z</time></trkpt><trkpt lat="43.4493569" lon="11.5823867"><ele>466.8571428571428</ele><time>2026-03-28T13:24:11.334Z</time></trkpt><trkpt lat="43.4493978" lon="11.5823097"><ele>466.99999999999994</ele><time>2026-03-28T13:24:12.334Z</time></trkpt><trkpt lat="43.4494559" lon="11.5822371"><ele>466.99999999999994</ele><time>2026-03-28T13:24:13.335Z</time></trkpt><trkpt lat="43.4495281" lon="11.5821741"><ele>467.0</ele><time>2026-03-28T13:24:14.335Z</time></trkpt><trkpt lat="43.4496035" lon="11.5821202"><ele>467.0</ele><time>2026-03-28T13:24:15.335Z</time></trkpt><trkpt lat="43.4496706" lon="11.5820715"><ele>467.0</ele><time>2026-03-28T13:24:16.335Z</time></trkpt><trkpt lat="43.4497504" lon="11.582003"><ele>466.99999999999994</ele><time>2026-03-28T13:24:17.334Z</time></trkpt><trkpt lat="43.4498232" lon="11.5819627"><ele>467.0</ele><time>2026-03-28T13:24:18.334Z</time></trkpt><trkpt lat="43.4498943" lon="11.5819249"><ele>466.8571428571428</ele><time>2026-03-28T13:24:19.335Z</time></trkpt><trkpt lat="43.449955" lon="11.5818755"><ele>466.71428571428567</ele><time>2026-03-28T13:24:20.335Z</time></trkpt><trkpt lat="43.4500195" lon="11.5818522"><ele>466.57142857142856</ele><time>2026-03-28T13:24:21.335Z</time></trkpt><trkpt lat="43.4500844" lon="11.5818412"><ele>466.4285714285714</ele><time>2026-03-28T13:24:22.335Z</time></trkpt><trkpt lat="43.4501606" lon="11.5818376"><ele>466.2857142857142</ele><time>2026-03-28T13:24:23.335Z</time></trkpt><trkpt lat="43.45024" lon="11.5818185"><ele>466.14285714285717</ele><time>2026-03-28T13:24:24.334Z</time></trkpt><trkpt lat="43.4503203" lon="11.5818141"><ele>466.0</ele><time>2026-03-28T13:24:25.335Z</time></trkpt><trkpt lat="43.450405" lon="11.5818033"><ele>465.20000000000005</ele><time>2026-03-28T13:24:26.335Z</time></trkpt><trkpt lat="43.4504928" lon="11.5817917"><ele>464.40000000000003</ele><time>2026-03-28T13:24:27.335Z</time></trkpt><trkpt lat="43.4506244" lon="11.5817732"><ele>463.6</ele><time>2026-03-28T13:24:29.335Z</time></trkpt><trkpt lat="43.4507048" lon="11.58174"><ele>462.8</ele><time>2026-03-28T13:24:31.335Z</time></trkpt><trkpt lat="43.4507948" lon="11.5817385"><ele>462.0</ele><time>2026-03-28T13:24:33.334Z</time></trkpt><trkpt lat="43.4508847" lon="11.5817749"><ele>462.0</ele><time>2026-03-28T13:24:35.334Z</time></trkpt><trkpt lat="43.4509844" lon="11.5818411"><ele>462.0</ele><time>2026-03-28T13:24:37.335Z</time></trkpt><trkpt lat="43.4510369" lon="11.5818897"><ele>462.0</ele><time>2026-03-28T13:24:38.335Z</time></trkpt><trkpt lat="43.4511143" lon="11.5819757"><ele>462.0</ele><time>2026-03-28T13:24:40.335Z</time></trkpt><trkpt lat="43.4512143" lon="11.5819872"><ele>462.0</ele><time>2026-03-28T13:24:42.335Z</time></trkpt><trkpt lat="43.451276" lon="11.5819449"><ele>462.0</ele><time>2026-03-28T13:24:44.334Z</time></trkpt><trkpt lat="43.4512419" lon="11.5818274"><ele>462.0</ele><time>2026-03-28T13:24:45.335Z</time></trkpt><trkpt lat="43.4512276" lon="11.5817126"><ele>462.00000000000006</ele><time>2026-03-28T13:24:47.335Z</time></trkpt><trkpt lat="43.4511999" lon="11.5815765"><ele>462.00000000000006</ele><time>2026-03-28T13:24:49.334Z</time></trkpt><trkpt lat="43.451195" lon="11.5814442"><ele>462.0</ele><time>2026-03-28T13:24:51.334Z</time></trkpt><trkpt lat="43.4511869" lon="11.5813565"><ele>462.0</ele><time>2026-03-28T13:24:52.335Z</time></trkpt><trkpt lat="43.4512046" lon="11.5812162"><ele>461.1666666666667</ele><time>2026-03-28T13:24:54.335Z</time></trkpt><trkpt lat="43.4512404" lon="11.581135"><ele>460.33333333333337</ele><time>2026-03-28T13:24:55.335Z</time></trkpt><trkpt lat="43.4513281" lon="11.5810243"><ele>459.5</ele><time>2026-03-28T13:24:57.335Z</time></trkpt><trkpt lat="43.451378" lon="11.5809611"><ele>458.6666666666667</ele><time>2026-03-28T13:24:58.335Z</time></trkpt><trkpt lat="43.4514414" lon="11.5809105"><ele>457.83333333333337</ele><time>2026-03-28T13:24:59.335Z</time></trkpt><trkpt lat="43.4515045" lon="11.5808639"><ele>457.0</ele><time>2026-03-28T13:25:00.335Z</time></trkpt><trkpt lat="43.4515666" lon="11.5808181"><ele>455.33333333333337</ele><time>2026-03-28T13:25:01.335Z</time></trkpt><trkpt lat="43.4516252" lon="11.5807729"><ele>453.6666666666667</ele><time>2026-03-28T13:25:02.334Z</time></trkpt><trkpt lat="43.4516811" lon="11.5807313"><ele>452.0</ele><time>2026-03-28T13:25:03.335Z</time></trkpt><trkpt lat="43.451805" lon="11.5806642"><ele>450.33333333333337</ele><time>2026-03-28T13:25:05.334Z</time></trkpt><trkpt lat="43.4518781" lon="11.5806414"><ele>448.6666666666667</ele><time>2026-03-28T13:25:06.335Z</time></trkpt><trkpt lat="43.4519496" lon="11.5806344"><ele>447.0</ele><time>2026-03-28T13:25:07.335Z</time></trkpt><trkpt lat="43.4520133" lon="11.5806157"><ele>447.0</ele><time>2026-03-28T13:25:08.335Z</time></trkpt><trkpt lat="43.4521172" lon="11.5806083"><ele>447.0</ele><time>2026-03-28T13:25:10.335Z</time></trkpt><trkpt lat="43.4521845" lon="11.5805466"><ele>447.0</ele><time>2026-03-28T13:25:13.335Z</time></trkpt><trkpt lat="43.4521591" lon="11.5804467"><ele>447.0</ele><time>2026-03-28T13:25:15.335Z</time></trkpt><trkpt lat="43.4521131" lon="11.5803428"><ele>447.0</ele><time>2026-03-28T13:25:18.335Z</time></trkpt><trkpt lat="43.4520792" lon="11.5802399"><ele>447.0</ele><time>2026-03-28T13:25:20.334Z</time></trkpt><trkpt lat="43.4521082" lon="11.5801235"><ele>447.40000000000003</ele><time>2026-03-28T13:25:22.335Z</time></trkpt><trkpt lat="43.4522225" lon="11.580036"><ele>447.80000000000007</ele><time>2026-03-28T13:25:24.334Z</time></trkpt><trkpt lat="43.452307" lon="11.5799844"><ele>448.2</ele><time>2026-03-28T13:25:25.335Z</time></trkpt><trkpt lat="43.4523959" lon="11.5799314"><ele>448.6</ele><time>2026-03-28T13:25:26.335Z</time></trkpt><trkpt lat="43.4524899" lon="11.5798773"><ele>449.0</ele><time>2026-03-28T13:25:27.335Z</time></trkpt><trkpt lat="43.4525746" lon="11.5798239"><ele>449.0</ele><time>2026-03-28T13:25:28.335Z</time></trkpt><trkpt lat="43.4526501" lon="11.5797784"><ele>448.99999999999994</ele><time>2026-03-28T13:25:29.334Z</time></trkpt><trkpt lat="43.4527176" lon="11.57974"><ele>449.0</ele><time>2026-03-28T13:25:30.334Z</time></trkpt><trkpt lat="43.4527802" lon="11.5797031"><ele>449.0</ele><time>2026-03-28T13:25:31.335Z</time></trkpt><trkpt lat="43.4528373" lon="11.5796665"><ele>448.99999999999994</ele><time>2026-03-28T13:25:32.335Z</time></trkpt><trkpt lat="43.4529019" lon="11.5796278"><ele>449.0</ele><time>2026-03-28T13:25:33.334Z</time></trkpt><trkpt lat="43.4529683" lon="11.5795883"><ele>449.0</ele><time>2026-03-28T13:25:34.335Z</time></trkpt><trkpt lat="43.4530424" lon="11.5795497"><ele>450.4</ele><time>2026-03-28T13:25:35.335Z</time></trkpt><trkpt lat="43.4531167" lon="11.5795022"><ele>451.79999999999995</ele><time>2026-03-28T13:25:36.334Z</time></trkpt><trkpt lat="43.4531987" lon="11.5794528"><ele>453.20000000000005</ele><time>2026-03-28T13:25:37.334Z</time></trkpt><trkpt lat="43.4532849" lon="11.5794001"><ele>454.6</ele><time>2026-03-28T13:25:38.335Z</time></trkpt><trkpt lat="43.453375" lon="11.5793481"><ele>456.0</ele><time>2026-03-28T13:25:39.335Z</time></trkpt><trkpt lat="43.4534607" lon="11.5792964"><ele>456.0</ele><time>2026-03-28T13:25:40.335Z</time></trkpt><trkpt lat="43.4535455" lon="11.5792432"><ele>456.0</ele><time>2026-03-28T13:25:41.335Z</time></trkpt><trkpt lat="43.4536183" lon="11.5792045"><ele>456.0</ele><time>2026-03-28T13:25:42.334Z</time></trkpt><trkpt lat="43.4536837" lon="11.5791658"><ele>456.0</ele><time>2026-03-28T13:25:43.334Z</time></trkpt><trkpt lat="43.4537515" lon="11.5791325"><ele>456.0</ele><time>2026-03-28T13:25:44.335Z</time></trkpt><trkpt lat="43.4538042" lon="11.5790702"><ele>456.0</ele><time>2026-03-28T13:25:45.334Z</time></trkpt><trkpt lat="43.4538659" lon="11.5790095"><ele>456.3333333333333</ele><time>2026-03-28T13:25:46.335Z</time></trkpt><trkpt lat="43.4539246" lon="11.5789489"><ele>456.66666666666663</ele><time>2026-03-28T13:25:47.335Z</time></trkpt><trkpt lat="43.4539815" lon="11.5788841"><ele>457.0</ele><time>2026-03-28T13:25:48.335Z</time></trkpt><trkpt lat="43.4540623" lon="11.5788146"><ele>457.3333333333333</ele><time>2026-03-28T13:25:49.335Z</time></trkpt><trkpt lat="43.4541401" lon="11.5787618"><ele>457.66666666666663</ele><time>2026-03-28T13:25:50.335Z</time></trkpt><trkpt lat="43.4542092" lon="11.5787127"><ele>458.0</ele><time>2026-03-28T13:25:51.335Z</time></trkpt><trkpt lat="43.4542727" lon="11.5786689"><ele>457.99999999999994</ele><time>2026-03-28T13:25:52.335Z</time></trkpt><trkpt lat="43.4543322" lon="11.5786271"><ele>458.0</ele><time>2026-03-28T13:25:53.334Z</time></trkpt><trkpt lat="43.4543827" lon="11.5785693"><ele>458.0</ele><time>2026-03-28T13:25:54.335Z</time></trkpt><trkpt lat="43.4544871" lon="11.5785032"><ele>458.0</ele><time>2026-03-28T13:25:56.335Z</time></trkpt><trkpt lat="43.4545422" lon="11.5784593"><ele>457.99999999999994</ele><time>2026-03-28T13:25:57.334Z</time></trkpt><trkpt lat="43.4546523" lon="11.5783904"><ele>458.0</ele><time>2026-03-28T13:25:59.335Z</time></trkpt><trkpt lat="43.4547504" lon="11.5784125"><ele>458.8333333333333</ele><time>2026-03-28T13:26:01.335Z</time></trkpt><trkpt lat="43.454824" lon="11.5783938"><ele>459.66666666666663</ele><time>2026-03-28T13:26:03.335Z</time></trkpt><trkpt lat="43.4548996" lon="11.5783032"><ele>460.5</ele><time>2026-03-28T13:26:05.335Z</time></trkpt><trkpt lat="43.4549408" lon="11.5782057"><ele>461.33333333333337</ele><time>2026-03-28T13:26:07.335Z</time></trkpt><trkpt lat="43.4549898" lon="11.5781111"><ele>462.1666666666667</ele><time>2026-03-28T13:26:09.335Z</time></trkpt><trkpt lat="43.4550662" lon="11.578024"><ele>463.0</ele><time>2026-03-28T13:26:11.335Z</time></trkpt><trkpt lat="43.4551211" lon="11.5779388"><ele>463.0</ele><time>2026-03-28T13:26:13.335Z</time></trkpt><trkpt lat="43.4551883" lon="11.5779054"><ele>462.99999999999994</ele><time>2026-03-28T13:26:16.334Z</time></trkpt><trkpt lat="43.4552438" lon="11.5778506"><ele>463.0</ele><time>2026-03-28T13:26:18.334Z</time></trkpt><trkpt lat="43.4553057" lon="11.5778019"><ele>463.0</ele><time>2026-03-28T13:26:20.335Z</time></trkpt><trkpt lat="43.4553739" lon="11.577762"><ele>462.99999999999994</ele><time>2026-03-28T13:26:22.335Z</time></trkpt><trkpt lat="43.4554214" lon="11.5776701"><ele>463.0</ele><time>2026-03-28T13:26:24.334Z</time></trkpt><trkpt lat="43.4554755" lon="11.5776123"><ele>463.0</ele><time>2026-03-28T13:26:26.335Z</time></trkpt><trkpt lat="43.4555543" lon="11.5776045"><ele>462.83333333333337</ele><time>2026-03-28T13:26:28.335Z</time></trkpt><trkpt lat="43.4556238" lon="11.5776221"><ele>462.6666666666667</ele><time>2026-03-28T13:26:30.335Z</time></trkpt><trkpt lat="43.4556995" lon="11.5776193"><ele>462.5</ele><time>2026-03-28T13:26:32.334Z</time></trkpt><trkpt lat="43.4557784" lon="11.5775551"><ele>462.33333333333337</ele><time>2026-03-28T13:26:34.335Z</time></trkpt><trkpt lat="43.4558618" lon="11.5774916"><ele>462.1666666666667</ele><time>2026-03-28T13:26:36.335Z</time></trkpt><trkpt lat="43.4559491" lon="11.5774244"><ele>462.0</ele><time>2026-03-28T13:26:38.335Z</time></trkpt><trkpt lat="43.456052" lon="11.5773654"><ele>462.0</ele><time>2026-03-28T13:26:40.335Z</time></trkpt><trkpt lat="43.4561437" lon="11.5773017"><ele>462.00000000000006</ele><time>2026-03-28T13:26:42.335Z</time></trkpt><trkpt lat="43.4562373" lon="11.5772357"><ele>462.00000000000006</ele><time>2026-03-28T13:26:44.334Z</time></trkpt><trkpt lat="43.4563196" lon="11.5771243"><ele>462.0</ele><time>2026-03-28T13:26:46.334Z</time></trkpt><trkpt lat="43.4563672" lon="11.5770559"><ele>462.0</ele><time>2026-03-28T13:26:47.335Z</time></trkpt><trkpt lat="43.4564307" lon="11.5769219"><ele>462.20000000000005</ele><time>2026-03-28T13:26:49.334Z</time></trkpt><trkpt lat="43.4564712" lon="11.5767852"><ele>462.40000000000003</ele><time>2026-03-28T13:26:51.335Z</time></trkpt><trkpt lat="43.4565178" lon="11.5766293"><ele>462.59999999999997</ele><time>2026-03-28T13:26:53.335Z</time></trkpt><trkpt lat="43.4565847" lon="11.5765165"><ele>462.79999999999995</ele><time>2026-03-28T13:26:55.335Z</time></trkpt><trkpt lat="43.4566511" lon="11.5763993"><ele>463.0</ele><time>2026-03-28T13:26:57.334Z</time></trkpt><trkpt lat="43.4567187" lon="11.5763013"><ele>463.00000000000006</ele><time>2026-03-28T13:26:59.334Z</time></trkpt><trkpt lat="43.4567631" lon="11.5762226"><ele>463.0</ele><time>2026-03-28T13:27:01.335Z</time></trkpt><trkpt lat="43.4568067" lon="11.5761302"><ele>463.0</ele><time>2026-03-28T13:27:03.335Z</time></trkpt><trkpt lat="43.45686" lon="11.5760499"><ele>463.0</ele><time>2026-03-28T13:27:05.334Z</time></trkpt><trkpt lat="43.4569433" lon="11.5759738"><ele>463.00000000000006</ele><time>2026-03-28T13:27:07.335Z</time></trkpt><trkpt lat="43.4570221" lon="11.5759417"><ele>463.0</ele><time>2026-03-28T13:27:09.334Z</time></trkpt><trkpt lat="43.4571047" lon="11.5759208"><ele>463.6666666666667</ele><time>2026-03-28T13:27:11.335Z</time></trkpt><trkpt lat="43.457208" lon="11.5758872"><ele>464.33333333333337</ele><time>2026-03-28T13:27:13.334Z</time></trkpt><trkpt lat="43.4572808" lon="11.5758579"><ele>465.0</ele><time>2026-03-28T13:27:15.335Z</time></trkpt><trkpt lat="43.4573354" lon="11.5758125"><ele>465.66666666666663</ele><time>2026-03-28T13:27:17.335Z</time></trkpt><trkpt lat="43.4574072" lon="11.5757482"><ele>466.3333333333333</ele><time>2026-03-28T13:27:20.335Z</time></trkpt><trkpt lat="43.4574898" lon="11.5757042"><ele>467.0</ele><time>2026-03-28T13:27:23.335Z</time></trkpt><trkpt lat="43.4575612" lon="11.5756881"><ele>466.99999999999994</ele><time>2026-03-28T13:27:25.335Z</time></trkpt><trkpt lat="43.4576468" lon="11.5757101"><ele>467.0</ele><time>2026-03-28T13:27:27.334Z</time></trkpt><trkpt lat="43.4577472" lon="11.5757563"><ele>467.0</ele><time>2026-03-28T13:27:29.334Z</time></trkpt><trkpt lat="43.4578211" lon="11.5757621"><ele>467.0</ele><time>2026-03-28T13:27:31.335Z</time></trkpt><trkpt lat="43.4579112" lon="11.5757177"><ele>466.99999999999994</ele><time>2026-03-28T13:27:34.335Z</time></trkpt><trkpt lat="43.4579674" lon="11.5756582"><ele>467.0</ele><time>2026-03-28T13:27:36.335Z</time></trkpt><trkpt lat="43.4580022" lon="11.5755419"><ele>467.16666666666663</ele><time>2026-03-28T13:27:38.335Z</time></trkpt><trkpt lat="43.4580447" lon="11.5754374"><ele>467.3333333333333</ele><time>2026-03-28T13:27:41.335Z</time></trkpt><trkpt lat="43.4580796" lon="11.5753586"><ele>467.5</ele><time>2026-03-28T13:27:44.335Z</time></trkpt><trkpt lat="43.4581198" lon="11.5752854"><ele>467.66666666666663</ele><time>2026-03-28T13:27:48.334Z</time></trkpt><trkpt lat="43.4581626" lon="11.5751899"><ele>467.8333333333333</ele><time>2026-03-28T13:27:51.335Z</time></trkpt><trkpt lat="43.4582018" lon="11.5750666"><ele>468.0</ele><time>2026-03-28T13:27:53.335Z</time></trkpt><trkpt lat="43.4582478" lon="11.574949"><ele>465.0</ele><time>2026-03-28T13:27:55.335Z</time></trkpt><trkpt lat="43.4582861" lon="11.5748385"><ele>461.99999999999994</ele><time>2026-03-28T13:27:57.334Z</time></trkpt><trkpt lat="43.4583651" lon="11.5747669"><ele>458.99999999999994</ele><time>2026-03-28T13:27:59.334Z</time></trkpt><trkpt lat="43.4584756" lon="11.5747768"><ele>456.0</ele><time>2026-03-28T13:28:01.335Z</time></trkpt><trkpt lat="43.4585799" lon="11.5748177"><ele>453.0</ele><time>2026-03-28T13:28:03.334Z</time></trkpt><trkpt lat="43.4586706" lon="11.5748769"><ele>453.0</ele><time>2026-03-28T13:28:05.334Z</time></trkpt><trkpt lat="43.4587332" lon="11.5748875"><ele>452.99999999999994</ele><time>2026-03-28T13:28:06.335Z</time></trkpt><trkpt lat="43.4588037" lon="11.5748919"><ele>452.99999999999994</ele><time>2026-03-28T13:28:07.334Z</time></trkpt><trkpt lat="43.4589183" lon="11.5749174"><ele>453.0</ele><time>2026-03-28T13:28:09.335Z</time></trkpt><trkpt lat="43.459025" lon="11.5749324"><ele>453.0</ele><time>2026-03-28T13:28:11.335Z</time></trkpt><trkpt lat="43.4591372" lon="11.5749427"><ele>451.59999999999997</ele><time>2026-03-28T13:28:13.335Z</time></trkpt><trkpt lat="43.4592415" lon="11.5749331"><ele>450.19999999999993</ele><time>2026-03-28T13:28:15.335Z</time></trkpt><trkpt lat="43.4593533" lon="11.5749506"><ele>448.8</ele><time>2026-03-28T13:28:17.334Z</time></trkpt><trkpt lat="43.4594673" lon="11.574942"><ele>447.4</ele><time>2026-03-28T13:28:19.335Z</time></trkpt><trkpt lat="43.4595262" lon="11.5749099"><ele>446.0</ele><time>2026-03-28T13:28:20.334Z</time></trkpt><trkpt lat="43.4595865" lon="11.5748404"><ele>444.0</ele><time>2026-03-28T13:28:22.335Z</time></trkpt><trkpt lat="43.459625" lon="11.5747408"><ele>442.0</ele><time>2026-03-28T13:28:25.334Z</time></trkpt><trkpt lat="43.4597027" lon="11.5747096"><ele>440.0</ele><time>2026-03-28T13:28:27.334Z</time></trkpt><trkpt lat="43.4598167" lon="11.574661"><ele>438.0</ele><time>2026-03-28T13:28:29.334Z</time></trkpt><trkpt lat="43.4599003" lon="11.574589"><ele>436.0</ele><time>2026-03-28T13:28:31.335Z</time></trkpt><trkpt lat="43.4600088" lon="11.5745606"><ele>436.0</ele><time>2026-03-28T13:28:33.334Z</time></trkpt><trkpt lat="43.460099" lon="11.5745409"><ele>436.0</ele><time>2026-03-28T13:28:35.334Z</time></trkpt><trkpt lat="43.4602185" lon="11.5745391"><ele>436.0</ele><time>2026-03-28T13:28:37.335Z</time></trkpt><trkpt lat="43.4602799" lon="11.5745179"><ele>436.0</ele><time>2026-03-28T13:28:38.334Z</time></trkpt><trkpt lat="43.4603939" lon="11.5744899"><ele>436.0</ele><time>2026-03-28T13:28:40.335Z</time></trkpt><trkpt lat="43.4605152" lon="11.574515"><ele>436.00000000000006</ele><time>2026-03-28T13:28:42.334Z</time></trkpt><trkpt lat="43.4606343" lon="11.5745173"><ele>436.0</ele><time>2026-03-28T13:28:44.335Z</time></trkpt><trkpt lat="43.460712" lon="11.5744914"><ele>436.0</ele><time>2026-03-28T13:28:46.335Z</time></trkpt><trkpt lat="43.4607822" lon="11.574472"><ele>436.0</ele><time>2026-03-28T13:28:48.335Z</time></trkpt><trkpt lat="43.4608522" lon="11.5744675"><ele>436.00000000000006</ele><time>2026-03-28T13:28:50.335Z</time></trkpt><trkpt lat="43.4609304" lon="11.5744513"><ele>436.0</ele><time>2026-03-28T13:28:52.335Z</time></trkpt><trkpt lat="43.4610022" lon="11.5743592"><ele>436.0</ele><time>2026-03-28T13:28:54.335Z</time></trkpt><trkpt lat="43.4610385" lon="11.5742313"><ele>436.0</ele><time>2026-03-28T13:28:56.335Z</time></trkpt><trkpt lat="43.4611025" lon="11.5741072"><ele>436.0</ele><time>2026-03-28T13:28:58.334Z</time></trkpt><trkpt lat="43.4611941" lon="11.5740554"><ele>436.0</ele><time>2026-03-28T13:29:00.335Z</time></trkpt><trkpt lat="43.4612828" lon="11.5740168"><ele>436.0</ele><time>2026-03-28T13:29:02.335Z</time></trkpt><trkpt lat="43.4613269" lon="11.5739018"><ele>437.50000000000006</ele><time>2026-03-28T13:29:05.334Z</time></trkpt><trkpt lat="43.4614074" lon="11.5738332"><ele>439.0</ele><time>2026-03-28T13:29:07.335Z</time></trkpt><trkpt lat="43.4614777" lon="11.5737782"><ele>440.5</ele><time>2026-03-28T13:29:09.335Z</time></trkpt><trkpt lat="43.4615586" lon="11.5737244"><ele>442.0</ele><time>2026-03-28T13:29:12.334Z</time></trkpt><trkpt lat="43.4616291" lon="11.5736617"><ele>443.50000000000006</ele><time>2026-03-28T13:29:14.335Z</time></trkpt><trkpt lat="43.4617089" lon="11.5736129"><ele>445.0</ele><time>2026-03-28T13:29:16.334Z</time></trkpt><trkpt lat="43.4617974" lon="11.5736115"><ele>445.00000000000006</ele><time>2026-03-28T13:29:18.335Z</time></trkpt><trkpt lat="43.4618555" lon="11.573708"><ele>445.0</ele><time>2026-03-28T13:29:21.335Z</time></trkpt><trkpt lat="43.4618877" lon="11.5738203"><ele>445.0</ele><time>2026-03-28T13:29:23.334Z</time></trkpt><trkpt lat="43.4619247" lon="11.5739055"><ele>445.0</ele><time>2026-03-28T13:29:25.335Z</time></trkpt><trkpt lat="43.4619616" lon="11.5739797"><ele>445.00000000000006</ele><time>2026-03-28T13:29:27.335Z</time></trkpt><trkpt lat="43.4620005" lon="11.5740502"><ele>445.0</ele><time>2026-03-28T13:29:29.334Z</time></trkpt><trkpt lat="43.462071" lon="11.5741403"><ele>445.83333333333337</ele><time>2026-03-28T13:29:32.334Z</time></trkpt><trkpt lat="43.4621527" lon="11.574213"><ele>446.6666666666667</ele><time>2026-03-28T13:29:34.334Z</time></trkpt><trkpt lat="43.4622048" lon="11.5743055"><ele>447.5</ele><time>2026-03-28T13:29:36.335Z</time></trkpt><trkpt lat="43.4622662" lon="11.574389"><ele>448.33333333333337</ele><time>2026-03-28T13:29:38.335Z</time></trkpt><trkpt lat="43.4623314" lon="11.5744699"><ele>449.1666666666667</ele><time>2026-03-28T13:29:40.335Z</time></trkpt><trkpt lat="43.4624045" lon="11.5745461"><ele>450.0</ele><time>2026-03-28T13:29:42.335Z</time></trkpt><trkpt lat="43.4624887" lon="11.5745796"><ele>450.0</ele><time>2026-03-28T13:29:44.334Z</time></trkpt><trkpt lat="43.4625685" lon="11.5745662"><ele>450.0</ele><time>2026-03-28T13:29:46.335Z</time></trkpt><trkpt lat="43.46265" lon="11.574544"><ele>450.0</ele><time>2026-03-28T13:29:48.334Z</time></trkpt><trkpt lat="43.4627297" lon="11.5745112"><ele>450.0</ele><time>2026-03-28T13:29:50.335Z</time></trkpt><trkpt lat="43.4628089" lon="11.5744434"><ele>450.0</ele><time>2026-03-28T13:29:52.334Z</time></trkpt><trkpt lat="43.4629002" lon="11.5743562"><ele>448.2</ele><time>2026-03-28T13:29:54.334Z</time></trkpt><trkpt lat="43.4629917" lon="11.5742747"><ele>446.4</ele><time>2026-03-28T13:29:56.335Z</time></trkpt><trkpt lat="43.4630879" lon="11.5741797"><ele>444.6</ele><time>2026-03-28T13:29:58.335Z</time></trkpt><trkpt lat="43.4631526" lon="11.5741128"><ele>442.8</ele><time>2026-03-28T13:30:00.335Z</time></trkpt><trkpt lat="43.4632257" lon="11.5740491"><ele>441.0</ele><time>2026-03-28T13:30:02.335Z</time></trkpt><trkpt lat="43.4633125" lon="11.5739767"><ele>441.0</ele><time>2026-03-28T13:30:04.335Z</time></trkpt><trkpt lat="43.463422" lon="11.5739307"><ele>441.0</ele><time>2026-03-28T13:30:06.334Z</time></trkpt><trkpt lat="43.4634863" lon="11.5739315"><ele>441.0</ele><time>2026-03-28T13:30:07.335Z</time></trkpt><trkpt lat="43.4635501" lon="11.5739526"><ele>441.0</ele><time>2026-03-28T13:30:08.334Z</time></trkpt><trkpt lat="43.4636374" lon="11.5739797"><ele>441.0</ele><time>2026-03-28T13:30:10.335Z</time></trkpt><trkpt lat="43.4637236" lon="11.5740371"><ele>441.0</ele><time>2026-03-28T13:30:13.335Z</time></trkpt><trkpt lat="43.4637861" lon="11.5739848"><ele>441.0</ele><time>2026-03-28T13:30:16.335Z</time></trkpt><trkpt lat="43.4637768" lon="11.5738964"><ele>441.0</ele><time>2026-03-28T13:30:18.334Z</time></trkpt><trkpt lat="43.4637382" lon="11.573809"><ele>441.0</ele><time>2026-03-28T13:30:20.334Z</time></trkpt><trkpt lat="43.463705" lon="11.573688"><ele>441.0</ele><time>2026-03-28T13:30:22.335Z</time></trkpt><trkpt lat="43.4637043" lon="11.5735429"><ele>441.0</ele><time>2026-03-28T13:30:24.335Z</time></trkpt><trkpt lat="43.463712" lon="11.5734089"><ele>441.0</ele><time>2026-03-28T13:30:26.335Z</time></trkpt><trkpt lat="43.4637817" lon="11.573292"><ele>440.8</ele><time>2026-03-28T13:30:29.335Z</time></trkpt><trkpt lat="43.4638222" lon="11.5732241"><ele>440.6</ele><time>2026-03-28T13:30:30.335Z</time></trkpt><trkpt lat="43.4639008" lon="11.5731055"><ele>440.4</ele><time>2026-03-28T13:30:32.335Z</time></trkpt><trkpt lat="43.4639672" lon="11.5729857"><ele>440.2</ele><time>2026-03-28T13:30:34.335Z</time></trkpt><trkpt lat="43.4640387" lon="11.5728686"><ele>440.0</ele><time>2026-03-28T13:30:36.335Z</time></trkpt><trkpt lat="43.4641085" lon="11.5727219"><ele>439.99999999999994</ele><time>2026-03-28T13:30:38.335Z</time></trkpt><trkpt lat="43.4641801" lon="11.5726031"><ele>440.0</ele><time>2026-03-28T13:30:40.335Z</time></trkpt><trkpt lat="43.4642307" lon="11.5725507"><ele>440.0</ele><time>2026-03-28T13:30:41.335Z</time></trkpt><trkpt lat="43.4642817" lon="11.5724829"><ele>440.0</ele><time>2026-03-28T13:30:42.335Z</time></trkpt><trkpt lat="43.464334" lon="11.572411"><ele>439.99999999999994</ele><time>2026-03-28T13:30:43.334Z</time></trkpt><trkpt lat="43.4643846" lon="11.5723428"><ele>440.0</ele><time>2026-03-28T13:30:44.334Z</time></trkpt><trkpt lat="43.464445" lon="11.572279"><ele>439.99999999999994</ele><time>2026-03-28T13:30:45.335Z</time></trkpt><trkpt lat="43.4644986" lon="11.572214"><ele>440.0</ele><time>2026-03-28T13:30:46.335Z</time></trkpt><trkpt lat="43.4645487" lon="11.5721573"><ele>440.0</ele><time>2026-03-28T13:30:47.335Z</time></trkpt><trkpt lat="43.4646409" lon="11.5720611"><ele>440.0</ele><time>2026-03-28T13:30:49.334Z</time></trkpt><trkpt lat="43.4647256" lon="11.5719482"><ele>439.99999999999994</ele><time>2026-03-28T13:30:51.335Z</time></trkpt><trkpt lat="43.4647793" lon="11.5718905"><ele>440.0</ele><time>2026-03-28T13:30:52.334Z</time></trkpt><trkpt lat="43.4648373" lon="11.5718429"><ele>439.8333333333333</ele><time>2026-03-28T13:30:53.334Z</time></trkpt><trkpt lat="43.4649438" lon="11.5717511"><ele>439.66666666666663</ele><time>2026-03-28T13:30:55.335Z</time></trkpt><trkpt lat="43.465003" lon="11.5717017"><ele>439.5</ele><time>2026-03-28T13:30:56.335Z</time></trkpt><trkpt lat="43.4650646" lon="11.5716491"><ele>439.33333333333337</ele><time>2026-03-28T13:30:57.334Z</time></trkpt><trkpt lat="43.4651265" lon="11.571584"><ele>439.1666666666667</ele><time>2026-03-28T13:30:58.334Z</time></trkpt><trkpt lat="43.4651823" lon="11.5715266"><ele>439.0</ele><time>2026-03-28T13:30:59.335Z</time></trkpt><trkpt lat="43.4652343" lon="11.5714719"><ele>439.0</ele><time>2026-03-28T13:31:00.335Z</time></trkpt><trkpt lat="43.4653294" lon="11.5713683"><ele>439.0</ele><time>2026-03-28T13:31:02.335Z</time></trkpt><trkpt lat="43.4653812" lon="11.571261"><ele>439.0</ele><time>2026-03-28T13:31:04.335Z</time></trkpt><trkpt lat="43.465373" lon="11.5711483"><ele>439.0</ele><time>2026-03-28T13:31:06.334Z</time></trkpt><trkpt lat="43.4653694" lon="11.5710556"><ele>439.0</ele><time>2026-03-28T13:31:08.335Z</time></trkpt><trkpt lat="43.46538" lon="11.570923"><ele>440.4</ele><time>2026-03-28T13:31:10.335Z</time></trkpt><trkpt lat="43.4654282" lon="11.5707654"><ele>441.79999999999995</ele><time>2026-03-28T13:31:12.334Z</time></trkpt><trkpt lat="43.4654643" lon="11.5706807"><ele>443.20000000000005</ele><time>2026-03-28T13:31:13.335Z</time></trkpt><trkpt lat="43.4655129" lon="11.570603"><ele>444.6</ele><time>2026-03-28T13:31:14.335Z</time></trkpt><trkpt lat="43.4655673" lon="11.5705518"><ele>446.0</ele><time>2026-03-28T13:31:15.335Z</time></trkpt><trkpt lat="43.4656612" lon="11.5704521"><ele>446.0</ele><time>2026-03-28T13:31:17.335Z</time></trkpt><trkpt lat="43.4657006" lon="11.5703807"><ele>446.0</ele><time>2026-03-28T13:31:18.335Z</time></trkpt><trkpt lat="43.4657396" lon="11.5702903"><ele>446.0</ele><time>2026-03-28T13:31:19.335Z</time></trkpt><trkpt lat="43.4657677" lon="11.5701942"><ele>446.0</ele><time>2026-03-28T13:31:20.334Z</time></trkpt><trkpt lat="43.4658105" lon="11.5701131"><ele>446.0</ele><time>2026-03-28T13:31:21.334Z</time></trkpt><trkpt lat="43.4658642" lon="11.5700451"><ele>446.0</ele><time>2026-03-28T13:31:22.335Z</time></trkpt><trkpt lat="43.4659375" lon="11.5700049"><ele>446.0</ele><time>2026-03-28T13:31:23.334Z</time></trkpt><trkpt lat="43.4660126" lon="11.5699811"><ele>446.3333333333333</ele><time>2026-03-28T13:31:24.335Z</time></trkpt><trkpt lat="43.4660866" lon="11.5699527"><ele>446.66666666666663</ele><time>2026-03-28T13:31:25.335Z</time></trkpt><trkpt lat="43.4661667" lon="11.5699161"><ele>447.0</ele><time>2026-03-28T13:31:26.334Z</time></trkpt><trkpt lat="43.4662437" lon="11.569864"><ele>447.33333333333337</ele><time>2026-03-28T13:31:27.335Z</time></trkpt><trkpt lat="43.4663128" lon="11.5697983"><ele>447.6666666666667</ele><time>2026-03-28T13:31:28.335Z</time></trkpt><trkpt lat="43.4663785" lon="11.5697474"><ele>448.0</ele><time>2026-03-28T13:31:29.335Z</time></trkpt><trkpt lat="43.466442" lon="11.5697109"><ele>448.00000000000006</ele><time>2026-03-28T13:31:30.335Z</time></trkpt><trkpt lat="43.4665102" lon="11.5696517"><ele>448.0</ele><time>2026-03-28T13:31:31.335Z</time></trkpt><trkpt lat="43.4665573" lon="11.5695781"><ele>448.0</ele><time>2026-03-28T13:31:32.335Z</time></trkpt><trkpt lat="43.4666067" lon="11.5694867"><ele>448.0</ele><time>2026-03-28T13:31:33.334Z</time></trkpt><trkpt lat="43.4666531" lon="11.5693733"><ele>448.00000000000006</ele><time>2026-03-28T13:31:34.335Z</time></trkpt><trkpt lat="43.4667025" lon="11.5692612"><ele>448.0</ele><time>2026-03-28T13:31:35.335Z</time></trkpt><trkpt lat="43.4667583" lon="11.569149"><ele>449.2</ele><time>2026-03-28T13:31:36.335Z</time></trkpt><trkpt lat="43.4668078" lon="11.5690245"><ele>450.4</ele><time>2026-03-28T13:31:37.334Z</time></trkpt><trkpt lat="43.466859" lon="11.5689326"><ele>451.59999999999997</ele><time>2026-03-28T13:31:38.335Z</time></trkpt><trkpt lat="43.4668987" lon="11.5688371"><ele>452.79999999999995</ele><time>2026-03-28T13:31:39.334Z</time></trkpt><trkpt lat="43.4669859" lon="11.5687336"><ele>454.0</ele><time>2026-03-28T13:31:41.335Z</time></trkpt><trkpt lat="43.4670418" lon="11.5686572"><ele>455.00000000000006</ele><time>2026-03-28T13:31:43.334Z</time></trkpt><trkpt lat="43.4670142" lon="11.5685507"><ele>456.0</ele><time>2026-03-28T13:31:46.334Z</time></trkpt><trkpt lat="43.466977" lon="11.5684522"><ele>457.0</ele><time>2026-03-28T13:31:48.335Z</time></trkpt><trkpt lat="43.4669638" lon="11.5683196"><ele>458.0</ele><time>2026-03-28T13:31:50.335Z</time></trkpt><trkpt lat="43.4669881" lon="11.568196"><ele>459.00000000000006</ele><time>2026-03-28T13:31:52.335Z</time></trkpt><trkpt lat="43.4669635" lon="11.5680732"><ele>460.0</ele><time>2026-03-28T13:31:54.335Z</time></trkpt><trkpt lat="43.4669127" lon="11.5679695"><ele>460.0</ele><time>2026-03-28T13:31:56.335Z</time></trkpt><trkpt lat="43.4668751" lon="11.5678958"><ele>460.0</ele><time>2026-03-28T13:31:58.334Z</time></trkpt><trkpt lat="43.4668276" lon="11.5677952"><ele>460.0</ele><time>2026-03-28T13:32:01.334Z</time></trkpt><trkpt lat="43.4668056" lon="11.5676195"><ele>460.0</ele><time>2026-03-28T13:32:03.335Z</time></trkpt><trkpt lat="43.4667976" lon="11.5675204"><ele>460.0</ele><time>2026-03-28T13:32:04.335Z</time></trkpt><trkpt lat="43.4667931" lon="11.567348"><ele>468.0</ele><time>2026-03-28T13:32:06.335Z</time></trkpt><trkpt lat="43.4668106" lon="11.5671814"><ele>468.0</ele><time>2026-03-28T13:32:08.334Z</time></trkpt><trkpt lat="43.46687" lon="11.5671458"><ele>468.0</ele><time>2026-03-28T13:32:09.335Z</time></trkpt><trkpt lat="43.4669437" lon="11.5671208"><ele>468.0</ele><time>2026-03-28T13:32:13.335Z</time></trkpt><trkpt lat="43.4670066" lon="11.5671074"><ele>468.0</ele><time>2026-03-28T13:32:17.335Z</time></trkpt></trkseg></trk></gpx>